<?xml version="1.0" encoding="UTF-8" standalone="no" ?>
<gpx xmlns="http://www.topografix.com/GPX/1/1" xmlns:xsi="http://www.w3.org/2001/XMLSchema-instance" xsi:schemaLocation="http://www.topografix.com/GPX/1/1 http://www.topografix.com/GPX/1/1/gpx.xsd" version="1.1" creator="VisuGPX - https://www.visugpx.com">
  <metadata>
    <name>Prailles 9km</name>
  </metadata>
  <trk>
    <name><![CDATA[Prailles 9km_1]]></name>
    <trkseg>
      <trkpt lat="46.32279" lon="-0.21938">
        <ele>193</ele>
        <time>2011-10-18T14:08:35Z</time>
      </trkpt>
      <trkpt lat="46.32281" lon="-0.21936">
        <ele>191</ele>
        <time>2011-10-18T14:08:45Z</time>
      </trkpt>
      <trkpt lat="46.32281" lon="-0.21936">
        <ele>192</ele>
        <time>2011-10-18T14:08:50Z</time>
      </trkpt>
      <trkpt lat="46.3228" lon="-0.21935">
        <ele>192</ele>
        <time>2011-10-18T14:09:20Z</time>
      </trkpt>
      <trkpt lat="46.32281" lon="-0.21935">
        <ele>192</ele>
        <time>2011-10-18T14:09:25Z</time>
      </trkpt>
      <trkpt lat="46.32281" lon="-0.21935">
        <ele>191</ele>
        <time>2011-10-18T14:09:30Z</time>
      </trkpt>
      <trkpt lat="46.32281" lon="-0.21935">
        <ele>191</ele>
        <time>2011-10-18T14:09:40Z</time>
      </trkpt>
      <trkpt lat="46.32281" lon="-0.21935">
        <ele>191</ele>
        <time>2011-10-18T14:09:55Z</time>
      </trkpt>
      <trkpt lat="46.32282" lon="-0.21933">
        <ele>190</ele>
        <time>2011-10-18T14:10:00Z</time>
      </trkpt>
      <trkpt lat="46.32281" lon="-0.21933">
        <ele>189</ele>
        <time>2011-10-18T14:10:05Z</time>
      </trkpt>
      <trkpt lat="46.32283" lon="-0.21932">
        <ele>189</ele>
        <time>2011-10-18T14:10:10Z</time>
      </trkpt>
      <trkpt lat="46.32284" lon="-0.21928">
        <ele>188</ele>
        <time>2011-10-18T14:10:15Z</time>
      </trkpt>
      <trkpt lat="46.32282" lon="-0.21927">
        <ele>189</ele>
        <time>2011-10-18T14:10:20Z</time>
      </trkpt>
      <trkpt lat="46.32282" lon="-0.21925">
        <ele>189</ele>
        <time>2011-10-18T14:10:25Z</time>
      </trkpt>
      <trkpt lat="46.32283" lon="-0.21926">
        <ele>188</ele>
        <time>2011-10-18T14:10:30Z</time>
      </trkpt>
      <trkpt lat="46.32283" lon="-0.21925">
        <ele>188</ele>
        <time>2011-10-18T14:10:35Z</time>
      </trkpt>
      <trkpt lat="46.32283" lon="-0.21924">
        <ele>189</ele>
        <time>2011-10-18T14:10:40Z</time>
      </trkpt>
      <trkpt lat="46.32282" lon="-0.21925">
        <ele>189</ele>
        <time>2011-10-18T14:10:45Z</time>
      </trkpt>
      <trkpt lat="46.32282" lon="-0.21924">
        <ele>189</ele>
        <time>2011-10-18T14:10:50Z</time>
      </trkpt>
      <trkpt lat="46.32284" lon="-0.21923">
        <ele>190</ele>
        <time>2011-10-18T14:11:00Z</time>
      </trkpt>
      <trkpt lat="46.32283" lon="-0.2192">
        <ele>189</ele>
        <time>2011-10-18T14:11:05Z</time>
      </trkpt>
      <trkpt lat="46.32284" lon="-0.21917">
        <ele>188</ele>
        <time>2011-10-18T14:11:10Z</time>
      </trkpt>
      <trkpt lat="46.32284" lon="-0.21918">
        <ele>188</ele>
        <time>2011-10-18T14:11:15Z</time>
      </trkpt>
      <trkpt lat="46.32278" lon="-0.21916">
        <ele>186</ele>
        <time>2011-10-18T14:11:20Z</time>
      </trkpt>
      <trkpt lat="46.32273" lon="-0.21915">
        <ele>186</ele>
        <time>2011-10-18T14:11:25Z</time>
      </trkpt>
      <trkpt lat="46.32269" lon="-0.21914">
        <ele>186</ele>
        <time>2011-10-18T14:11:30Z</time>
      </trkpt>
      <trkpt lat="46.32268" lon="-0.21913">
        <ele>186</ele>
        <time>2011-10-18T14:11:35Z</time>
      </trkpt>
      <trkpt lat="46.32266" lon="-0.21912">
        <ele>186</ele>
        <time>2011-10-18T14:11:40Z</time>
      </trkpt>
      <trkpt lat="46.32266" lon="-0.21912">
        <ele>186</ele>
        <time>2011-10-18T14:11:50Z</time>
      </trkpt>
      <trkpt lat="46.32265" lon="-0.21911">
        <ele>186</ele>
        <time>2011-10-18T14:11:55Z</time>
      </trkpt>
      <trkpt lat="46.32265" lon="-0.2191">
        <ele>186</ele>
        <time>2011-10-18T14:12:00Z</time>
      </trkpt>
      <trkpt lat="46.32265" lon="-0.21909">
        <ele>186</ele>
        <time>2011-10-18T14:12:10Z</time>
      </trkpt>
      <trkpt lat="46.32263" lon="-0.21907">
        <ele>186</ele>
        <time>2011-10-18T14:12:30Z</time>
      </trkpt>
      <trkpt lat="46.32259" lon="-0.21905">
        <ele>186</ele>
        <time>2011-10-18T14:12:35Z</time>
      </trkpt>
      <trkpt lat="46.32257" lon="-0.21905">
        <ele>187</ele>
        <time>2011-10-18T14:12:40Z</time>
      </trkpt>
      <trkpt lat="46.32251" lon="-0.21903">
        <ele>187</ele>
        <time>2011-10-18T14:12:45Z</time>
      </trkpt>
      <trkpt lat="46.32245" lon="-0.21906">
        <ele>189</ele>
        <time>2011-10-18T14:12:50Z</time>
      </trkpt>
      <trkpt lat="46.32244" lon="-0.21906">
        <ele>190</ele>
        <time>2011-10-18T14:12:55Z</time>
      </trkpt>
      <trkpt lat="46.32242" lon="-0.2191">
        <ele>191</ele>
        <time>2011-10-18T14:13:00Z</time>
      </trkpt>
      <trkpt lat="46.32239" lon="-0.21912">
        <ele>191</ele>
        <time>2011-10-18T14:13:05Z</time>
      </trkpt>
      <trkpt lat="46.32235" lon="-0.21914">
        <ele>191</ele>
        <time>2011-10-18T14:13:10Z</time>
      </trkpt>
      <trkpt lat="46.32235" lon="-0.21916">
        <ele>191</ele>
        <time>2011-10-18T14:13:15Z</time>
      </trkpt>
      <trkpt lat="46.32235" lon="-0.21915">
        <ele>190</ele>
        <time>2011-10-18T14:13:20Z</time>
      </trkpt>
      <trkpt lat="46.32234" lon="-0.21916">
        <ele>190</ele>
        <time>2011-10-18T14:13:25Z</time>
      </trkpt>
      <trkpt lat="46.32233" lon="-0.21917">
        <ele>189</ele>
        <time>2011-10-18T14:13:30Z</time>
      </trkpt>
      <trkpt lat="46.32233" lon="-0.21917">
        <ele>189</ele>
        <time>2011-10-18T14:13:35Z</time>
      </trkpt>
      <trkpt lat="46.3223" lon="-0.21917">
        <ele>192</ele>
        <time>2011-10-18T14:13:40Z</time>
      </trkpt>
      <trkpt lat="46.32227" lon="-0.21921">
        <ele>194</ele>
        <time>2011-10-18T14:13:45Z</time>
      </trkpt>
      <trkpt lat="46.32222" lon="-0.21923">
        <ele>194</ele>
        <time>2011-10-18T14:13:50Z</time>
      </trkpt>
      <trkpt lat="46.32215" lon="-0.21928">
        <ele>195</ele>
        <time>2011-10-18T14:13:55Z</time>
      </trkpt>
      <trkpt lat="46.3221" lon="-0.21931">
        <ele>195</ele>
        <time>2011-10-18T14:14:00Z</time>
      </trkpt>
      <trkpt lat="46.32205" lon="-0.21936">
        <ele>197</ele>
        <time>2011-10-18T14:14:05Z</time>
      </trkpt>
      <trkpt lat="46.32199" lon="-0.21938">
        <ele>197</ele>
        <time>2011-10-18T14:14:10Z</time>
      </trkpt>
      <trkpt lat="46.32194" lon="-0.21941">
        <ele>197</ele>
        <time>2011-10-18T14:14:15Z</time>
      </trkpt>
      <trkpt lat="46.32189" lon="-0.21944">
        <ele>196</ele>
        <time>2011-10-18T14:14:20Z</time>
      </trkpt>
      <trkpt lat="46.32184" lon="-0.21947">
        <ele>195</ele>
        <time>2011-10-18T14:14:25Z</time>
      </trkpt>
      <trkpt lat="46.32179" lon="-0.2195">
        <ele>196</ele>
        <time>2011-10-18T14:14:30Z</time>
      </trkpt>
      <trkpt lat="46.32173" lon="-0.21952">
        <ele>198</ele>
        <time>2011-10-18T14:14:35Z</time>
      </trkpt>
      <trkpt lat="46.32167" lon="-0.21954">
        <ele>199</ele>
        <time>2011-10-18T14:14:40Z</time>
      </trkpt>
      <trkpt lat="46.32163" lon="-0.21956">
        <ele>198</ele>
        <time>2011-10-18T14:14:45Z</time>
      </trkpt>
      <trkpt lat="46.32157" lon="-0.21956">
        <ele>199</ele>
        <time>2011-10-18T14:14:50Z</time>
      </trkpt>
      <trkpt lat="46.32153" lon="-0.21959">
        <ele>199</ele>
        <time>2011-10-18T14:14:55Z</time>
      </trkpt>
      <trkpt lat="46.32149" lon="-0.21961">
        <ele>198</ele>
        <time>2011-10-18T14:15:00Z</time>
      </trkpt>
      <trkpt lat="46.32146" lon="-0.21963">
        <ele>196</ele>
        <time>2011-10-18T14:15:05Z</time>
      </trkpt>
      <trkpt lat="46.32142" lon="-0.21965">
        <ele>194</ele>
        <time>2011-10-18T14:15:10Z</time>
      </trkpt>
      <trkpt lat="46.32137" lon="-0.21968">
        <ele>192</ele>
        <time>2011-10-18T14:15:15Z</time>
      </trkpt>
      <trkpt lat="46.32132" lon="-0.21971">
        <ele>192</ele>
        <time>2011-10-18T14:15:20Z</time>
      </trkpt>
      <trkpt lat="46.32127" lon="-0.21974">
        <ele>189</ele>
        <time>2011-10-18T14:15:25Z</time>
      </trkpt>
      <trkpt lat="46.32122" lon="-0.21976">
        <ele>188</ele>
        <time>2011-10-18T14:15:30Z</time>
      </trkpt>
      <trkpt lat="46.32115" lon="-0.21982">
        <ele>192</ele>
        <time>2011-10-18T14:15:35Z</time>
      </trkpt>
      <trkpt lat="46.3211" lon="-0.21986">
        <ele>191</ele>
        <time>2011-10-18T14:15:40Z</time>
      </trkpt>
      <trkpt lat="46.32104" lon="-0.21989">
        <ele>191</ele>
        <time>2011-10-18T14:15:45Z</time>
      </trkpt>
      <trkpt lat="46.321" lon="-0.22">
        <ele>189</ele>
        <time>2011-10-18T14:15:50Z</time>
      </trkpt>
      <trkpt lat="46.32093" lon="-0.22006">
        <ele>191</ele>
        <time>2011-10-18T14:15:55Z</time>
      </trkpt>
      <trkpt lat="46.3209" lon="-0.2201">
        <ele>188</ele>
        <time>2011-10-18T14:16:00Z</time>
      </trkpt>
      <trkpt lat="46.32085" lon="-0.22013">
        <ele>186</ele>
        <time>2011-10-18T14:16:05Z</time>
      </trkpt>
      <trkpt lat="46.32081" lon="-0.22018">
        <ele>185</ele>
        <time>2011-10-18T14:16:10Z</time>
      </trkpt>
      <trkpt lat="46.32076" lon="-0.22019">
        <ele>184</ele>
        <time>2011-10-18T14:16:15Z</time>
      </trkpt>
      <trkpt lat="46.32072" lon="-0.22023">
        <ele>181</ele>
        <time>2011-10-18T14:16:20Z</time>
      </trkpt>
      <trkpt lat="46.32065" lon="-0.22026">
        <ele>179</ele>
        <time>2011-10-18T14:16:25Z</time>
      </trkpt>
      <trkpt lat="46.32059" lon="-0.22026">
        <ele>180</ele>
        <time>2011-10-18T14:16:30Z</time>
      </trkpt>
      <trkpt lat="46.32053" lon="-0.22023">
        <ele>180</ele>
        <time>2011-10-18T14:16:35Z</time>
      </trkpt>
      <trkpt lat="46.32048" lon="-0.22017">
        <ele>179</ele>
        <time>2011-10-18T14:16:40Z</time>
      </trkpt>
      <trkpt lat="46.32045" lon="-0.22009">
        <ele>180</ele>
        <time>2011-10-18T14:16:45Z</time>
      </trkpt>
      <trkpt lat="46.32041" lon="-0.22003">
        <ele>181</ele>
        <time>2011-10-18T14:16:50Z</time>
      </trkpt>
      <trkpt lat="46.32037" lon="-0.21996">
        <ele>181</ele>
        <time>2011-10-18T14:16:55Z</time>
      </trkpt>
      <trkpt lat="46.32032" lon="-0.2199">
        <ele>180</ele>
        <time>2011-10-18T14:17:00Z</time>
      </trkpt>
      <trkpt lat="46.32028" lon="-0.21984">
        <ele>179</ele>
        <time>2011-10-18T14:17:05Z</time>
      </trkpt>
      <trkpt lat="46.32025" lon="-0.21979">
        <ele>179</ele>
        <time>2011-10-18T14:17:10Z</time>
      </trkpt>
      <trkpt lat="46.32022" lon="-0.21971">
        <ele>177</ele>
        <time>2011-10-18T14:17:15Z</time>
      </trkpt>
      <trkpt lat="46.32018" lon="-0.21962">
        <ele>176</ele>
        <time>2011-10-18T14:17:20Z</time>
      </trkpt>
      <trkpt lat="46.32013" lon="-0.21955">
        <ele>178</ele>
        <time>2011-10-18T14:17:25Z</time>
      </trkpt>
      <trkpt lat="46.32012" lon="-0.21949">
        <ele>176</ele>
        <time>2011-10-18T14:17:30Z</time>
      </trkpt>
      <trkpt lat="46.32009" lon="-0.2194">
        <ele>176</ele>
        <time>2011-10-18T14:17:35Z</time>
      </trkpt>
      <trkpt lat="46.32007" lon="-0.21932">
        <ele>176</ele>
        <time>2011-10-18T14:17:40Z</time>
      </trkpt>
      <trkpt lat="46.32004" lon="-0.21924">
        <ele>176</ele>
        <time>2011-10-18T14:17:45Z</time>
      </trkpt>
      <trkpt lat="46.32003" lon="-0.21917">
        <ele>177</ele>
        <time>2011-10-18T14:17:50Z</time>
      </trkpt>
      <trkpt lat="46.32002" lon="-0.21908">
        <ele>177</ele>
        <time>2011-10-18T14:17:55Z</time>
      </trkpt>
      <trkpt lat="46.32" lon="-0.219">
        <ele>177</ele>
        <time>2011-10-18T14:18:00Z</time>
      </trkpt>
      <trkpt lat="46.31996" lon="-0.21892">
        <ele>177</ele>
        <time>2011-10-18T14:18:05Z</time>
      </trkpt>
      <trkpt lat="46.31992" lon="-0.21884">
        <ele>180</ele>
        <time>2011-10-18T14:18:10Z</time>
      </trkpt>
      <trkpt lat="46.31987" lon="-0.21879">
        <ele>180</ele>
        <time>2011-10-18T14:18:15Z</time>
      </trkpt>
      <trkpt lat="46.31981" lon="-0.21875">
        <ele>183</ele>
        <time>2011-10-18T14:18:20Z</time>
      </trkpt>
      <trkpt lat="46.31974" lon="-0.21872">
        <ele>184</ele>
        <time>2011-10-18T14:18:25Z</time>
      </trkpt>
      <trkpt lat="46.31968" lon="-0.2187">
        <ele>184</ele>
        <time>2011-10-18T14:18:30Z</time>
      </trkpt>
      <trkpt lat="46.31964" lon="-0.21868">
        <ele>182</ele>
        <time>2011-10-18T14:18:35Z</time>
      </trkpt>
      <trkpt lat="46.31958" lon="-0.21869">
        <ele>184</ele>
        <time>2011-10-18T14:18:40Z</time>
      </trkpt>
      <trkpt lat="46.31953" lon="-0.21868">
        <ele>182</ele>
        <time>2011-10-18T14:18:45Z</time>
      </trkpt>
      <trkpt lat="46.31946" lon="-0.2187">
        <ele>184</ele>
        <time>2011-10-18T14:18:50Z</time>
      </trkpt>
      <trkpt lat="46.31939" lon="-0.2187">
        <ele>185</ele>
        <time>2011-10-18T14:18:55Z</time>
      </trkpt>
      <trkpt lat="46.31935" lon="-0.21864">
        <ele>185</ele>
        <time>2011-10-18T14:19:00Z</time>
      </trkpt>
      <trkpt lat="46.31936" lon="-0.21857">
        <ele>187</ele>
        <time>2011-10-18T14:19:05Z</time>
      </trkpt>
      <trkpt lat="46.31937" lon="-0.2185">
        <ele>187</ele>
        <time>2011-10-18T14:19:10Z</time>
      </trkpt>
      <trkpt lat="46.31939" lon="-0.21843">
        <ele>188</ele>
        <time>2011-10-18T14:19:15Z</time>
      </trkpt>
      <trkpt lat="46.31939" lon="-0.21835">
        <ele>191</ele>
        <time>2011-10-18T14:19:20Z</time>
      </trkpt>
      <trkpt lat="46.31938" lon="-0.21825">
        <ele>194</ele>
        <time>2011-10-18T14:19:25Z</time>
      </trkpt>
      <trkpt lat="46.31936" lon="-0.2181">
        <ele>194</ele>
        <time>2011-10-18T14:19:35Z</time>
      </trkpt>
      <trkpt lat="46.31934" lon="-0.21804">
        <ele>193</ele>
        <time>2011-10-18T14:19:40Z</time>
      </trkpt>
      <trkpt lat="46.31935" lon="-0.21798">
        <ele>191</ele>
        <time>2011-10-18T14:19:45Z</time>
      </trkpt>
      <trkpt lat="46.31935" lon="-0.21798">
        <ele>191</ele>
        <time>2011-10-18T14:19:50Z</time>
      </trkpt>
      <trkpt lat="46.31936" lon="-0.21798">
        <ele>190</ele>
        <time>2011-10-18T14:19:55Z</time>
      </trkpt>
      <trkpt lat="46.31936" lon="-0.21799">
        <ele>192</ele>
        <time>2011-10-18T14:20:00Z</time>
      </trkpt>
      <trkpt lat="46.31935" lon="-0.21799">
        <ele>192</ele>
        <time>2011-10-18T14:20:10Z</time>
      </trkpt>
      <trkpt lat="46.31936" lon="-0.21804">
        <ele>191</ele>
        <time>2011-10-18T14:20:20Z</time>
      </trkpt>
      <trkpt lat="46.31937" lon="-0.2181">
        <ele>191</ele>
        <time>2011-10-18T14:20:25Z</time>
      </trkpt>
      <trkpt lat="46.31936" lon="-0.21809">
        <ele>194</ele>
        <time>2011-10-18T14:26:25Z</time>
      </trkpt>
      <trkpt lat="46.31935" lon="-0.218">
        <ele>193</ele>
        <time>2011-10-18T14:26:30Z</time>
      </trkpt>
      <trkpt lat="46.31932" lon="-0.21793">
        <ele>193</ele>
        <time>2011-10-18T14:26:35Z</time>
      </trkpt>
      <trkpt lat="46.31928" lon="-0.21788">
        <ele>195</ele>
        <time>2011-10-18T14:26:40Z</time>
      </trkpt>
      <trkpt lat="46.31925" lon="-0.21786">
        <ele>196</ele>
        <time>2011-10-18T14:26:45Z</time>
      </trkpt>
      <trkpt lat="46.31924" lon="-0.21786">
        <ele>195</ele>
        <time>2011-10-18T14:26:50Z</time>
      </trkpt>
      <trkpt lat="46.3192" lon="-0.21783">
        <ele>193</ele>
        <time>2011-10-18T14:26:55Z</time>
      </trkpt>
      <trkpt lat="46.31914" lon="-0.21784">
        <ele>194</ele>
        <time>2011-10-18T14:27:00Z</time>
      </trkpt>
      <trkpt lat="46.31907" lon="-0.21787">
        <ele>196</ele>
        <time>2011-10-18T14:27:05Z</time>
      </trkpt>
      <trkpt lat="46.31903" lon="-0.21789">
        <ele>196</ele>
        <time>2011-10-18T14:27:10Z</time>
      </trkpt>
      <trkpt lat="46.31899" lon="-0.21791">
        <ele>195</ele>
        <time>2011-10-18T14:27:20Z</time>
      </trkpt>
      <trkpt lat="46.31892" lon="-0.21792">
        <ele>195</ele>
        <time>2011-10-18T14:27:25Z</time>
      </trkpt>
      <trkpt lat="46.31887" lon="-0.21795">
        <ele>195</ele>
        <time>2011-10-18T14:27:30Z</time>
      </trkpt>
      <trkpt lat="46.31881" lon="-0.21799">
        <ele>194</ele>
        <time>2011-10-18T14:27:35Z</time>
      </trkpt>
      <trkpt lat="46.31878" lon="-0.21802">
        <ele>191</ele>
        <time>2011-10-18T14:27:40Z</time>
      </trkpt>
      <trkpt lat="46.31873" lon="-0.21805">
        <ele>191</ele>
        <time>2011-10-18T14:27:45Z</time>
      </trkpt>
      <trkpt lat="46.31871" lon="-0.21809">
        <ele>192</ele>
        <time>2011-10-18T14:27:50Z</time>
      </trkpt>
      <trkpt lat="46.31867" lon="-0.21811">
        <ele>192</ele>
        <time>2011-10-18T14:27:55Z</time>
      </trkpt>
      <trkpt lat="46.31862" lon="-0.21813">
        <ele>192</ele>
        <time>2011-10-18T14:28:00Z</time>
      </trkpt>
      <trkpt lat="46.31856" lon="-0.21816">
        <ele>191</ele>
        <time>2011-10-18T14:28:05Z</time>
      </trkpt>
      <trkpt lat="46.31851" lon="-0.2182">
        <ele>192</ele>
        <time>2011-10-18T14:28:10Z</time>
      </trkpt>
      <trkpt lat="46.31846" lon="-0.21822">
        <ele>192</ele>
        <time>2011-10-18T14:28:15Z</time>
      </trkpt>
      <trkpt lat="46.31841" lon="-0.21825">
        <ele>192</ele>
        <time>2011-10-18T14:28:20Z</time>
      </trkpt>
      <trkpt lat="46.31839" lon="-0.2182">
        <ele>191</ele>
        <time>2011-10-18T14:28:25Z</time>
      </trkpt>
      <trkpt lat="46.31839" lon="-0.21817">
        <ele>190</ele>
        <time>2011-10-18T14:28:30Z</time>
      </trkpt>
      <trkpt lat="46.31838" lon="-0.2181">
        <ele>191</ele>
        <time>2011-10-18T14:28:35Z</time>
      </trkpt>
      <trkpt lat="46.31838" lon="-0.218">
        <ele>193</ele>
        <time>2011-10-18T14:28:40Z</time>
      </trkpt>
      <trkpt lat="46.31837" lon="-0.21791">
        <ele>195</ele>
        <time>2011-10-18T14:28:45Z</time>
      </trkpt>
      <trkpt lat="46.31837" lon="-0.21783">
        <ele>195</ele>
        <time>2011-10-18T14:28:50Z</time>
      </trkpt>
      <trkpt lat="46.31836" lon="-0.21775">
        <ele>195</ele>
        <time>2011-10-18T14:28:55Z</time>
      </trkpt>
      <trkpt lat="46.31835" lon="-0.21768">
        <ele>195</ele>
        <time>2011-10-18T14:29:00Z</time>
      </trkpt>
      <trkpt lat="46.31831" lon="-0.21765">
        <ele>195</ele>
        <time>2011-10-18T14:29:05Z</time>
      </trkpt>
      <trkpt lat="46.31827" lon="-0.21763">
        <ele>195</ele>
        <time>2011-10-18T14:29:10Z</time>
      </trkpt>
      <trkpt lat="46.31828" lon="-0.21763">
        <ele>195</ele>
        <time>2011-10-18T14:29:15Z</time>
      </trkpt>
      <trkpt lat="46.31826" lon="-0.21763">
        <ele>195</ele>
        <time>2011-10-18T14:29:20Z</time>
      </trkpt>
      <trkpt lat="46.31826" lon="-0.21762">
        <ele>195</ele>
        <time>2011-10-18T14:29:25Z</time>
      </trkpt>
      <trkpt lat="46.31821" lon="-0.21762">
        <ele>195</ele>
        <time>2011-10-18T14:29:30Z</time>
      </trkpt>
      <trkpt lat="46.31811" lon="-0.21761">
        <ele>193</ele>
        <time>2011-10-18T14:29:35Z</time>
      </trkpt>
      <trkpt lat="46.31802" lon="-0.21758">
        <ele>195</ele>
        <time>2011-10-18T14:29:40Z</time>
      </trkpt>
      <trkpt lat="46.31796" lon="-0.21755">
        <ele>197</ele>
        <time>2011-10-18T14:29:45Z</time>
      </trkpt>
      <trkpt lat="46.31794" lon="-0.21749">
        <ele>198</ele>
        <time>2011-10-18T14:29:50Z</time>
      </trkpt>
      <trkpt lat="46.31785" lon="-0.21744">
        <ele>203</ele>
        <time>2011-10-18T14:29:55Z</time>
      </trkpt>
      <trkpt lat="46.3178" lon="-0.21741">
        <ele>205</ele>
        <time>2011-10-18T14:30:00Z</time>
      </trkpt>
      <trkpt lat="46.31776" lon="-0.21741">
        <ele>204</ele>
        <time>2011-10-18T14:30:05Z</time>
      </trkpt>
      <trkpt lat="46.31769" lon="-0.2174">
        <ele>205</ele>
        <time>2011-10-18T14:30:10Z</time>
      </trkpt>
      <trkpt lat="46.31765" lon="-0.21738">
        <ele>205</ele>
        <time>2011-10-18T14:30:15Z</time>
      </trkpt>
      <trkpt lat="46.3176" lon="-0.21738">
        <ele>205</ele>
        <time>2011-10-18T14:30:20Z</time>
      </trkpt>
      <trkpt lat="46.31753" lon="-0.21733">
        <ele>203</ele>
        <time>2011-10-18T14:30:25Z</time>
      </trkpt>
      <trkpt lat="46.31751" lon="-0.21728">
        <ele>202</ele>
        <time>2011-10-18T14:30:30Z</time>
      </trkpt>
      <trkpt lat="46.31749" lon="-0.21719">
        <ele>200</ele>
        <time>2011-10-18T14:30:35Z</time>
      </trkpt>
      <trkpt lat="46.31743" lon="-0.21715">
        <ele>199</ele>
        <time>2011-10-18T14:30:40Z</time>
      </trkpt>
      <trkpt lat="46.31739" lon="-0.21709">
        <ele>198</ele>
        <time>2011-10-18T14:30:45Z</time>
      </trkpt>
      <trkpt lat="46.31736" lon="-0.21703">
        <ele>198</ele>
        <time>2011-10-18T14:30:50Z</time>
      </trkpt>
      <trkpt lat="46.3173" lon="-0.21698">
        <ele>200</ele>
        <time>2011-10-18T14:30:55Z</time>
      </trkpt>
      <trkpt lat="46.31733" lon="-0.21692">
        <ele>193</ele>
        <time>2011-10-18T14:31:00Z</time>
      </trkpt>
      <trkpt lat="46.31732" lon="-0.21686">
        <ele>190</ele>
        <time>2011-10-18T14:31:05Z</time>
      </trkpt>
      <trkpt lat="46.31729" lon="-0.21678">
        <ele>188</ele>
        <time>2011-10-18T14:31:10Z</time>
      </trkpt>
      <trkpt lat="46.31725" lon="-0.21674">
        <ele>191</ele>
        <time>2011-10-18T14:31:15Z</time>
      </trkpt>
      <trkpt lat="46.31717" lon="-0.21666">
        <ele>197</ele>
        <time>2011-10-18T14:31:20Z</time>
      </trkpt>
      <trkpt lat="46.31712" lon="-0.21663">
        <ele>199</ele>
        <time>2011-10-18T14:31:25Z</time>
      </trkpt>
      <trkpt lat="46.3171" lon="-0.21654">
        <ele>200</ele>
        <time>2011-10-18T14:31:30Z</time>
      </trkpt>
      <trkpt lat="46.31706" lon="-0.21649">
        <ele>200</ele>
        <time>2011-10-18T14:31:35Z</time>
      </trkpt>
      <trkpt lat="46.31701" lon="-0.21644">
        <ele>202</ele>
        <time>2011-10-18T14:31:40Z</time>
      </trkpt>
      <trkpt lat="46.31694" lon="-0.21639">
        <ele>203</ele>
        <time>2011-10-18T14:31:45Z</time>
      </trkpt>
      <trkpt lat="46.3169" lon="-0.21642">
        <ele>202</ele>
        <time>2011-10-18T14:31:50Z</time>
      </trkpt>
      <trkpt lat="46.31687" lon="-0.21644">
        <ele>202</ele>
        <time>2011-10-18T14:31:55Z</time>
      </trkpt>
      <trkpt lat="46.31683" lon="-0.2165">
        <ele>201</ele>
        <time>2011-10-18T14:32:00Z</time>
      </trkpt>
      <trkpt lat="46.31678" lon="-0.21652">
        <ele>204</ele>
        <time>2011-10-18T14:32:05Z</time>
      </trkpt>
      <trkpt lat="46.31678" lon="-0.21652">
        <ele>203</ele>
        <time>2011-10-18T14:32:10Z</time>
      </trkpt>
      <trkpt lat="46.31677" lon="-0.21652">
        <ele>203</ele>
        <time>2011-10-18T14:32:15Z</time>
      </trkpt>
      <trkpt lat="46.31674" lon="-0.21648">
        <ele>206</ele>
        <time>2011-10-18T14:32:20Z</time>
      </trkpt>
      <trkpt lat="46.31673" lon="-0.21645">
        <ele>206</ele>
        <time>2011-10-18T14:32:25Z</time>
      </trkpt>
      <trkpt lat="46.31671" lon="-0.21644">
        <ele>206</ele>
        <time>2011-10-18T14:32:30Z</time>
      </trkpt>
      <trkpt lat="46.3167" lon="-0.21639">
        <ele>206</ele>
        <time>2011-10-18T14:32:35Z</time>
      </trkpt>
      <trkpt lat="46.3167" lon="-0.21629">
        <ele>205</ele>
        <time>2011-10-18T14:32:40Z</time>
      </trkpt>
      <trkpt lat="46.31671" lon="-0.21619">
        <ele>203</ele>
        <time>2011-10-18T14:32:45Z</time>
      </trkpt>
      <trkpt lat="46.31669" lon="-0.21608">
        <ele>205</ele>
        <time>2011-10-18T14:32:50Z</time>
      </trkpt>
      <trkpt lat="46.31668" lon="-0.21603">
        <ele>202</ele>
        <time>2011-10-18T14:32:55Z</time>
      </trkpt>
      <trkpt lat="46.31666" lon="-0.21596">
        <ele>202</ele>
        <time>2011-10-18T14:33:00Z</time>
      </trkpt>
      <trkpt lat="46.31664" lon="-0.21587">
        <ele>202</ele>
        <time>2011-10-18T14:33:05Z</time>
      </trkpt>
      <trkpt lat="46.31661" lon="-0.21581">
        <ele>201</ele>
        <time>2011-10-18T14:33:10Z</time>
      </trkpt>
      <trkpt lat="46.31659" lon="-0.21574">
        <ele>200</ele>
        <time>2011-10-18T14:33:15Z</time>
      </trkpt>
      <trkpt lat="46.31657" lon="-0.21567">
        <ele>200</ele>
        <time>2011-10-18T14:33:20Z</time>
      </trkpt>
      <trkpt lat="46.31654" lon="-0.21562">
        <ele>200</ele>
        <time>2011-10-18T14:33:25Z</time>
      </trkpt>
      <trkpt lat="46.31656" lon="-0.21554">
        <ele>191</ele>
        <time>2011-10-18T14:33:30Z</time>
      </trkpt>
      <trkpt lat="46.31652" lon="-0.21546">
        <ele>192</ele>
        <time>2011-10-18T14:33:35Z</time>
      </trkpt>
      <trkpt lat="46.31649" lon="-0.21539">
        <ele>193</ele>
        <time>2011-10-18T14:33:40Z</time>
      </trkpt>
      <trkpt lat="46.31646" lon="-0.21532">
        <ele>194</ele>
        <time>2011-10-18T14:33:45Z</time>
      </trkpt>
      <trkpt lat="46.31643" lon="-0.21524">
        <ele>195</ele>
        <time>2011-10-18T14:33:50Z</time>
      </trkpt>
      <trkpt lat="46.3164" lon="-0.21515">
        <ele>196</ele>
        <time>2011-10-18T14:33:55Z</time>
      </trkpt>
      <trkpt lat="46.31637" lon="-0.21509">
        <ele>195</ele>
        <time>2011-10-18T14:34:00Z</time>
      </trkpt>
      <trkpt lat="46.31636" lon="-0.21505">
        <ele>196</ele>
        <time>2011-10-18T14:34:05Z</time>
      </trkpt>
      <trkpt lat="46.31633" lon="-0.21503">
        <ele>196</ele>
        <time>2011-10-18T14:34:10Z</time>
      </trkpt>
      <trkpt lat="46.3163" lon="-0.21494">
        <ele>196</ele>
        <time>2011-10-18T14:34:15Z</time>
      </trkpt>
      <trkpt lat="46.31629" lon="-0.21488">
        <ele>196</ele>
        <time>2011-10-18T14:34:20Z</time>
      </trkpt>
      <trkpt lat="46.31626" lon="-0.2148">
        <ele>198</ele>
        <time>2011-10-18T14:34:25Z</time>
      </trkpt>
      <trkpt lat="46.31622" lon="-0.21473">
        <ele>201</ele>
        <time>2011-10-18T14:34:30Z</time>
      </trkpt>
      <trkpt lat="46.3162" lon="-0.21465">
        <ele>200</ele>
        <time>2011-10-18T14:34:35Z</time>
      </trkpt>
      <trkpt lat="46.31619" lon="-0.21457">
        <ele>199</ele>
        <time>2011-10-18T14:34:40Z</time>
      </trkpt>
      <trkpt lat="46.31618" lon="-0.21448">
        <ele>198</ele>
        <time>2011-10-18T14:34:45Z</time>
      </trkpt>
      <trkpt lat="46.31617" lon="-0.21441">
        <ele>196</ele>
        <time>2011-10-18T14:34:50Z</time>
      </trkpt>
      <trkpt lat="46.31615" lon="-0.21435">
        <ele>196</ele>
        <time>2011-10-18T14:34:55Z</time>
      </trkpt>
      <trkpt lat="46.31613" lon="-0.21427">
        <ele>195</ele>
        <time>2011-10-18T14:35:00Z</time>
      </trkpt>
      <trkpt lat="46.31613" lon="-0.21419">
        <ele>194</ele>
        <time>2011-10-18T14:35:05Z</time>
      </trkpt>
      <trkpt lat="46.3161" lon="-0.21412">
        <ele>194</ele>
        <time>2011-10-18T14:35:10Z</time>
      </trkpt>
      <trkpt lat="46.3161" lon="-0.21405">
        <ele>193</ele>
        <time>2011-10-18T14:35:15Z</time>
      </trkpt>
      <trkpt lat="46.3161" lon="-0.21396">
        <ele>192</ele>
        <time>2011-10-18T14:35:20Z</time>
      </trkpt>
      <trkpt lat="46.31608" lon="-0.21388">
        <ele>191</ele>
        <time>2011-10-18T14:35:25Z</time>
      </trkpt>
      <trkpt lat="46.31607" lon="-0.21379">
        <ele>191</ele>
        <time>2011-10-18T14:35:30Z</time>
      </trkpt>
      <trkpt lat="46.31606" lon="-0.21372">
        <ele>191</ele>
        <time>2011-10-18T14:35:35Z</time>
      </trkpt>
      <trkpt lat="46.31606" lon="-0.21364">
        <ele>189</ele>
        <time>2011-10-18T14:35:40Z</time>
      </trkpt>
      <trkpt lat="46.31603" lon="-0.21357">
        <ele>189</ele>
        <time>2011-10-18T14:35:45Z</time>
      </trkpt>
      <trkpt lat="46.31601" lon="-0.21349">
        <ele>189</ele>
        <time>2011-10-18T14:35:50Z</time>
      </trkpt>
      <trkpt lat="46.31599" lon="-0.2134">
        <ele>191</ele>
        <time>2011-10-18T14:35:55Z</time>
      </trkpt>
      <trkpt lat="46.31598" lon="-0.2133">
        <ele>193</ele>
        <time>2011-10-18T14:36:00Z</time>
      </trkpt>
      <trkpt lat="46.31596" lon="-0.21322">
        <ele>193</ele>
        <time>2011-10-18T14:36:05Z</time>
      </trkpt>
      <trkpt lat="46.31595" lon="-0.21314">
        <ele>192</ele>
        <time>2011-10-18T14:36:10Z</time>
      </trkpt>
      <trkpt lat="46.31595" lon="-0.21306">
        <ele>193</ele>
        <time>2011-10-18T14:36:15Z</time>
      </trkpt>
      <trkpt lat="46.31593" lon="-0.21298">
        <ele>194</ele>
        <time>2011-10-18T14:36:20Z</time>
      </trkpt>
      <trkpt lat="46.31591" lon="-0.2129">
        <ele>194</ele>
        <time>2011-10-18T14:36:25Z</time>
      </trkpt>
      <trkpt lat="46.31588" lon="-0.21284">
        <ele>195</ele>
        <time>2011-10-18T14:36:30Z</time>
      </trkpt>
      <trkpt lat="46.31585" lon="-0.2128">
        <ele>195</ele>
        <time>2011-10-18T14:36:35Z</time>
      </trkpt>
      <trkpt lat="46.31582" lon="-0.21278">
        <ele>196</ele>
        <time>2011-10-18T14:36:40Z</time>
      </trkpt>
      <trkpt lat="46.31582" lon="-0.21277">
        <ele>196</ele>
        <time>2011-10-18T14:36:45Z</time>
      </trkpt>
      <trkpt lat="46.31578" lon="-0.21281">
        <ele>195</ele>
        <time>2011-10-18T14:36:50Z</time>
      </trkpt>
      <trkpt lat="46.31575" lon="-0.21284">
        <ele>194</ele>
        <time>2011-10-18T14:36:55Z</time>
      </trkpt>
      <trkpt lat="46.31572" lon="-0.21286">
        <ele>192</ele>
        <time>2011-10-18T14:37:00Z</time>
      </trkpt>
      <trkpt lat="46.31568" lon="-0.21288">
        <ele>192</ele>
        <time>2011-10-18T14:37:05Z</time>
      </trkpt>
      <trkpt lat="46.31564" lon="-0.21289">
        <ele>191</ele>
        <time>2011-10-18T14:37:10Z</time>
      </trkpt>
      <trkpt lat="46.3156" lon="-0.2129">
        <ele>191</ele>
        <time>2011-10-18T14:37:15Z</time>
      </trkpt>
      <trkpt lat="46.31554" lon="-0.21291">
        <ele>191</ele>
        <time>2011-10-18T14:37:20Z</time>
      </trkpt>
      <trkpt lat="46.31546" lon="-0.21292">
        <ele>193</ele>
        <time>2011-10-18T14:37:25Z</time>
      </trkpt>
      <trkpt lat="46.31542" lon="-0.21292">
        <ele>192</ele>
        <time>2011-10-18T14:37:30Z</time>
      </trkpt>
      <trkpt lat="46.31536" lon="-0.21292">
        <ele>193</ele>
        <time>2011-10-18T14:37:35Z</time>
      </trkpt>
      <trkpt lat="46.31531" lon="-0.21293">
        <ele>193</ele>
        <time>2011-10-18T14:37:40Z</time>
      </trkpt>
      <trkpt lat="46.31527" lon="-0.21293">
        <ele>193</ele>
        <time>2011-10-18T14:37:45Z</time>
      </trkpt>
      <trkpt lat="46.31519" lon="-0.21294">
        <ele>196</ele>
        <time>2011-10-18T14:37:50Z</time>
      </trkpt>
      <trkpt lat="46.31514" lon="-0.21292">
        <ele>196</ele>
        <time>2011-10-18T14:37:55Z</time>
      </trkpt>
      <trkpt lat="46.31509" lon="-0.2129">
        <ele>198</ele>
        <time>2011-10-18T14:38:00Z</time>
      </trkpt>
      <trkpt lat="46.31505" lon="-0.21287">
        <ele>196</ele>
        <time>2011-10-18T14:38:05Z</time>
      </trkpt>
      <trkpt lat="46.31501" lon="-0.2128">
        <ele>200</ele>
        <time>2011-10-18T14:38:10Z</time>
      </trkpt>
      <trkpt lat="46.31499" lon="-0.21273">
        <ele>201</ele>
        <time>2011-10-18T14:38:15Z</time>
      </trkpt>
      <trkpt lat="46.31497" lon="-0.21263">
        <ele>201</ele>
        <time>2011-10-18T14:38:20Z</time>
      </trkpt>
      <trkpt lat="46.31494" lon="-0.21258">
        <ele>199</ele>
        <time>2011-10-18T14:38:25Z</time>
      </trkpt>
      <trkpt lat="46.31494" lon="-0.21251">
        <ele>195</ele>
        <time>2011-10-18T14:38:30Z</time>
      </trkpt>
      <trkpt lat="46.31494" lon="-0.21245">
        <ele>192</ele>
        <time>2011-10-18T14:38:35Z</time>
      </trkpt>
      <trkpt lat="46.3149" lon="-0.2124">
        <ele>191</ele>
        <time>2011-10-18T14:38:40Z</time>
      </trkpt>
      <trkpt lat="46.31488" lon="-0.21234">
        <ele>191</ele>
        <time>2011-10-18T14:38:45Z</time>
      </trkpt>
      <trkpt lat="46.31486" lon="-0.21228">
        <ele>191</ele>
        <time>2011-10-18T14:38:50Z</time>
      </trkpt>
      <trkpt lat="46.31484" lon="-0.21221">
        <ele>190</ele>
        <time>2011-10-18T14:38:55Z</time>
      </trkpt>
      <trkpt lat="46.31482" lon="-0.21213">
        <ele>191</ele>
        <time>2011-10-18T14:39:00Z</time>
      </trkpt>
      <trkpt lat="46.31481" lon="-0.21205">
        <ele>188</ele>
        <time>2011-10-18T14:39:05Z</time>
      </trkpt>
      <trkpt lat="46.31478" lon="-0.21199">
        <ele>188</ele>
        <time>2011-10-18T14:39:10Z</time>
      </trkpt>
      <trkpt lat="46.31475" lon="-0.21199">
        <ele>188</ele>
        <time>2011-10-18T14:39:15Z</time>
      </trkpt>
      <trkpt lat="46.31473" lon="-0.21195">
        <ele>187</ele>
        <time>2011-10-18T14:39:20Z</time>
      </trkpt>
      <trkpt lat="46.31467" lon="-0.21187">
        <ele>187</ele>
        <time>2011-10-18T14:39:25Z</time>
      </trkpt>
      <trkpt lat="46.31465" lon="-0.21183">
        <ele>186</ele>
        <time>2011-10-18T14:39:30Z</time>
      </trkpt>
      <trkpt lat="46.31464" lon="-0.21184">
        <ele>186</ele>
        <time>2011-10-18T14:39:35Z</time>
      </trkpt>
      <trkpt lat="46.31462" lon="-0.21178">
        <ele>181</ele>
        <time>2011-10-18T14:39:40Z</time>
      </trkpt>
      <trkpt lat="46.31455" lon="-0.2117">
        <ele>180</ele>
        <time>2011-10-18T14:39:45Z</time>
      </trkpt>
      <trkpt lat="46.31449" lon="-0.21162">
        <ele>181</ele>
        <time>2011-10-18T14:39:50Z</time>
      </trkpt>
      <trkpt lat="46.31442" lon="-0.21155">
        <ele>182</ele>
        <time>2011-10-18T14:39:55Z</time>
      </trkpt>
      <trkpt lat="46.31437" lon="-0.21148">
        <ele>183</ele>
        <time>2011-10-18T14:40:00Z</time>
      </trkpt>
      <trkpt lat="46.31433" lon="-0.21143">
        <ele>184</ele>
        <time>2011-10-18T14:40:05Z</time>
      </trkpt>
      <trkpt lat="46.31428" lon="-0.21138">
        <ele>187</ele>
        <time>2011-10-18T14:40:10Z</time>
      </trkpt>
      <trkpt lat="46.31423" lon="-0.21134">
        <ele>188</ele>
        <time>2011-10-18T14:40:15Z</time>
      </trkpt>
      <trkpt lat="46.31419" lon="-0.21126">
        <ele>190</ele>
        <time>2011-10-18T14:40:20Z</time>
      </trkpt>
      <trkpt lat="46.31414" lon="-0.21122">
        <ele>191</ele>
        <time>2011-10-18T14:40:25Z</time>
      </trkpt>
      <trkpt lat="46.31408" lon="-0.21118">
        <ele>190</ele>
        <time>2011-10-18T14:40:30Z</time>
      </trkpt>
      <trkpt lat="46.31404" lon="-0.21112">
        <ele>191</ele>
        <time>2011-10-18T14:40:35Z</time>
      </trkpt>
      <trkpt lat="46.314" lon="-0.21105">
        <ele>191</ele>
        <time>2011-10-18T14:40:40Z</time>
      </trkpt>
      <trkpt lat="46.31395" lon="-0.211">
        <ele>193</ele>
        <time>2011-10-18T14:40:45Z</time>
      </trkpt>
      <trkpt lat="46.3139" lon="-0.21095">
        <ele>193</ele>
        <time>2011-10-18T14:40:50Z</time>
      </trkpt>
      <trkpt lat="46.31386" lon="-0.21092">
        <ele>192</ele>
        <time>2011-10-18T14:40:55Z</time>
      </trkpt>
      <trkpt lat="46.31382" lon="-0.21089">
        <ele>191</ele>
        <time>2011-10-18T14:41:00Z</time>
      </trkpt>
      <trkpt lat="46.31378" lon="-0.21085">
        <ele>191</ele>
        <time>2011-10-18T14:41:05Z</time>
      </trkpt>
      <trkpt lat="46.31378" lon="-0.21083">
        <ele>192</ele>
        <time>2011-10-18T14:41:10Z</time>
      </trkpt>
      <trkpt lat="46.31376" lon="-0.21081">
        <ele>190</ele>
        <time>2011-10-18T14:41:15Z</time>
      </trkpt>
      <trkpt lat="46.31372" lon="-0.21073">
        <ele>192</ele>
        <time>2011-10-18T14:41:20Z</time>
      </trkpt>
      <trkpt lat="46.31371" lon="-0.21071">
        <ele>192</ele>
        <time>2011-10-18T14:41:25Z</time>
      </trkpt>
      <trkpt lat="46.31367" lon="-0.21064">
        <ele>189</ele>
        <time>2011-10-18T14:41:30Z</time>
      </trkpt>
      <trkpt lat="46.31363" lon="-0.21057">
        <ele>189</ele>
        <time>2011-10-18T14:41:35Z</time>
      </trkpt>
      <trkpt lat="46.31359" lon="-0.21049">
        <ele>190</ele>
        <time>2011-10-18T14:41:40Z</time>
      </trkpt>
      <trkpt lat="46.31353" lon="-0.21044">
        <ele>190</ele>
        <time>2011-10-18T14:41:45Z</time>
      </trkpt>
      <trkpt lat="46.31349" lon="-0.2104">
        <ele>192</ele>
        <time>2011-10-18T14:41:50Z</time>
      </trkpt>
      <trkpt lat="46.31346" lon="-0.21035">
        <ele>190</ele>
        <time>2011-10-18T14:41:55Z</time>
      </trkpt>
      <trkpt lat="46.31344" lon="-0.21028">
        <ele>186</ele>
        <time>2011-10-18T14:42:00Z</time>
      </trkpt>
      <trkpt lat="46.31342" lon="-0.21018">
        <ele>181</ele>
        <time>2011-10-18T14:42:05Z</time>
      </trkpt>
      <trkpt lat="46.31338" lon="-0.21013">
        <ele>181</ele>
        <time>2011-10-18T14:42:10Z</time>
      </trkpt>
      <trkpt lat="46.31334" lon="-0.21006">
        <ele>180</ele>
        <time>2011-10-18T14:42:15Z</time>
      </trkpt>
      <trkpt lat="46.3133" lon="-0.21002">
        <ele>181</ele>
        <time>2011-10-18T14:42:20Z</time>
      </trkpt>
      <trkpt lat="46.31325" lon="-0.20995">
        <ele>182</ele>
        <time>2011-10-18T14:42:25Z</time>
      </trkpt>
      <trkpt lat="46.31322" lon="-0.20992">
        <ele>178</ele>
        <time>2011-10-18T14:42:30Z</time>
      </trkpt>
      <trkpt lat="46.31318" lon="-0.20986">
        <ele>179</ele>
        <time>2011-10-18T14:42:35Z</time>
      </trkpt>
      <trkpt lat="46.31313" lon="-0.2098">
        <ele>181</ele>
        <time>2011-10-18T14:42:40Z</time>
      </trkpt>
      <trkpt lat="46.31309" lon="-0.20974">
        <ele>180</ele>
        <time>2011-10-18T14:42:45Z</time>
      </trkpt>
      <trkpt lat="46.31305" lon="-0.20968">
        <ele>179</ele>
        <time>2011-10-18T14:42:50Z</time>
      </trkpt>
      <trkpt lat="46.31301" lon="-0.20964">
        <ele>182</ele>
        <time>2011-10-18T14:42:55Z</time>
      </trkpt>
      <trkpt lat="46.31297" lon="-0.20958">
        <ele>182</ele>
        <time>2011-10-18T14:43:00Z</time>
      </trkpt>
      <trkpt lat="46.31295" lon="-0.20951">
        <ele>183</ele>
        <time>2011-10-18T14:43:05Z</time>
      </trkpt>
      <trkpt lat="46.3129" lon="-0.20945">
        <ele>182</ele>
        <time>2011-10-18T14:43:10Z</time>
      </trkpt>
      <trkpt lat="46.31286" lon="-0.2094">
        <ele>184</ele>
        <time>2011-10-18T14:43:15Z</time>
      </trkpt>
      <trkpt lat="46.31285" lon="-0.20933">
        <ele>180</ele>
        <time>2011-10-18T14:43:20Z</time>
      </trkpt>
      <trkpt lat="46.31279" lon="-0.20928">
        <ele>183</ele>
        <time>2011-10-18T14:43:25Z</time>
      </trkpt>
      <trkpt lat="46.31275" lon="-0.2092">
        <ele>185</ele>
        <time>2011-10-18T14:43:30Z</time>
      </trkpt>
      <trkpt lat="46.31271" lon="-0.20916">
        <ele>186</ele>
        <time>2011-10-18T14:43:35Z</time>
      </trkpt>
      <trkpt lat="46.31266" lon="-0.20911">
        <ele>190</ele>
        <time>2011-10-18T14:43:40Z</time>
      </trkpt>
      <trkpt lat="46.31262" lon="-0.20906">
        <ele>191</ele>
        <time>2011-10-18T14:43:45Z</time>
      </trkpt>
      <trkpt lat="46.31259" lon="-0.209">
        <ele>190</ele>
        <time>2011-10-18T14:43:50Z</time>
      </trkpt>
      <trkpt lat="46.31254" lon="-0.20896">
        <ele>191</ele>
        <time>2011-10-18T14:43:55Z</time>
      </trkpt>
      <trkpt lat="46.31253" lon="-0.20894">
        <ele>192</ele>
        <time>2011-10-18T14:44:00Z</time>
      </trkpt>
      <trkpt lat="46.31249" lon="-0.20891">
        <ele>194</ele>
        <time>2011-10-18T14:44:10Z</time>
      </trkpt>
      <trkpt lat="46.31244" lon="-0.20883">
        <ele>196</ele>
        <time>2011-10-18T14:44:15Z</time>
      </trkpt>
      <trkpt lat="46.31239" lon="-0.20877">
        <ele>198</ele>
        <time>2011-10-18T14:44:20Z</time>
      </trkpt>
      <trkpt lat="46.31237" lon="-0.2087">
        <ele>197</ele>
        <time>2011-10-18T14:44:25Z</time>
      </trkpt>
      <trkpt lat="46.31234" lon="-0.20863">
        <ele>196</ele>
        <time>2011-10-18T14:44:30Z</time>
      </trkpt>
      <trkpt lat="46.3123" lon="-0.20856">
        <ele>196</ele>
        <time>2011-10-18T14:44:35Z</time>
      </trkpt>
      <trkpt lat="46.31227" lon="-0.20851">
        <ele>195</ele>
        <time>2011-10-18T14:44:40Z</time>
      </trkpt>
      <trkpt lat="46.31222" lon="-0.20847">
        <ele>195</ele>
        <time>2011-10-18T14:44:45Z</time>
      </trkpt>
      <trkpt lat="46.31218" lon="-0.2084">
        <ele>196</ele>
        <time>2011-10-18T14:44:50Z</time>
      </trkpt>
      <trkpt lat="46.31215" lon="-0.20836">
        <ele>199</ele>
        <time>2011-10-18T14:44:55Z</time>
      </trkpt>
      <trkpt lat="46.31213" lon="-0.20834">
        <ele>199</ele>
        <time>2011-10-18T14:45:00Z</time>
      </trkpt>
      <trkpt lat="46.3121" lon="-0.20833">
        <ele>199</ele>
        <time>2011-10-18T14:45:05Z</time>
      </trkpt>
      <trkpt lat="46.31207" lon="-0.20832">
        <ele>200</ele>
        <time>2011-10-18T14:45:10Z</time>
      </trkpt>
      <trkpt lat="46.31203" lon="-0.20831">
        <ele>199</ele>
        <time>2011-10-18T14:45:15Z</time>
      </trkpt>
      <trkpt lat="46.31197" lon="-0.20829">
        <ele>200</ele>
        <time>2011-10-18T14:45:20Z</time>
      </trkpt>
      <trkpt lat="46.31192" lon="-0.20826">
        <ele>200</ele>
        <time>2011-10-18T14:45:25Z</time>
      </trkpt>
      <trkpt lat="46.31187" lon="-0.20824">
        <ele>200</ele>
        <time>2011-10-18T14:45:30Z</time>
      </trkpt>
      <trkpt lat="46.31181" lon="-0.20823">
        <ele>199</ele>
        <time>2011-10-18T14:45:35Z</time>
      </trkpt>
      <trkpt lat="46.31175" lon="-0.2082">
        <ele>200</ele>
        <time>2011-10-18T14:45:40Z</time>
      </trkpt>
      <trkpt lat="46.31171" lon="-0.2082">
        <ele>201</ele>
        <time>2011-10-18T14:45:45Z</time>
      </trkpt>
      <trkpt lat="46.31168" lon="-0.2082">
        <ele>201</ele>
        <time>2011-10-18T14:45:50Z</time>
      </trkpt>
      <trkpt lat="46.31163" lon="-0.20824">
        <ele>201</ele>
        <time>2011-10-18T14:45:55Z</time>
      </trkpt>
      <trkpt lat="46.3116" lon="-0.20829">
        <ele>200</ele>
        <time>2011-10-18T14:46:00Z</time>
      </trkpt>
      <trkpt lat="46.31156" lon="-0.20835">
        <ele>199</ele>
        <time>2011-10-18T14:46:05Z</time>
      </trkpt>
      <trkpt lat="46.31152" lon="-0.20841">
        <ele>201</ele>
        <time>2011-10-18T14:46:10Z</time>
      </trkpt>
      <trkpt lat="46.31149" lon="-0.20847">
        <ele>200</ele>
        <time>2011-10-18T14:46:15Z</time>
      </trkpt>
      <trkpt lat="46.31146" lon="-0.20853">
        <ele>200</ele>
        <time>2011-10-18T14:46:20Z</time>
      </trkpt>
      <trkpt lat="46.31143" lon="-0.20857">
        <ele>200</ele>
        <time>2011-10-18T14:46:25Z</time>
      </trkpt>
      <trkpt lat="46.31142" lon="-0.2086">
        <ele>201</ele>
        <time>2011-10-18T14:46:30Z</time>
      </trkpt>
      <trkpt lat="46.31137" lon="-0.20868">
        <ele>202</ele>
        <time>2011-10-18T14:46:35Z</time>
      </trkpt>
      <trkpt lat="46.31131" lon="-0.20879">
        <ele>200</ele>
        <time>2011-10-18T14:46:40Z</time>
      </trkpt>
      <trkpt lat="46.31127" lon="-0.20885">
        <ele>198</ele>
        <time>2011-10-18T14:46:45Z</time>
      </trkpt>
      <trkpt lat="46.31125" lon="-0.20891">
        <ele>197</ele>
        <time>2011-10-18T14:46:50Z</time>
      </trkpt>
      <trkpt lat="46.31121" lon="-0.20897">
        <ele>196</ele>
        <time>2011-10-18T14:46:55Z</time>
      </trkpt>
      <trkpt lat="46.31118" lon="-0.20906">
        <ele>196</ele>
        <time>2011-10-18T14:47:00Z</time>
      </trkpt>
      <trkpt lat="46.31117" lon="-0.20913">
        <ele>194</ele>
        <time>2011-10-18T14:47:05Z</time>
      </trkpt>
      <trkpt lat="46.31114" lon="-0.20918">
        <ele>193</ele>
        <time>2011-10-18T14:47:10Z</time>
      </trkpt>
      <trkpt lat="46.31111" lon="-0.20922">
        <ele>191</ele>
        <time>2011-10-18T14:47:15Z</time>
      </trkpt>
      <trkpt lat="46.31106" lon="-0.20926">
        <ele>191</ele>
        <time>2011-10-18T14:47:20Z</time>
      </trkpt>
      <trkpt lat="46.31104" lon="-0.20927">
        <ele>190</ele>
        <time>2011-10-18T14:47:25Z</time>
      </trkpt>
      <trkpt lat="46.31098" lon="-0.20928">
        <ele>190</ele>
        <time>2011-10-18T14:47:30Z</time>
      </trkpt>
      <trkpt lat="46.31095" lon="-0.20927">
        <ele>190</ele>
        <time>2011-10-18T14:47:35Z</time>
      </trkpt>
      <trkpt lat="46.31089" lon="-0.20931">
        <ele>191</ele>
        <time>2011-10-18T14:47:40Z</time>
      </trkpt>
      <trkpt lat="46.31086" lon="-0.20936">
        <ele>191</ele>
        <time>2011-10-18T14:47:45Z</time>
      </trkpt>
      <trkpt lat="46.31083" lon="-0.20944">
        <ele>190</ele>
        <time>2011-10-18T14:47:50Z</time>
      </trkpt>
      <trkpt lat="46.3108" lon="-0.20954">
        <ele>191</ele>
        <time>2011-10-18T14:47:55Z</time>
      </trkpt>
      <trkpt lat="46.31077" lon="-0.20966">
        <ele>191</ele>
        <time>2011-10-18T14:48:00Z</time>
      </trkpt>
      <trkpt lat="46.31076" lon="-0.20974">
        <ele>191</ele>
        <time>2011-10-18T14:48:05Z</time>
      </trkpt>
      <trkpt lat="46.31075" lon="-0.20985">
        <ele>191</ele>
        <time>2011-10-18T14:48:10Z</time>
      </trkpt>
      <trkpt lat="46.31073" lon="-0.20993">
        <ele>192</ele>
        <time>2011-10-18T14:48:15Z</time>
      </trkpt>
      <trkpt lat="46.3107" lon="-0.21002">
        <ele>191</ele>
        <time>2011-10-18T14:48:20Z</time>
      </trkpt>
      <trkpt lat="46.31069" lon="-0.21003">
        <ele>192</ele>
        <time>2011-10-18T14:48:25Z</time>
      </trkpt>
      <trkpt lat="46.31067" lon="-0.21008">
        <ele>191</ele>
        <time>2011-10-18T14:48:30Z</time>
      </trkpt>
      <trkpt lat="46.31064" lon="-0.21013">
        <ele>191</ele>
        <time>2011-10-18T14:48:35Z</time>
      </trkpt>
      <trkpt lat="46.3106" lon="-0.21022">
        <ele>191</ele>
        <time>2011-10-18T14:48:40Z</time>
      </trkpt>
      <trkpt lat="46.31054" lon="-0.2103">
        <ele>191</ele>
        <time>2011-10-18T14:48:45Z</time>
      </trkpt>
      <trkpt lat="46.3105" lon="-0.21037">
        <ele>194</ele>
        <time>2011-10-18T14:48:50Z</time>
      </trkpt>
      <trkpt lat="46.31046" lon="-0.21044">
        <ele>192</ele>
        <time>2011-10-18T14:48:55Z</time>
      </trkpt>
      <trkpt lat="46.3104" lon="-0.21052">
        <ele>194</ele>
        <time>2011-10-18T14:49:00Z</time>
      </trkpt>
      <trkpt lat="46.31037" lon="-0.21059">
        <ele>193</ele>
        <time>2011-10-18T14:49:05Z</time>
      </trkpt>
      <trkpt lat="46.31035" lon="-0.21065">
        <ele>190</ele>
        <time>2011-10-18T14:49:10Z</time>
      </trkpt>
      <trkpt lat="46.3103" lon="-0.21074">
        <ele>189</ele>
        <time>2011-10-18T14:49:15Z</time>
      </trkpt>
      <trkpt lat="46.31028" lon="-0.21079">
        <ele>188</ele>
        <time>2011-10-18T14:49:20Z</time>
      </trkpt>
      <trkpt lat="46.31023" lon="-0.21087">
        <ele>187</ele>
        <time>2011-10-18T14:49:25Z</time>
      </trkpt>
      <trkpt lat="46.31019" lon="-0.21092">
        <ele>185</ele>
        <time>2011-10-18T14:49:30Z</time>
      </trkpt>
      <trkpt lat="46.31017" lon="-0.21096">
        <ele>183</ele>
        <time>2011-10-18T14:49:35Z</time>
      </trkpt>
      <trkpt lat="46.31013" lon="-0.211">
        <ele>181</ele>
        <time>2011-10-18T14:49:40Z</time>
      </trkpt>
      <trkpt lat="46.31008" lon="-0.21104">
        <ele>184</ele>
        <time>2011-10-18T14:49:45Z</time>
      </trkpt>
      <trkpt lat="46.31004" lon="-0.21105">
        <ele>183</ele>
        <time>2011-10-18T14:49:50Z</time>
      </trkpt>
      <trkpt lat="46.31" lon="-0.21107">
        <ele>184</ele>
        <time>2011-10-18T14:49:55Z</time>
      </trkpt>
      <trkpt lat="46.30993" lon="-0.21111">
        <ele>185</ele>
        <time>2011-10-18T14:50:05Z</time>
      </trkpt>
      <trkpt lat="46.30988" lon="-0.21114">
        <ele>186</ele>
        <time>2011-10-18T14:50:10Z</time>
      </trkpt>
      <trkpt lat="46.30981" lon="-0.21121">
        <ele>185</ele>
        <time>2011-10-18T14:50:15Z</time>
      </trkpt>
      <trkpt lat="46.30975" lon="-0.21131">
        <ele>185</ele>
        <time>2011-10-18T14:50:20Z</time>
      </trkpt>
      <trkpt lat="46.30974" lon="-0.21137">
        <ele>184</ele>
        <time>2011-10-18T14:50:25Z</time>
      </trkpt>
      <trkpt lat="46.30973" lon="-0.21145">
        <ele>184</ele>
        <time>2011-10-18T14:50:30Z</time>
      </trkpt>
      <trkpt lat="46.30974" lon="-0.21151">
        <ele>184</ele>
        <time>2011-10-18T14:50:35Z</time>
      </trkpt>
      <trkpt lat="46.30976" lon="-0.21161">
        <ele>184</ele>
        <time>2011-10-18T14:50:40Z</time>
      </trkpt>
      <trkpt lat="46.30978" lon="-0.21169">
        <ele>183</ele>
        <time>2011-10-18T14:50:45Z</time>
      </trkpt>
      <trkpt lat="46.30977" lon="-0.21179">
        <ele>186</ele>
        <time>2011-10-18T14:50:50Z</time>
      </trkpt>
      <trkpt lat="46.30974" lon="-0.21186">
        <ele>187</ele>
        <time>2011-10-18T14:50:55Z</time>
      </trkpt>
      <trkpt lat="46.30973" lon="-0.21187">
        <ele>187</ele>
        <time>2011-10-18T14:51:00Z</time>
      </trkpt>
      <trkpt lat="46.30957" lon="-0.21195">
        <ele>187</ele>
        <time>2011-10-18T14:51:10Z</time>
      </trkpt>
      <trkpt lat="46.30951" lon="-0.21196">
        <ele>186</ele>
        <time>2011-10-18T14:51:15Z</time>
      </trkpt>
      <trkpt lat="46.30945" lon="-0.21197">
        <ele>186</ele>
        <time>2011-10-18T14:51:20Z</time>
      </trkpt>
      <trkpt lat="46.30938" lon="-0.21199">
        <ele>186</ele>
        <time>2011-10-18T14:51:25Z</time>
      </trkpt>
      <trkpt lat="46.30932" lon="-0.21199">
        <ele>186</ele>
        <time>2011-10-18T14:51:30Z</time>
      </trkpt>
      <trkpt lat="46.30926" lon="-0.21201">
        <ele>186</ele>
        <time>2011-10-18T14:51:35Z</time>
      </trkpt>
      <trkpt lat="46.30922" lon="-0.21203">
        <ele>186</ele>
        <time>2011-10-18T14:51:40Z</time>
      </trkpt>
      <trkpt lat="46.30917" lon="-0.21206">
        <ele>186</ele>
        <time>2011-10-18T14:51:45Z</time>
      </trkpt>
      <trkpt lat="46.30912" lon="-0.21211">
        <ele>186</ele>
        <time>2011-10-18T14:51:50Z</time>
      </trkpt>
      <trkpt lat="46.30909" lon="-0.21218">
        <ele>187</ele>
        <time>2011-10-18T14:51:55Z</time>
      </trkpt>
      <trkpt lat="46.30907" lon="-0.21227">
        <ele>187</ele>
        <time>2011-10-18T14:52:00Z</time>
      </trkpt>
      <trkpt lat="46.30905" lon="-0.21236">
        <ele>187</ele>
        <time>2011-10-18T14:52:05Z</time>
      </trkpt>
      <trkpt lat="46.30904" lon="-0.2124">
        <ele>186</ele>
        <time>2011-10-18T14:52:10Z</time>
      </trkpt>
      <trkpt lat="46.30904" lon="-0.21241">
        <ele>186</ele>
        <time>2011-10-18T14:52:15Z</time>
      </trkpt>
      <trkpt lat="46.30906" lon="-0.21251">
        <ele>185</ele>
        <time>2011-10-18T14:52:35Z</time>
      </trkpt>
      <trkpt lat="46.30905" lon="-0.21259">
        <ele>184</ele>
        <time>2011-10-18T14:52:40Z</time>
      </trkpt>
      <trkpt lat="46.30905" lon="-0.21268">
        <ele>184</ele>
        <time>2011-10-18T14:52:45Z</time>
      </trkpt>
      <trkpt lat="46.30906" lon="-0.21276">
        <ele>184</ele>
        <time>2011-10-18T14:52:50Z</time>
      </trkpt>
      <trkpt lat="46.30903" lon="-0.21287">
        <ele>185</ele>
        <time>2011-10-18T14:52:55Z</time>
      </trkpt>
      <trkpt lat="46.30903" lon="-0.21296">
        <ele>186</ele>
        <time>2011-10-18T14:53:00Z</time>
      </trkpt>
      <trkpt lat="46.30901" lon="-0.21304">
        <ele>183</ele>
        <time>2011-10-18T14:53:05Z</time>
      </trkpt>
      <trkpt lat="46.30901" lon="-0.21313">
        <ele>183</ele>
        <time>2011-10-18T14:53:10Z</time>
      </trkpt>
      <trkpt lat="46.30904" lon="-0.21322">
        <ele>184</ele>
        <time>2011-10-18T14:53:15Z</time>
      </trkpt>
      <trkpt lat="46.30907" lon="-0.21331">
        <ele>184</ele>
        <time>2011-10-18T14:53:20Z</time>
      </trkpt>
      <trkpt lat="46.30907" lon="-0.2134">
        <ele>183</ele>
        <time>2011-10-18T14:53:25Z</time>
      </trkpt>
      <trkpt lat="46.3091" lon="-0.21348">
        <ele>182</ele>
        <time>2011-10-18T14:53:30Z</time>
      </trkpt>
      <trkpt lat="46.30908" lon="-0.21358">
        <ele>182</ele>
        <time>2011-10-18T14:53:35Z</time>
      </trkpt>
      <trkpt lat="46.30907" lon="-0.21366">
        <ele>181</ele>
        <time>2011-10-18T14:53:40Z</time>
      </trkpt>
      <trkpt lat="46.30906" lon="-0.21375">
        <ele>182</ele>
        <time>2011-10-18T14:53:45Z</time>
      </trkpt>
      <trkpt lat="46.30906" lon="-0.21384">
        <ele>181</ele>
        <time>2011-10-18T14:53:50Z</time>
      </trkpt>
      <trkpt lat="46.30902" lon="-0.21395">
        <ele>182</ele>
        <time>2011-10-18T14:53:55Z</time>
      </trkpt>
      <trkpt lat="46.30899" lon="-0.21404">
        <ele>182</ele>
        <time>2011-10-18T14:54:00Z</time>
      </trkpt>
      <trkpt lat="46.30897" lon="-0.21413">
        <ele>182</ele>
        <time>2011-10-18T14:54:05Z</time>
      </trkpt>
      <trkpt lat="46.30894" lon="-0.21421">
        <ele>181</ele>
        <time>2011-10-18T14:54:10Z</time>
      </trkpt>
      <trkpt lat="46.3089" lon="-0.21429">
        <ele>182</ele>
        <time>2011-10-18T14:54:15Z</time>
      </trkpt>
      <trkpt lat="46.30886" lon="-0.21437">
        <ele>183</ele>
        <time>2011-10-18T14:54:20Z</time>
      </trkpt>
      <trkpt lat="46.30884" lon="-0.21444">
        <ele>183</ele>
        <time>2011-10-18T14:54:25Z</time>
      </trkpt>
      <trkpt lat="46.30882" lon="-0.21452">
        <ele>183</ele>
        <time>2011-10-18T14:54:30Z</time>
      </trkpt>
      <trkpt lat="46.3088" lon="-0.2146">
        <ele>182</ele>
        <time>2011-10-18T14:54:35Z</time>
      </trkpt>
      <trkpt lat="46.30878" lon="-0.21468">
        <ele>182</ele>
        <time>2011-10-18T14:54:40Z</time>
      </trkpt>
      <trkpt lat="46.30876" lon="-0.21475">
        <ele>182</ele>
        <time>2011-10-18T14:54:45Z</time>
      </trkpt>
      <trkpt lat="46.30874" lon="-0.21484">
        <ele>183</ele>
        <time>2011-10-18T14:54:50Z</time>
      </trkpt>
      <trkpt lat="46.30871" lon="-0.21494">
        <ele>184</ele>
        <time>2011-10-18T14:54:55Z</time>
      </trkpt>
      <trkpt lat="46.3087" lon="-0.21503">
        <ele>184</ele>
        <time>2011-10-18T14:55:00Z</time>
      </trkpt>
      <trkpt lat="46.30867" lon="-0.21514">
        <ele>185</ele>
        <time>2011-10-18T14:55:05Z</time>
      </trkpt>
      <trkpt lat="46.30864" lon="-0.21524">
        <ele>185</ele>
        <time>2011-10-18T14:55:10Z</time>
      </trkpt>
      <trkpt lat="46.30862" lon="-0.21532">
        <ele>184</ele>
        <time>2011-10-18T14:55:15Z</time>
      </trkpt>
      <trkpt lat="46.3086" lon="-0.2154">
        <ele>184</ele>
        <time>2011-10-18T14:55:20Z</time>
      </trkpt>
      <trkpt lat="46.30859" lon="-0.21549">
        <ele>184</ele>
        <time>2011-10-18T14:55:25Z</time>
      </trkpt>
      <trkpt lat="46.30857" lon="-0.21557">
        <ele>183</ele>
        <time>2011-10-18T14:55:30Z</time>
      </trkpt>
      <trkpt lat="46.30857" lon="-0.21566">
        <ele>183</ele>
        <time>2011-10-18T14:55:35Z</time>
      </trkpt>
      <trkpt lat="46.30857" lon="-0.21574">
        <ele>184</ele>
        <time>2011-10-18T14:55:40Z</time>
      </trkpt>
      <trkpt lat="46.30857" lon="-0.21583">
        <ele>184</ele>
        <time>2011-10-18T14:55:45Z</time>
      </trkpt>
      <trkpt lat="46.30857" lon="-0.21591">
        <ele>185</ele>
        <time>2011-10-18T14:55:50Z</time>
      </trkpt>
      <trkpt lat="46.30857" lon="-0.21601">
        <ele>185</ele>
        <time>2011-10-18T14:55:55Z</time>
      </trkpt>
      <trkpt lat="46.30857" lon="-0.21609">
        <ele>184</ele>
        <time>2011-10-18T14:56:00Z</time>
      </trkpt>
      <trkpt lat="46.30857" lon="-0.21618">
        <ele>185</ele>
        <time>2011-10-18T14:56:05Z</time>
      </trkpt>
      <trkpt lat="46.30857" lon="-0.21628">
        <ele>185</ele>
        <time>2011-10-18T14:56:10Z</time>
      </trkpt>
      <trkpt lat="46.30858" lon="-0.21636">
        <ele>184</ele>
        <time>2011-10-18T14:56:15Z</time>
      </trkpt>
      <trkpt lat="46.30857" lon="-0.21644">
        <ele>184</ele>
        <time>2011-10-18T14:56:20Z</time>
      </trkpt>
      <trkpt lat="46.30856" lon="-0.21655">
        <ele>184</ele>
        <time>2011-10-18T14:56:25Z</time>
      </trkpt>
      <trkpt lat="46.30856" lon="-0.21665">
        <ele>185</ele>
        <time>2011-10-18T14:56:30Z</time>
      </trkpt>
      <trkpt lat="46.30856" lon="-0.21673">
        <ele>185</ele>
        <time>2011-10-18T14:56:35Z</time>
      </trkpt>
      <trkpt lat="46.30857" lon="-0.21682">
        <ele>185</ele>
        <time>2011-10-18T14:56:40Z</time>
      </trkpt>
      <trkpt lat="46.30856" lon="-0.21692">
        <ele>184</ele>
        <time>2011-10-18T14:56:45Z</time>
      </trkpt>
      <trkpt lat="46.30857" lon="-0.217">
        <ele>185</ele>
        <time>2011-10-18T14:56:50Z</time>
      </trkpt>
      <trkpt lat="46.30856" lon="-0.21708">
        <ele>185</ele>
        <time>2011-10-18T14:56:55Z</time>
      </trkpt>
      <trkpt lat="46.30856" lon="-0.21717">
        <ele>185</ele>
        <time>2011-10-18T14:57:00Z</time>
      </trkpt>
      <trkpt lat="46.30856" lon="-0.21724">
        <ele>188</ele>
        <time>2011-10-18T14:57:05Z</time>
      </trkpt>
      <trkpt lat="46.30856" lon="-0.21733">
        <ele>188</ele>
        <time>2011-10-18T14:57:10Z</time>
      </trkpt>
      <trkpt lat="46.30855" lon="-0.21741">
        <ele>187</ele>
        <time>2011-10-18T14:57:15Z</time>
      </trkpt>
      <trkpt lat="46.30853" lon="-0.21752">
        <ele>187</ele>
        <time>2011-10-18T14:57:20Z</time>
      </trkpt>
      <trkpt lat="46.30852" lon="-0.21764">
        <ele>185</ele>
        <time>2011-10-18T14:57:25Z</time>
      </trkpt>
      <trkpt lat="46.3085" lon="-0.21773">
        <ele>186</ele>
        <time>2011-10-18T14:57:30Z</time>
      </trkpt>
      <trkpt lat="46.3085" lon="-0.21784">
        <ele>187</ele>
        <time>2011-10-18T14:57:35Z</time>
      </trkpt>
      <trkpt lat="46.3085" lon="-0.21792">
        <ele>188</ele>
        <time>2011-10-18T14:57:40Z</time>
      </trkpt>
      <trkpt lat="46.3085" lon="-0.21802">
        <ele>188</ele>
        <time>2011-10-18T14:57:45Z</time>
      </trkpt>
      <trkpt lat="46.30852" lon="-0.21809">
        <ele>186</ele>
        <time>2011-10-18T14:57:50Z</time>
      </trkpt>
      <trkpt lat="46.30853" lon="-0.21817">
        <ele>187</ele>
        <time>2011-10-18T14:57:55Z</time>
      </trkpt>
      <trkpt lat="46.30854" lon="-0.21826">
        <ele>185</ele>
        <time>2011-10-18T14:58:00Z</time>
      </trkpt>
      <trkpt lat="46.30853" lon="-0.21834">
        <ele>184</ele>
        <time>2011-10-18T14:58:05Z</time>
      </trkpt>
      <trkpt lat="46.30852" lon="-0.21842">
        <ele>183</ele>
        <time>2011-10-18T14:58:10Z</time>
      </trkpt>
      <trkpt lat="46.30852" lon="-0.21852">
        <ele>183</ele>
        <time>2011-10-18T14:58:15Z</time>
      </trkpt>
      <trkpt lat="46.30852" lon="-0.21862">
        <ele>183</ele>
        <time>2011-10-18T14:58:20Z</time>
      </trkpt>
      <trkpt lat="46.30852" lon="-0.2187">
        <ele>184</ele>
        <time>2011-10-18T14:58:25Z</time>
      </trkpt>
      <trkpt lat="46.30851" lon="-0.21878">
        <ele>184</ele>
        <time>2011-10-18T14:58:30Z</time>
      </trkpt>
      <trkpt lat="46.30851" lon="-0.21886">
        <ele>183</ele>
        <time>2011-10-18T14:58:35Z</time>
      </trkpt>
      <trkpt lat="46.3085" lon="-0.21895">
        <ele>182</ele>
        <time>2011-10-18T14:58:40Z</time>
      </trkpt>
      <trkpt lat="46.30852" lon="-0.21903">
        <ele>182</ele>
        <time>2011-10-18T14:58:45Z</time>
      </trkpt>
      <trkpt lat="46.30851" lon="-0.21913">
        <ele>182</ele>
        <time>2011-10-18T14:58:50Z</time>
      </trkpt>
      <trkpt lat="46.3085" lon="-0.21922">
        <ele>183</ele>
        <time>2011-10-18T14:58:55Z</time>
      </trkpt>
      <trkpt lat="46.30851" lon="-0.21929">
        <ele>184</ele>
        <time>2011-10-18T14:59:00Z</time>
      </trkpt>
      <trkpt lat="46.30851" lon="-0.21938">
        <ele>184</ele>
        <time>2011-10-18T14:59:05Z</time>
      </trkpt>
      <trkpt lat="46.3085" lon="-0.21948">
        <ele>184</ele>
        <time>2011-10-18T14:59:10Z</time>
      </trkpt>
      <trkpt lat="46.30849" lon="-0.21958">
        <ele>185</ele>
        <time>2011-10-18T14:59:15Z</time>
      </trkpt>
      <trkpt lat="46.3085" lon="-0.21965">
        <ele>185</ele>
        <time>2011-10-18T14:59:20Z</time>
      </trkpt>
      <trkpt lat="46.30849" lon="-0.21972">
        <ele>187</ele>
        <time>2011-10-18T14:59:25Z</time>
      </trkpt>
      <trkpt lat="46.3085" lon="-0.21979">
        <ele>185</ele>
        <time>2011-10-18T14:59:30Z</time>
      </trkpt>
      <trkpt lat="46.3085" lon="-0.21989">
        <ele>187</ele>
        <time>2011-10-18T14:59:35Z</time>
      </trkpt>
      <trkpt lat="46.3085" lon="-0.21998">
        <ele>187</ele>
        <time>2011-10-18T14:59:40Z</time>
      </trkpt>
      <trkpt lat="46.30849" lon="-0.22008">
        <ele>187</ele>
        <time>2011-10-18T14:59:45Z</time>
      </trkpt>
      <trkpt lat="46.3085" lon="-0.22016">
        <ele>188</ele>
        <time>2011-10-18T14:59:50Z</time>
      </trkpt>
      <trkpt lat="46.3085" lon="-0.22024">
        <ele>187</ele>
        <time>2011-10-18T14:59:55Z</time>
      </trkpt>
      <trkpt lat="46.30848" lon="-0.22035">
        <ele>187</ele>
        <time>2011-10-18T15:00:00Z</time>
      </trkpt>
      <trkpt lat="46.30848" lon="-0.22043">
        <ele>186</ele>
        <time>2011-10-18T15:00:05Z</time>
      </trkpt>
      <trkpt lat="46.30847" lon="-0.22053">
        <ele>185</ele>
        <time>2011-10-18T15:00:10Z</time>
      </trkpt>
      <trkpt lat="46.30847" lon="-0.22061">
        <ele>185</ele>
        <time>2011-10-18T15:00:15Z</time>
      </trkpt>
      <trkpt lat="46.30846" lon="-0.2207">
        <ele>186</ele>
        <time>2011-10-18T15:00:20Z</time>
      </trkpt>
      <trkpt lat="46.30845" lon="-0.22079">
        <ele>186</ele>
        <time>2011-10-18T15:00:25Z</time>
      </trkpt>
      <trkpt lat="46.30844" lon="-0.22089">
        <ele>187</ele>
        <time>2011-10-18T15:00:30Z</time>
      </trkpt>
      <trkpt lat="46.30845" lon="-0.22099">
        <ele>188</ele>
        <time>2011-10-18T15:00:35Z</time>
      </trkpt>
      <trkpt lat="46.30846" lon="-0.22108">
        <ele>188</ele>
        <time>2011-10-18T15:00:40Z</time>
      </trkpt>
      <trkpt lat="46.30846" lon="-0.22118">
        <ele>187</ele>
        <time>2011-10-18T15:00:45Z</time>
      </trkpt>
      <trkpt lat="46.30846" lon="-0.22126">
        <ele>187</ele>
        <time>2011-10-18T15:00:50Z</time>
      </trkpt>
      <trkpt lat="46.30844" lon="-0.22127">
        <ele>186</ele>
        <time>2011-10-18T15:00:55Z</time>
      </trkpt>
      <trkpt lat="46.30845" lon="-0.22127">
        <ele>186</ele>
        <time>2011-10-18T15:01:00Z</time>
      </trkpt>
      <trkpt lat="46.30845" lon="-0.22126">
        <ele>185</ele>
        <time>2011-10-18T15:01:05Z</time>
      </trkpt>
      <trkpt lat="46.30845" lon="-0.22125">
        <ele>186</ele>
        <time>2011-10-18T15:01:15Z</time>
      </trkpt>
      <trkpt lat="46.30846" lon="-0.22124">
        <ele>186</ele>
        <time>2011-10-18T15:01:20Z</time>
      </trkpt>
      <trkpt lat="46.30847" lon="-0.22124">
        <ele>186</ele>
        <time>2011-10-18T15:01:25Z</time>
      </trkpt>
      <trkpt lat="46.30847" lon="-0.22122">
        <ele>187</ele>
        <time>2011-10-18T15:01:30Z</time>
      </trkpt>
      <trkpt lat="46.30846" lon="-0.22123">
        <ele>186</ele>
        <time>2011-10-18T15:01:35Z</time>
      </trkpt>
      <trkpt lat="46.30845" lon="-0.22125">
        <ele>187</ele>
        <time>2011-10-18T15:01:40Z</time>
      </trkpt>
      <trkpt lat="46.30846" lon="-0.22126">
        <ele>189</ele>
        <time>2011-10-18T15:01:45Z</time>
      </trkpt>
      <trkpt lat="46.30846" lon="-0.22126">
        <ele>190</ele>
        <time>2011-10-18T15:01:50Z</time>
      </trkpt>
      <trkpt lat="46.30845" lon="-0.22128">
        <ele>189</ele>
        <time>2011-10-18T15:02:15Z</time>
      </trkpt>
      <trkpt lat="46.30843" lon="-0.2213">
        <ele>190</ele>
        <time>2011-10-18T15:02:20Z</time>
      </trkpt>
      <trkpt lat="46.30838" lon="-0.22129">
        <ele>189</ele>
        <time>2011-10-18T15:02:25Z</time>
      </trkpt>
      <trkpt lat="46.30833" lon="-0.2213">
        <ele>189</ele>
        <time>2011-10-18T15:02:30Z</time>
      </trkpt>
      <trkpt lat="46.30827" lon="-0.2213">
        <ele>190</ele>
        <time>2011-10-18T15:02:35Z</time>
      </trkpt>
      <trkpt lat="46.30823" lon="-0.22129">
        <ele>189</ele>
        <time>2011-10-18T15:02:40Z</time>
      </trkpt>
      <trkpt lat="46.30818" lon="-0.22129">
        <ele>188</ele>
        <time>2011-10-18T15:02:45Z</time>
      </trkpt>
      <trkpt lat="46.30812" lon="-0.22128">
        <ele>190</ele>
        <time>2011-10-18T15:02:50Z</time>
      </trkpt>
      <trkpt lat="46.30808" lon="-0.22128">
        <ele>189</ele>
        <time>2011-10-18T15:02:55Z</time>
      </trkpt>
      <trkpt lat="46.30802" lon="-0.22128">
        <ele>187</ele>
        <time>2011-10-18T15:03:00Z</time>
      </trkpt>
      <trkpt lat="46.30796" lon="-0.22126">
        <ele>188</ele>
        <time>2011-10-18T15:03:05Z</time>
      </trkpt>
      <trkpt lat="46.3079" lon="-0.22125">
        <ele>189</ele>
        <time>2011-10-18T15:03:10Z</time>
      </trkpt>
      <trkpt lat="46.30783" lon="-0.22124">
        <ele>190</ele>
        <time>2011-10-18T15:03:15Z</time>
      </trkpt>
      <trkpt lat="46.30778" lon="-0.22123">
        <ele>190</ele>
        <time>2011-10-18T15:03:20Z</time>
      </trkpt>
      <trkpt lat="46.30772" lon="-0.22126">
        <ele>188</ele>
        <time>2011-10-18T15:03:25Z</time>
      </trkpt>
      <trkpt lat="46.30766" lon="-0.22126">
        <ele>187</ele>
        <time>2011-10-18T15:03:30Z</time>
      </trkpt>
      <trkpt lat="46.30759" lon="-0.22127">
        <ele>188</ele>
        <time>2011-10-18T15:03:35Z</time>
      </trkpt>
      <trkpt lat="46.30754" lon="-0.22128">
        <ele>189</ele>
        <time>2011-10-18T15:03:40Z</time>
      </trkpt>
      <trkpt lat="46.30747" lon="-0.22131">
        <ele>190</ele>
        <time>2011-10-18T15:03:45Z</time>
      </trkpt>
      <trkpt lat="46.30741" lon="-0.22132">
        <ele>191</ele>
        <time>2011-10-18T15:03:50Z</time>
      </trkpt>
      <trkpt lat="46.30735" lon="-0.22134">
        <ele>189</ele>
        <time>2011-10-18T15:03:55Z</time>
      </trkpt>
      <trkpt lat="46.30728" lon="-0.22136">
        <ele>189</ele>
        <time>2011-10-18T15:04:00Z</time>
      </trkpt>
      <trkpt lat="46.30722" lon="-0.22138">
        <ele>190</ele>
        <time>2011-10-18T15:04:05Z</time>
      </trkpt>
      <trkpt lat="46.30716" lon="-0.22137">
        <ele>194</ele>
        <time>2011-10-18T15:04:10Z</time>
      </trkpt>
      <trkpt lat="46.30711" lon="-0.22137">
        <ele>193</ele>
        <time>2011-10-18T15:04:15Z</time>
      </trkpt>
      <trkpt lat="46.30707" lon="-0.22137">
        <ele>192</ele>
        <time>2011-10-18T15:04:20Z</time>
      </trkpt>
      <trkpt lat="46.30702" lon="-0.22132">
        <ele>190</ele>
        <time>2011-10-18T15:04:25Z</time>
      </trkpt>
      <trkpt lat="46.30698" lon="-0.22129">
        <ele>188</ele>
        <time>2011-10-18T15:04:30Z</time>
      </trkpt>
      <trkpt lat="46.30691" lon="-0.22124">
        <ele>188</ele>
        <time>2011-10-18T15:04:35Z</time>
      </trkpt>
      <trkpt lat="46.30686" lon="-0.22119">
        <ele>188</ele>
        <time>2011-10-18T15:04:40Z</time>
      </trkpt>
      <trkpt lat="46.30683" lon="-0.22114">
        <ele>188</ele>
        <time>2011-10-18T15:04:45Z</time>
      </trkpt>
      <trkpt lat="46.30677" lon="-0.22111">
        <ele>188</ele>
        <time>2011-10-18T15:04:50Z</time>
      </trkpt>
      <trkpt lat="46.30672" lon="-0.22107">
        <ele>187</ele>
        <time>2011-10-18T15:04:55Z</time>
      </trkpt>
      <trkpt lat="46.30668" lon="-0.22108">
        <ele>187</ele>
        <time>2011-10-18T15:05:00Z</time>
      </trkpt>
      <trkpt lat="46.30663" lon="-0.22108">
        <ele>186</ele>
        <time>2011-10-18T15:05:05Z</time>
      </trkpt>
      <trkpt lat="46.30659" lon="-0.22107">
        <ele>183</ele>
        <time>2011-10-18T15:05:10Z</time>
      </trkpt>
      <trkpt lat="46.30651" lon="-0.22108">
        <ele>183</ele>
        <time>2011-10-18T15:05:15Z</time>
      </trkpt>
      <trkpt lat="46.30645" lon="-0.22109">
        <ele>183</ele>
        <time>2011-10-18T15:05:20Z</time>
      </trkpt>
      <trkpt lat="46.30638" lon="-0.22112">
        <ele>182</ele>
        <time>2011-10-18T15:05:25Z</time>
      </trkpt>
      <trkpt lat="46.3063" lon="-0.22112">
        <ele>183</ele>
        <time>2011-10-18T15:05:30Z</time>
      </trkpt>
      <trkpt lat="46.30624" lon="-0.22112">
        <ele>182</ele>
        <time>2011-10-18T15:05:35Z</time>
      </trkpt>
      <trkpt lat="46.3062" lon="-0.22111">
        <ele>182</ele>
        <time>2011-10-18T15:05:40Z</time>
      </trkpt>
      <trkpt lat="46.30617" lon="-0.2211">
        <ele>181</ele>
        <time>2011-10-18T15:05:45Z</time>
      </trkpt>
      <trkpt lat="46.30611" lon="-0.22108">
        <ele>180</ele>
        <time>2011-10-18T15:05:50Z</time>
      </trkpt>
      <trkpt lat="46.30607" lon="-0.22105">
        <ele>180</ele>
        <time>2011-10-18T15:05:55Z</time>
      </trkpt>
      <trkpt lat="46.30602" lon="-0.22105">
        <ele>181</ele>
        <time>2011-10-18T15:06:00Z</time>
      </trkpt>
      <trkpt lat="46.30595" lon="-0.22105">
        <ele>180</ele>
        <time>2011-10-18T15:06:05Z</time>
      </trkpt>
      <trkpt lat="46.30589" lon="-0.22104">
        <ele>180</ele>
        <time>2011-10-18T15:06:10Z</time>
      </trkpt>
      <trkpt lat="46.30584" lon="-0.221">
        <ele>181</ele>
        <time>2011-10-18T15:06:15Z</time>
      </trkpt>
      <trkpt lat="46.30579" lon="-0.22102">
        <ele>182</ele>
        <time>2011-10-18T15:06:20Z</time>
      </trkpt>
      <trkpt lat="46.30574" lon="-0.22102">
        <ele>182</ele>
        <time>2011-10-18T15:06:25Z</time>
      </trkpt>
      <trkpt lat="46.30567" lon="-0.22104">
        <ele>181</ele>
        <time>2011-10-18T15:06:30Z</time>
      </trkpt>
      <trkpt lat="46.30565" lon="-0.22104">
        <ele>180</ele>
        <time>2011-10-18T15:06:35Z</time>
      </trkpt>
      <trkpt lat="46.30563" lon="-0.22105">
        <ele>180</ele>
        <time>2011-10-18T15:06:40Z</time>
      </trkpt>
      <trkpt lat="46.30557" lon="-0.22116">
        <ele>180</ele>
        <time>2011-10-18T15:06:45Z</time>
      </trkpt>
      <trkpt lat="46.30553" lon="-0.22125">
        <ele>181</ele>
        <time>2011-10-18T15:06:50Z</time>
      </trkpt>
      <trkpt lat="46.3055" lon="-0.22131">
        <ele>178</ele>
        <time>2011-10-18T15:06:55Z</time>
      </trkpt>
      <trkpt lat="46.30545" lon="-0.22135">
        <ele>178</ele>
        <time>2011-10-18T15:07:00Z</time>
      </trkpt>
      <trkpt lat="46.30539" lon="-0.22131">
        <ele>178</ele>
        <time>2011-10-18T15:07:05Z</time>
      </trkpt>
      <trkpt lat="46.30531" lon="-0.22132">
        <ele>182</ele>
        <time>2011-10-18T15:07:10Z</time>
      </trkpt>
      <trkpt lat="46.30526" lon="-0.22131">
        <ele>183</ele>
        <time>2011-10-18T15:07:15Z</time>
      </trkpt>
      <trkpt lat="46.3052" lon="-0.22129">
        <ele>183</ele>
        <time>2011-10-18T15:07:20Z</time>
      </trkpt>
      <trkpt lat="46.30514" lon="-0.22128">
        <ele>184</ele>
        <time>2011-10-18T15:07:25Z</time>
      </trkpt>
      <trkpt lat="46.30507" lon="-0.2213">
        <ele>184</ele>
        <time>2011-10-18T15:07:30Z</time>
      </trkpt>
      <trkpt lat="46.30501" lon="-0.22129">
        <ele>184</ele>
        <time>2011-10-18T15:07:35Z</time>
      </trkpt>
      <trkpt lat="46.30496" lon="-0.22128">
        <ele>185</ele>
        <time>2011-10-18T15:07:40Z</time>
      </trkpt>
      <trkpt lat="46.3049" lon="-0.22128">
        <ele>185</ele>
        <time>2011-10-18T15:07:45Z</time>
      </trkpt>
      <trkpt lat="46.30486" lon="-0.22126">
        <ele>183</ele>
        <time>2011-10-18T15:07:50Z</time>
      </trkpt>
      <trkpt lat="46.30482" lon="-0.22127">
        <ele>180</ele>
        <time>2011-10-18T15:07:55Z</time>
      </trkpt>
      <trkpt lat="46.30476" lon="-0.22121">
        <ele>182</ele>
        <time>2011-10-18T15:08:00Z</time>
      </trkpt>
      <trkpt lat="46.30473" lon="-0.22119">
        <ele>185</ele>
        <time>2011-10-18T15:08:05Z</time>
      </trkpt>
      <trkpt lat="46.30469" lon="-0.22116">
        <ele>185</ele>
        <time>2011-10-18T15:08:10Z</time>
      </trkpt>
      <trkpt lat="46.30465" lon="-0.22113">
        <ele>186</ele>
        <time>2011-10-18T15:08:15Z</time>
      </trkpt>
      <trkpt lat="46.30457" lon="-0.22111">
        <ele>187</ele>
        <time>2011-10-18T15:08:20Z</time>
      </trkpt>
      <trkpt lat="46.30454" lon="-0.22108">
        <ele>188</ele>
        <time>2011-10-18T15:08:25Z</time>
      </trkpt>
      <trkpt lat="46.30445" lon="-0.22107">
        <ele>187</ele>
        <time>2011-10-18T15:08:30Z</time>
      </trkpt>
      <trkpt lat="46.3044" lon="-0.22106">
        <ele>187</ele>
        <time>2011-10-18T15:08:35Z</time>
      </trkpt>
      <trkpt lat="46.30439" lon="-0.22099">
        <ele>190</ele>
        <time>2011-10-18T15:08:40Z</time>
      </trkpt>
      <trkpt lat="46.30437" lon="-0.22098">
        <ele>192</ele>
        <time>2011-10-18T15:08:45Z</time>
      </trkpt>
      <trkpt lat="46.30436" lon="-0.22098">
        <ele>192</ele>
        <time>2011-10-18T15:08:50Z</time>
      </trkpt>
      <trkpt lat="46.30436" lon="-0.22098">
        <ele>193</ele>
        <time>2011-10-18T15:08:55Z</time>
      </trkpt>
      <trkpt lat="46.30433" lon="-0.22096">
        <ele>193</ele>
        <time>2011-10-18T15:09:00Z</time>
      </trkpt>
      <trkpt lat="46.30431" lon="-0.22092">
        <ele>193</ele>
        <time>2011-10-18T15:09:05Z</time>
      </trkpt>
      <trkpt lat="46.30428" lon="-0.2209">
        <ele>193</ele>
        <time>2011-10-18T15:09:10Z</time>
      </trkpt>
      <trkpt lat="46.30425" lon="-0.22088">
        <ele>193</ele>
        <time>2011-10-18T15:09:15Z</time>
      </trkpt>
      <trkpt lat="46.30421" lon="-0.22087">
        <ele>192</ele>
        <time>2011-10-18T15:09:20Z</time>
      </trkpt>
      <trkpt lat="46.30417" lon="-0.22086">
        <ele>192</ele>
        <time>2011-10-18T15:09:25Z</time>
      </trkpt>
      <trkpt lat="46.30413" lon="-0.22087">
        <ele>192</ele>
        <time>2011-10-18T15:09:30Z</time>
      </trkpt>
      <trkpt lat="46.30408" lon="-0.22087">
        <ele>191</ele>
        <time>2011-10-18T15:09:35Z</time>
      </trkpt>
      <trkpt lat="46.30405" lon="-0.22086">
        <ele>191</ele>
        <time>2011-10-18T15:09:40Z</time>
      </trkpt>
      <trkpt lat="46.30401" lon="-0.22085">
        <ele>191</ele>
        <time>2011-10-18T15:09:45Z</time>
      </trkpt>
      <trkpt lat="46.30398" lon="-0.22084">
        <ele>192</ele>
        <time>2011-10-18T15:09:50Z</time>
      </trkpt>
      <trkpt lat="46.30391" lon="-0.22084">
        <ele>191</ele>
        <time>2011-10-18T15:09:55Z</time>
      </trkpt>
      <trkpt lat="46.30385" lon="-0.22083">
        <ele>189</ele>
        <time>2011-10-18T15:10:00Z</time>
      </trkpt>
      <trkpt lat="46.30377" lon="-0.22085">
        <ele>186</ele>
        <time>2011-10-18T15:10:05Z</time>
      </trkpt>
      <trkpt lat="46.3037" lon="-0.22085">
        <ele>186</ele>
        <time>2011-10-18T15:10:10Z</time>
      </trkpt>
      <trkpt lat="46.30366" lon="-0.22086">
        <ele>186</ele>
        <time>2011-10-18T15:10:15Z</time>
      </trkpt>
      <trkpt lat="46.30361" lon="-0.22085">
        <ele>186</ele>
        <time>2011-10-18T15:10:20Z</time>
      </trkpt>
      <trkpt lat="46.30353" lon="-0.22085">
        <ele>183</ele>
        <time>2011-10-18T15:10:25Z</time>
      </trkpt>
      <trkpt lat="46.30346" lon="-0.22084">
        <ele>186</ele>
        <time>2011-10-18T15:10:30Z</time>
      </trkpt>
      <trkpt lat="46.30339" lon="-0.22083">
        <ele>188</ele>
        <time>2011-10-18T15:10:35Z</time>
      </trkpt>
      <trkpt lat="46.30334" lon="-0.22084">
        <ele>189</ele>
        <time>2011-10-18T15:10:40Z</time>
      </trkpt>
      <trkpt lat="46.30329" lon="-0.22083">
        <ele>188</ele>
        <time>2011-10-18T15:10:45Z</time>
      </trkpt>
      <trkpt lat="46.30325" lon="-0.22082">
        <ele>185</ele>
        <time>2011-10-18T15:10:50Z</time>
      </trkpt>
      <trkpt lat="46.30322" lon="-0.22081">
        <ele>184</ele>
        <time>2011-10-18T15:10:55Z</time>
      </trkpt>
      <trkpt lat="46.30321" lon="-0.22083">
        <ele>184</ele>
        <time>2011-10-18T15:11:00Z</time>
      </trkpt>
      <trkpt lat="46.30317" lon="-0.22086">
        <ele>184</ele>
        <time>2011-10-18T15:11:05Z</time>
      </trkpt>
      <trkpt lat="46.30318" lon="-0.22089">
        <ele>186</ele>
        <time>2011-10-18T15:11:10Z</time>
      </trkpt>
      <trkpt lat="46.30318" lon="-0.2209">
        <ele>185</ele>
        <time>2011-10-18T15:11:15Z</time>
      </trkpt>
      <trkpt lat="46.30317" lon="-0.22096">
        <ele>184</ele>
        <time>2011-10-18T15:11:20Z</time>
      </trkpt>
      <trkpt lat="46.30316" lon="-0.221">
        <ele>185</ele>
        <time>2011-10-18T15:11:25Z</time>
      </trkpt>
      <trkpt lat="46.30315" lon="-0.22104">
        <ele>182</ele>
        <time>2011-10-18T15:11:30Z</time>
      </trkpt>
      <trkpt lat="46.30311" lon="-0.22108">
        <ele>181</ele>
        <time>2011-10-18T15:11:35Z</time>
      </trkpt>
      <trkpt lat="46.30305" lon="-0.2211">
        <ele>180</ele>
        <time>2011-10-18T15:11:40Z</time>
      </trkpt>
      <trkpt lat="46.303" lon="-0.22112">
        <ele>180</ele>
        <time>2011-10-18T15:11:45Z</time>
      </trkpt>
      <trkpt lat="46.30294" lon="-0.22114">
        <ele>179</ele>
        <time>2011-10-18T15:11:50Z</time>
      </trkpt>
      <trkpt lat="46.30289" lon="-0.22115">
        <ele>178</ele>
        <time>2011-10-18T15:11:55Z</time>
      </trkpt>
      <trkpt lat="46.30285" lon="-0.22116">
        <ele>177</ele>
        <time>2011-10-18T15:12:00Z</time>
      </trkpt>
      <trkpt lat="46.30279" lon="-0.22116">
        <ele>179</ele>
        <time>2011-10-18T15:12:05Z</time>
      </trkpt>
      <trkpt lat="46.30274" lon="-0.22119">
        <ele>177</ele>
        <time>2011-10-18T15:12:10Z</time>
      </trkpt>
      <trkpt lat="46.3027" lon="-0.22126">
        <ele>178</ele>
        <time>2011-10-18T15:12:15Z</time>
      </trkpt>
      <trkpt lat="46.30267" lon="-0.22134">
        <ele>177</ele>
        <time>2011-10-18T15:12:20Z</time>
      </trkpt>
      <trkpt lat="46.30266" lon="-0.22141">
        <ele>178</ele>
        <time>2011-10-18T15:12:25Z</time>
      </trkpt>
      <trkpt lat="46.30265" lon="-0.22149">
        <ele>178</ele>
        <time>2011-10-18T15:12:30Z</time>
      </trkpt>
      <trkpt lat="46.30262" lon="-0.22159">
        <ele>177</ele>
        <time>2011-10-18T15:12:35Z</time>
      </trkpt>
      <trkpt lat="46.30261" lon="-0.22167">
        <ele>177</ele>
        <time>2011-10-18T15:12:40Z</time>
      </trkpt>
      <trkpt lat="46.30259" lon="-0.22175">
        <ele>178</ele>
        <time>2011-10-18T15:12:45Z</time>
      </trkpt>
      <trkpt lat="46.30259" lon="-0.22181">
        <ele>177</ele>
        <time>2011-10-18T15:12:50Z</time>
      </trkpt>
      <trkpt lat="46.30258" lon="-0.22188">
        <ele>177</ele>
        <time>2011-10-18T15:12:55Z</time>
      </trkpt>
      <trkpt lat="46.30257" lon="-0.22195">
        <ele>177</ele>
        <time>2011-10-18T15:13:00Z</time>
      </trkpt>
      <trkpt lat="46.30256" lon="-0.22204">
        <ele>177</ele>
        <time>2011-10-18T15:13:05Z</time>
      </trkpt>
      <trkpt lat="46.30253" lon="-0.22211">
        <ele>176</ele>
        <time>2011-10-18T15:13:10Z</time>
      </trkpt>
      <trkpt lat="46.3025" lon="-0.22216">
        <ele>177</ele>
        <time>2011-10-18T15:13:15Z</time>
      </trkpt>
      <trkpt lat="46.30246" lon="-0.22219">
        <ele>177</ele>
        <time>2011-10-18T15:13:20Z</time>
      </trkpt>
      <trkpt lat="46.3024" lon="-0.22223">
        <ele>177</ele>
        <time>2011-10-18T15:13:25Z</time>
      </trkpt>
      <trkpt lat="46.30237" lon="-0.22226">
        <ele>176</ele>
        <time>2011-10-18T15:13:30Z</time>
      </trkpt>
      <trkpt lat="46.30236" lon="-0.22231">
        <ele>175</ele>
        <time>2011-10-18T15:13:35Z</time>
      </trkpt>
      <trkpt lat="46.30234" lon="-0.22236">
        <ele>173</ele>
        <time>2011-10-18T15:13:40Z</time>
      </trkpt>
      <trkpt lat="46.30234" lon="-0.22245">
        <ele>175</ele>
        <time>2011-10-18T15:13:45Z</time>
      </trkpt>
      <trkpt lat="46.30232" lon="-0.22256">
        <ele>173</ele>
        <time>2011-10-18T15:13:50Z</time>
      </trkpt>
      <trkpt lat="46.30231" lon="-0.22266">
        <ele>172</ele>
        <time>2011-10-18T15:13:55Z</time>
      </trkpt>
      <trkpt lat="46.3023" lon="-0.22276">
        <ele>173</ele>
        <time>2011-10-18T15:14:00Z</time>
      </trkpt>
      <trkpt lat="46.3023" lon="-0.22284">
        <ele>173</ele>
        <time>2011-10-18T15:14:05Z</time>
      </trkpt>
      <trkpt lat="46.30231" lon="-0.22294">
        <ele>174</ele>
        <time>2011-10-18T15:14:10Z</time>
      </trkpt>
      <trkpt lat="46.30231" lon="-0.22301">
        <ele>174</ele>
        <time>2011-10-18T15:14:15Z</time>
      </trkpt>
      <trkpt lat="46.30228" lon="-0.22311">
        <ele>174</ele>
        <time>2011-10-18T15:14:20Z</time>
      </trkpt>
      <trkpt lat="46.30228" lon="-0.2232">
        <ele>173</ele>
        <time>2011-10-18T15:14:25Z</time>
      </trkpt>
      <trkpt lat="46.30226" lon="-0.22328">
        <ele>173</ele>
        <time>2011-10-18T15:14:30Z</time>
      </trkpt>
      <trkpt lat="46.30223" lon="-0.22337">
        <ele>171</ele>
        <time>2011-10-18T15:14:35Z</time>
      </trkpt>
      <trkpt lat="46.30223" lon="-0.22345">
        <ele>171</ele>
        <time>2011-10-18T15:14:40Z</time>
      </trkpt>
      <trkpt lat="46.30222" lon="-0.22353">
        <ele>172</ele>
        <time>2011-10-18T15:14:45Z</time>
      </trkpt>
      <trkpt lat="46.30222" lon="-0.22361">
        <ele>171</ele>
        <time>2011-10-18T15:14:50Z</time>
      </trkpt>
      <trkpt lat="46.3022" lon="-0.2237">
        <ele>171</ele>
        <time>2011-10-18T15:14:55Z</time>
      </trkpt>
      <trkpt lat="46.30219" lon="-0.22377">
        <ele>171</ele>
        <time>2011-10-18T15:15:00Z</time>
      </trkpt>
      <trkpt lat="46.30217" lon="-0.22386">
        <ele>173</ele>
        <time>2011-10-18T15:15:05Z</time>
      </trkpt>
      <trkpt lat="46.30216" lon="-0.22394">
        <ele>174</ele>
        <time>2011-10-18T15:15:10Z</time>
      </trkpt>
      <trkpt lat="46.30215" lon="-0.22402">
        <ele>174</ele>
        <time>2011-10-18T15:15:15Z</time>
      </trkpt>
      <trkpt lat="46.30214" lon="-0.2241">
        <ele>175</ele>
        <time>2011-10-18T15:15:20Z</time>
      </trkpt>
      <trkpt lat="46.30214" lon="-0.22418">
        <ele>175</ele>
        <time>2011-10-18T15:15:25Z</time>
      </trkpt>
      <trkpt lat="46.30212" lon="-0.22427">
        <ele>175</ele>
        <time>2011-10-18T15:15:30Z</time>
      </trkpt>
      <trkpt lat="46.3021" lon="-0.22437">
        <ele>176</ele>
        <time>2011-10-18T15:15:35Z</time>
      </trkpt>
      <trkpt lat="46.30209" lon="-0.22444">
        <ele>174</ele>
        <time>2011-10-18T15:15:40Z</time>
      </trkpt>
      <trkpt lat="46.30207" lon="-0.22453">
        <ele>173</ele>
        <time>2011-10-18T15:15:45Z</time>
      </trkpt>
      <trkpt lat="46.30205" lon="-0.22461">
        <ele>173</ele>
        <time>2011-10-18T15:15:50Z</time>
      </trkpt>
      <trkpt lat="46.30205" lon="-0.22467">
        <ele>174</ele>
        <time>2011-10-18T15:15:55Z</time>
      </trkpt>
      <trkpt lat="46.30202" lon="-0.22476">
        <ele>174</ele>
        <time>2011-10-18T15:16:00Z</time>
      </trkpt>
      <trkpt lat="46.30201" lon="-0.22485">
        <ele>174</ele>
        <time>2011-10-18T15:16:05Z</time>
      </trkpt>
      <trkpt lat="46.30198" lon="-0.22494">
        <ele>175</ele>
        <time>2011-10-18T15:16:10Z</time>
      </trkpt>
      <trkpt lat="46.30195" lon="-0.22501">
        <ele>175</ele>
        <time>2011-10-18T15:16:15Z</time>
      </trkpt>
      <trkpt lat="46.30191" lon="-0.22509">
        <ele>174</ele>
        <time>2011-10-18T15:16:20Z</time>
      </trkpt>
      <trkpt lat="46.30187" lon="-0.22516">
        <ele>174</ele>
        <time>2011-10-18T15:16:25Z</time>
      </trkpt>
      <trkpt lat="46.30184" lon="-0.22523">
        <ele>174</ele>
        <time>2011-10-18T15:16:30Z</time>
      </trkpt>
      <trkpt lat="46.30182" lon="-0.22525">
        <ele>174</ele>
        <time>2011-10-18T15:16:35Z</time>
      </trkpt>
      <trkpt lat="46.30178" lon="-0.22534">
        <ele>174</ele>
        <time>2011-10-18T15:16:40Z</time>
      </trkpt>
      <trkpt lat="46.30175" lon="-0.22541">
        <ele>174</ele>
        <time>2011-10-18T15:16:45Z</time>
      </trkpt>
      <trkpt lat="46.30172" lon="-0.22548">
        <ele>174</ele>
        <time>2011-10-18T15:16:50Z</time>
      </trkpt>
      <trkpt lat="46.30169" lon="-0.22556">
        <ele>175</ele>
        <time>2011-10-18T15:16:55Z</time>
      </trkpt>
      <trkpt lat="46.30167" lon="-0.22564">
        <ele>175</ele>
        <time>2011-10-18T15:17:00Z</time>
      </trkpt>
      <trkpt lat="46.30164" lon="-0.2257">
        <ele>175</ele>
        <time>2011-10-18T15:17:05Z</time>
      </trkpt>
      <trkpt lat="46.30161" lon="-0.22579">
        <ele>175</ele>
        <time>2011-10-18T15:17:10Z</time>
      </trkpt>
      <trkpt lat="46.3016" lon="-0.22585">
        <ele>176</ele>
        <time>2011-10-18T15:17:15Z</time>
      </trkpt>
      <trkpt lat="46.30157" lon="-0.22593">
        <ele>176</ele>
        <time>2011-10-18T15:17:20Z</time>
      </trkpt>
      <trkpt lat="46.30153" lon="-0.226">
        <ele>176</ele>
        <time>2011-10-18T15:17:25Z</time>
      </trkpt>
      <trkpt lat="46.30152" lon="-0.22608">
        <ele>175</ele>
        <time>2011-10-18T15:17:30Z</time>
      </trkpt>
      <trkpt lat="46.30148" lon="-0.22616">
        <ele>176</ele>
        <time>2011-10-18T15:17:35Z</time>
      </trkpt>
      <trkpt lat="46.30145" lon="-0.22625">
        <ele>175</ele>
        <time>2011-10-18T15:17:40Z</time>
      </trkpt>
      <trkpt lat="46.30142" lon="-0.22633">
        <ele>175</ele>
        <time>2011-10-18T15:17:45Z</time>
      </trkpt>
      <trkpt lat="46.30139" lon="-0.22641">
        <ele>174</ele>
        <time>2011-10-18T15:17:50Z</time>
      </trkpt>
      <trkpt lat="46.30137" lon="-0.22649">
        <ele>174</ele>
        <time>2011-10-18T15:17:55Z</time>
      </trkpt>
      <trkpt lat="46.30138" lon="-0.22652">
        <ele>174</ele>
        <time>2011-10-18T15:18:00Z</time>
      </trkpt>
      <trkpt lat="46.30138" lon="-0.22661">
        <ele>173</ele>
        <time>2011-10-18T15:18:05Z</time>
      </trkpt>
      <trkpt lat="46.30135" lon="-0.22672">
        <ele>176</ele>
        <time>2011-10-18T15:18:10Z</time>
      </trkpt>
      <trkpt lat="46.30133" lon="-0.22682">
        <ele>176</ele>
        <time>2011-10-18T15:18:15Z</time>
      </trkpt>
      <trkpt lat="46.30131" lon="-0.2269">
        <ele>176</ele>
        <time>2011-10-18T15:18:20Z</time>
      </trkpt>
      <trkpt lat="46.30126" lon="-0.227">
        <ele>176</ele>
        <time>2011-10-18T15:18:25Z</time>
      </trkpt>
      <trkpt lat="46.30124" lon="-0.22706">
        <ele>175</ele>
        <time>2011-10-18T15:18:30Z</time>
      </trkpt>
      <trkpt lat="46.30122" lon="-0.22714">
        <ele>175</ele>
        <time>2011-10-18T15:18:35Z</time>
      </trkpt>
      <trkpt lat="46.3012" lon="-0.22721">
        <ele>175</ele>
        <time>2011-10-18T15:18:40Z</time>
      </trkpt>
      <trkpt lat="46.30117" lon="-0.2273">
        <ele>174</ele>
        <time>2011-10-18T15:18:45Z</time>
      </trkpt>
      <trkpt lat="46.30117" lon="-0.22735">
        <ele>174</ele>
        <time>2011-10-18T15:18:50Z</time>
      </trkpt>
      <trkpt lat="46.30114" lon="-0.22742">
        <ele>175</ele>
        <time>2011-10-18T15:18:55Z</time>
      </trkpt>
      <trkpt lat="46.30112" lon="-0.22747">
        <ele>176</ele>
        <time>2011-10-18T15:19:00Z</time>
      </trkpt>
      <trkpt lat="46.30108" lon="-0.22753">
        <ele>175</ele>
        <time>2011-10-18T15:19:05Z</time>
      </trkpt>
      <trkpt lat="46.30103" lon="-0.2276">
        <ele>175</ele>
        <time>2011-10-18T15:19:10Z</time>
      </trkpt>
      <trkpt lat="46.301" lon="-0.22766">
        <ele>175</ele>
        <time>2011-10-18T15:19:15Z</time>
      </trkpt>
      <trkpt lat="46.30096" lon="-0.22774">
        <ele>175</ele>
        <time>2011-10-18T15:19:20Z</time>
      </trkpt>
      <trkpt lat="46.30094" lon="-0.22778">
        <ele>175</ele>
        <time>2011-10-18T15:19:25Z</time>
      </trkpt>
      <trkpt lat="46.3009" lon="-0.22784">
        <ele>175</ele>
        <time>2011-10-18T15:19:30Z</time>
      </trkpt>
      <trkpt lat="46.30086" lon="-0.2279">
        <ele>175</ele>
        <time>2011-10-18T15:19:35Z</time>
      </trkpt>
      <trkpt lat="46.30082" lon="-0.22792">
        <ele>176</ele>
        <time>2011-10-18T15:19:40Z</time>
      </trkpt>
      <trkpt lat="46.3008" lon="-0.22795">
        <ele>177</ele>
        <time>2011-10-18T15:19:45Z</time>
      </trkpt>
      <trkpt lat="46.30074" lon="-0.22798">
        <ele>178</ele>
        <time>2011-10-18T15:19:50Z</time>
      </trkpt>
      <trkpt lat="46.30068" lon="-0.22804">
        <ele>179</ele>
        <time>2011-10-18T15:19:55Z</time>
      </trkpt>
      <trkpt lat="46.30064" lon="-0.22809">
        <ele>180</ele>
        <time>2011-10-18T15:20:00Z</time>
      </trkpt>
      <trkpt lat="46.30059" lon="-0.22814">
        <ele>182</ele>
        <time>2011-10-18T15:20:05Z</time>
      </trkpt>
      <trkpt lat="46.30055" lon="-0.22819">
        <ele>184</ele>
        <time>2011-10-18T15:20:10Z</time>
      </trkpt>
      <trkpt lat="46.30049" lon="-0.22823">
        <ele>179</ele>
        <time>2011-10-18T15:20:15Z</time>
      </trkpt>
      <trkpt lat="46.30043" lon="-0.22828">
        <ele>178</ele>
        <time>2011-10-18T15:20:20Z</time>
      </trkpt>
      <trkpt lat="46.30037" lon="-0.2283">
        <ele>178</ele>
        <time>2011-10-18T15:20:25Z</time>
      </trkpt>
      <trkpt lat="46.30031" lon="-0.22835">
        <ele>179</ele>
        <time>2011-10-18T15:20:30Z</time>
      </trkpt>
      <trkpt lat="46.30028" lon="-0.2284">
        <ele>182</ele>
        <time>2011-10-18T15:20:35Z</time>
      </trkpt>
      <trkpt lat="46.30023" lon="-0.22844">
        <ele>182</ele>
        <time>2011-10-18T15:20:40Z</time>
      </trkpt>
      <trkpt lat="46.30018" lon="-0.22847">
        <ele>183</ele>
        <time>2011-10-18T15:20:45Z</time>
      </trkpt>
      <trkpt lat="46.30014" lon="-0.22849">
        <ele>184</ele>
        <time>2011-10-18T15:20:50Z</time>
      </trkpt>
      <trkpt lat="46.30008" lon="-0.22853">
        <ele>185</ele>
        <time>2011-10-18T15:20:55Z</time>
      </trkpt>
      <trkpt lat="46.30001" lon="-0.22859">
        <ele>184</ele>
        <time>2011-10-18T15:21:00Z</time>
      </trkpt>
      <trkpt lat="46.29998" lon="-0.22861">
        <ele>183</ele>
        <time>2011-10-18T15:21:05Z</time>
      </trkpt>
      <trkpt lat="46.29995" lon="-0.22863">
        <ele>182</ele>
        <time>2011-10-18T15:21:10Z</time>
      </trkpt>
      <trkpt lat="46.29986" lon="-0.22869">
        <ele>180</ele>
        <time>2011-10-18T15:21:15Z</time>
      </trkpt>
      <trkpt lat="46.29982" lon="-0.22872">
        <ele>178</ele>
        <time>2011-10-18T15:21:20Z</time>
      </trkpt>
      <trkpt lat="46.29977" lon="-0.22875">
        <ele>177</ele>
        <time>2011-10-18T15:21:25Z</time>
      </trkpt>
      <trkpt lat="46.29971" lon="-0.22877">
        <ele>175</ele>
        <time>2011-10-18T15:21:30Z</time>
      </trkpt>
      <trkpt lat="46.29968" lon="-0.22883">
        <ele>175</ele>
        <time>2011-10-18T15:21:35Z</time>
      </trkpt>
      <trkpt lat="46.29968" lon="-0.22887">
        <ele>173</ele>
        <time>2011-10-18T15:21:40Z</time>
      </trkpt>
      <trkpt lat="46.29967" lon="-0.22887">
        <ele>173</ele>
        <time>2011-10-18T15:21:45Z</time>
      </trkpt>
      <trkpt lat="46.29966" lon="-0.22887">
        <ele>173</ele>
        <time>2011-10-18T15:21:50Z</time>
      </trkpt>
      <trkpt lat="46.29968" lon="-0.22883">
        <ele>176</ele>
        <time>2011-10-18T15:22:00Z</time>
      </trkpt>
      <trkpt lat="46.29968" lon="-0.22884">
        <ele>175</ele>
        <time>2011-10-18T15:22:05Z</time>
      </trkpt>
      <trkpt lat="46.29967" lon="-0.22884">
        <ele>176</ele>
        <time>2011-10-18T15:22:10Z</time>
      </trkpt>
      <trkpt lat="46.29968" lon="-0.22887">
        <ele>174</ele>
        <time>2011-10-18T15:22:20Z</time>
      </trkpt>
      <trkpt lat="46.29967" lon="-0.22886">
        <ele>175</ele>
        <time>2011-10-18T15:22:25Z</time>
      </trkpt>
      <trkpt lat="46.29968" lon="-0.22887">
        <ele>175</ele>
        <time>2011-10-18T15:22:30Z</time>
      </trkpt>
      <trkpt lat="46.29967" lon="-0.22888">
        <ele>174</ele>
        <time>2011-10-18T15:22:45Z</time>
      </trkpt>
      <trkpt lat="46.29968" lon="-0.22891">
        <ele>173</ele>
        <time>2011-10-18T15:22:50Z</time>
      </trkpt>
      <trkpt lat="46.29973" lon="-0.22898">
        <ele>174</ele>
        <time>2011-10-18T15:22:55Z</time>
      </trkpt>
      <trkpt lat="46.29972" lon="-0.22905">
        <ele>172</ele>
        <time>2011-10-18T15:23:00Z</time>
      </trkpt>
      <trkpt lat="46.29978" lon="-0.22912">
        <ele>173</ele>
        <time>2011-10-18T15:23:05Z</time>
      </trkpt>
      <trkpt lat="46.2998" lon="-0.22917">
        <ele>174</ele>
        <time>2011-10-18T15:23:10Z</time>
      </trkpt>
      <trkpt lat="46.29981" lon="-0.22918">
        <ele>175</ele>
        <time>2011-10-18T15:23:15Z</time>
      </trkpt>
      <trkpt lat="46.29982" lon="-0.22928">
        <ele>175</ele>
        <time>2011-10-18T15:23:20Z</time>
      </trkpt>
      <trkpt lat="46.29985" lon="-0.22938">
        <ele>177</ele>
        <time>2011-10-18T15:23:25Z</time>
      </trkpt>
      <trkpt lat="46.29985" lon="-0.22947">
        <ele>176</ele>
        <time>2011-10-18T15:23:30Z</time>
      </trkpt>
      <trkpt lat="46.29988" lon="-0.22955">
        <ele>175</ele>
        <time>2011-10-18T15:23:35Z</time>
      </trkpt>
      <trkpt lat="46.29991" lon="-0.22965">
        <ele>176</ele>
        <time>2011-10-18T15:23:40Z</time>
      </trkpt>
      <trkpt lat="46.29993" lon="-0.2297">
        <ele>174</ele>
        <time>2011-10-18T15:23:45Z</time>
      </trkpt>
      <trkpt lat="46.29994" lon="-0.22978">
        <ele>173</ele>
        <time>2011-10-18T15:23:50Z</time>
      </trkpt>
      <trkpt lat="46.29996" lon="-0.22985">
        <ele>172</ele>
        <time>2011-10-18T15:23:55Z</time>
      </trkpt>
      <trkpt lat="46.29999" lon="-0.22993">
        <ele>172</ele>
        <time>2011-10-18T15:24:00Z</time>
      </trkpt>
      <trkpt lat="46.30003" lon="-0.22998">
        <ele>172</ele>
        <time>2011-10-18T15:24:05Z</time>
      </trkpt>
      <trkpt lat="46.30007" lon="-0.23004">
        <ele>169</ele>
        <time>2011-10-18T15:24:10Z</time>
      </trkpt>
      <trkpt lat="46.3001" lon="-0.23011">
        <ele>167</ele>
        <time>2011-10-18T15:24:15Z</time>
      </trkpt>
      <trkpt lat="46.30016" lon="-0.23016">
        <ele>169</ele>
        <time>2011-10-18T15:24:20Z</time>
      </trkpt>
      <trkpt lat="46.3002" lon="-0.23024">
        <ele>170</ele>
        <time>2011-10-18T15:24:25Z</time>
      </trkpt>
      <trkpt lat="46.30026" lon="-0.2303">
        <ele>172</ele>
        <time>2011-10-18T15:24:30Z</time>
      </trkpt>
      <trkpt lat="46.30031" lon="-0.23034">
        <ele>174</ele>
        <time>2011-10-18T15:24:35Z</time>
      </trkpt>
      <trkpt lat="46.30036" lon="-0.23038">
        <ele>176</ele>
        <time>2011-10-18T15:24:40Z</time>
      </trkpt>
      <trkpt lat="46.3004" lon="-0.23041">
        <ele>177</ele>
        <time>2011-10-18T15:24:45Z</time>
      </trkpt>
      <trkpt lat="46.30044" lon="-0.23042">
        <ele>180</ele>
        <time>2011-10-18T15:24:50Z</time>
      </trkpt>
      <trkpt lat="46.30051" lon="-0.23042">
        <ele>180</ele>
        <time>2011-10-18T15:24:55Z</time>
      </trkpt>
      <trkpt lat="46.30054" lon="-0.23042">
        <ele>178</ele>
        <time>2011-10-18T15:25:00Z</time>
      </trkpt>
      <trkpt lat="46.30059" lon="-0.23041">
        <ele>178</ele>
        <time>2011-10-18T15:25:05Z</time>
      </trkpt>
      <trkpt lat="46.30064" lon="-0.23038">
        <ele>175</ele>
        <time>2011-10-18T15:25:10Z</time>
      </trkpt>
      <trkpt lat="46.30068" lon="-0.23036">
        <ele>175</ele>
        <time>2011-10-18T15:25:15Z</time>
      </trkpt>
      <trkpt lat="46.30073" lon="-0.23035">
        <ele>172</ele>
        <time>2011-10-18T15:25:20Z</time>
      </trkpt>
      <trkpt lat="46.30079" lon="-0.23034">
        <ele>173</ele>
        <time>2011-10-18T15:25:25Z</time>
      </trkpt>
      <trkpt lat="46.30083" lon="-0.23031">
        <ele>175</ele>
        <time>2011-10-18T15:25:30Z</time>
      </trkpt>
      <trkpt lat="46.30088" lon="-0.2303">
        <ele>174</ele>
        <time>2011-10-18T15:25:35Z</time>
      </trkpt>
      <trkpt lat="46.30092" lon="-0.23028">
        <ele>172</ele>
        <time>2011-10-18T15:25:40Z</time>
      </trkpt>
      <trkpt lat="46.30097" lon="-0.23026">
        <ele>173</ele>
        <time>2011-10-18T15:25:45Z</time>
      </trkpt>
      <trkpt lat="46.30102" lon="-0.23022">
        <ele>173</ele>
        <time>2011-10-18T15:25:50Z</time>
      </trkpt>
      <trkpt lat="46.30108" lon="-0.23021">
        <ele>172</ele>
        <time>2011-10-18T15:25:55Z</time>
      </trkpt>
      <trkpt lat="46.30112" lon="-0.23019">
        <ele>173</ele>
        <time>2011-10-18T15:26:00Z</time>
      </trkpt>
      <trkpt lat="46.30117" lon="-0.23016">
        <ele>171</ele>
        <time>2011-10-18T15:26:05Z</time>
      </trkpt>
      <trkpt lat="46.30122" lon="-0.23014">
        <ele>171</ele>
        <time>2011-10-18T15:26:10Z</time>
      </trkpt>
      <trkpt lat="46.30127" lon="-0.23015">
        <ele>170</ele>
        <time>2011-10-18T15:26:15Z</time>
      </trkpt>
      <trkpt lat="46.30131" lon="-0.23012">
        <ele>167</ele>
        <time>2011-10-18T15:26:20Z</time>
      </trkpt>
      <trkpt lat="46.30136" lon="-0.23009">
        <ele>170</ele>
        <time>2011-10-18T15:26:25Z</time>
      </trkpt>
      <trkpt lat="46.30141" lon="-0.23005">
        <ele>171</ele>
        <time>2011-10-18T15:26:30Z</time>
      </trkpt>
      <trkpt lat="46.30147" lon="-0.23004">
        <ele>174</ele>
        <time>2011-10-18T15:26:35Z</time>
      </trkpt>
      <trkpt lat="46.30154" lon="-0.23002">
        <ele>176</ele>
        <time>2011-10-18T15:26:40Z</time>
      </trkpt>
      <trkpt lat="46.3016" lon="-0.22999">
        <ele>178</ele>
        <time>2011-10-18T15:26:45Z</time>
      </trkpt>
      <trkpt lat="46.30165" lon="-0.22997">
        <ele>179</ele>
        <time>2011-10-18T15:26:50Z</time>
      </trkpt>
      <trkpt lat="46.30171" lon="-0.22995">
        <ele>179</ele>
        <time>2011-10-18T15:26:55Z</time>
      </trkpt>
      <trkpt lat="46.30177" lon="-0.22992">
        <ele>179</ele>
        <time>2011-10-18T15:27:00Z</time>
      </trkpt>
      <trkpt lat="46.3018" lon="-0.2299">
        <ele>179</ele>
        <time>2011-10-18T15:27:05Z</time>
      </trkpt>
      <trkpt lat="46.30187" lon="-0.22989">
        <ele>180</ele>
        <time>2011-10-18T15:27:10Z</time>
      </trkpt>
      <trkpt lat="46.30192" lon="-0.22987">
        <ele>180</ele>
        <time>2011-10-18T15:27:15Z</time>
      </trkpt>
      <trkpt lat="46.30198" lon="-0.22985">
        <ele>179</ele>
        <time>2011-10-18T15:27:20Z</time>
      </trkpt>
      <trkpt lat="46.30202" lon="-0.22984">
        <ele>179</ele>
        <time>2011-10-18T15:27:25Z</time>
      </trkpt>
      <trkpt lat="46.30208" lon="-0.22982">
        <ele>180</ele>
        <time>2011-10-18T15:27:30Z</time>
      </trkpt>
      <trkpt lat="46.30214" lon="-0.22981">
        <ele>180</ele>
        <time>2011-10-18T15:27:35Z</time>
      </trkpt>
      <trkpt lat="46.3022" lon="-0.22978">
        <ele>181</ele>
        <time>2011-10-18T15:27:40Z</time>
      </trkpt>
      <trkpt lat="46.30226" lon="-0.22976">
        <ele>181</ele>
        <time>2011-10-18T15:27:45Z</time>
      </trkpt>
      <trkpt lat="46.30231" lon="-0.22974">
        <ele>180</ele>
        <time>2011-10-18T15:27:50Z</time>
      </trkpt>
      <trkpt lat="46.30236" lon="-0.2297">
        <ele>180</ele>
        <time>2011-10-18T15:27:55Z</time>
      </trkpt>
      <trkpt lat="46.30242" lon="-0.22968">
        <ele>180</ele>
        <time>2011-10-18T15:28:00Z</time>
      </trkpt>
      <trkpt lat="46.30246" lon="-0.22966">
        <ele>179</ele>
        <time>2011-10-18T15:28:05Z</time>
      </trkpt>
      <trkpt lat="46.3025" lon="-0.22963">
        <ele>179</ele>
        <time>2011-10-18T15:28:10Z</time>
      </trkpt>
      <trkpt lat="46.30252" lon="-0.22962">
        <ele>180</ele>
        <time>2011-10-18T15:28:15Z</time>
      </trkpt>
      <trkpt lat="46.30253" lon="-0.22962">
        <ele>179</ele>
        <time>2011-10-18T15:28:20Z</time>
      </trkpt>
      <trkpt lat="46.30252" lon="-0.22962">
        <ele>179</ele>
        <time>2011-10-18T15:28:25Z</time>
      </trkpt>
      <trkpt lat="46.30252" lon="-0.22961">
        <ele>179</ele>
        <time>2011-10-18T15:28:30Z</time>
      </trkpt>
      <trkpt lat="46.30253" lon="-0.22962">
        <ele>180</ele>
        <time>2011-10-18T15:28:40Z</time>
      </trkpt>
      <trkpt lat="46.30253" lon="-0.22962">
        <ele>179</ele>
        <time>2011-10-18T15:28:45Z</time>
      </trkpt>
      <trkpt lat="46.30253" lon="-0.22962">
        <ele>179</ele>
        <time>2011-10-18T15:28:50Z</time>
      </trkpt>
      <trkpt lat="46.30255" lon="-0.22962">
        <ele>179</ele>
        <time>2011-10-18T15:28:55Z</time>
      </trkpt>
      <trkpt lat="46.30256" lon="-0.22961">
        <ele>179</ele>
        <time>2011-10-18T15:29:00Z</time>
      </trkpt>
      <trkpt lat="46.30259" lon="-0.22955">
        <ele>180</ele>
        <time>2011-10-18T15:29:05Z</time>
      </trkpt>
      <trkpt lat="46.30263" lon="-0.22948">
        <ele>178</ele>
        <time>2011-10-18T15:29:10Z</time>
      </trkpt>
      <trkpt lat="46.30265" lon="-0.22939">
        <ele>179</ele>
        <time>2011-10-18T15:29:15Z</time>
      </trkpt>
      <trkpt lat="46.30267" lon="-0.22932">
        <ele>179</ele>
        <time>2011-10-18T15:29:20Z</time>
      </trkpt>
      <trkpt lat="46.30269" lon="-0.22924">
        <ele>180</ele>
        <time>2011-10-18T15:29:25Z</time>
      </trkpt>
      <trkpt lat="46.30271" lon="-0.22916">
        <ele>182</ele>
        <time>2011-10-18T15:29:30Z</time>
      </trkpt>
      <trkpt lat="46.30272" lon="-0.22909">
        <ele>181</ele>
        <time>2011-10-18T15:29:35Z</time>
      </trkpt>
      <trkpt lat="46.30274" lon="-0.22901">
        <ele>181</ele>
        <time>2011-10-18T15:29:40Z</time>
      </trkpt>
      <trkpt lat="46.30277" lon="-0.22895">
        <ele>181</ele>
        <time>2011-10-18T15:29:45Z</time>
      </trkpt>
      <trkpt lat="46.30279" lon="-0.22888">
        <ele>182</ele>
        <time>2011-10-18T15:29:50Z</time>
      </trkpt>
      <trkpt lat="46.3028" lon="-0.22882">
        <ele>182</ele>
        <time>2011-10-18T15:29:55Z</time>
      </trkpt>
      <trkpt lat="46.30281" lon="-0.22881">
        <ele>183</ele>
        <time>2011-10-18T15:30:00Z</time>
      </trkpt>
      <trkpt lat="46.30282" lon="-0.22877">
        <ele>183</ele>
        <time>2011-10-18T15:30:05Z</time>
      </trkpt>
      <trkpt lat="46.30287" lon="-0.22875">
        <ele>182</ele>
        <time>2011-10-18T15:30:10Z</time>
      </trkpt>
      <trkpt lat="46.30293" lon="-0.22877">
        <ele>182</ele>
        <time>2011-10-18T15:30:15Z</time>
      </trkpt>
      <trkpt lat="46.30298" lon="-0.22878">
        <ele>182</ele>
        <time>2011-10-18T15:30:20Z</time>
      </trkpt>
      <trkpt lat="46.30302" lon="-0.2288">
        <ele>183</ele>
        <time>2011-10-18T15:30:25Z</time>
      </trkpt>
      <trkpt lat="46.30308" lon="-0.2288">
        <ele>184</ele>
        <time>2011-10-18T15:30:30Z</time>
      </trkpt>
      <trkpt lat="46.30314" lon="-0.22883">
        <ele>184</ele>
        <time>2011-10-18T15:30:35Z</time>
      </trkpt>
      <trkpt lat="46.30319" lon="-0.22884">
        <ele>184</ele>
        <time>2011-10-18T15:30:40Z</time>
      </trkpt>
      <trkpt lat="46.30326" lon="-0.22885">
        <ele>184</ele>
        <time>2011-10-18T15:30:45Z</time>
      </trkpt>
      <trkpt lat="46.30332" lon="-0.22886">
        <ele>184</ele>
        <time>2011-10-18T15:30:50Z</time>
      </trkpt>
      <trkpt lat="46.30338" lon="-0.22887">
        <ele>185</ele>
        <time>2011-10-18T15:30:55Z</time>
      </trkpt>
      <trkpt lat="46.30344" lon="-0.22886">
        <ele>185</ele>
        <time>2011-10-18T15:31:00Z</time>
      </trkpt>
      <trkpt lat="46.30349" lon="-0.22886">
        <ele>183</ele>
        <time>2011-10-18T15:31:05Z</time>
      </trkpt>
      <trkpt lat="46.30355" lon="-0.22885">
        <ele>183</ele>
        <time>2011-10-18T15:31:10Z</time>
      </trkpt>
      <trkpt lat="46.30361" lon="-0.22886">
        <ele>184</ele>
        <time>2011-10-18T15:31:15Z</time>
      </trkpt>
      <trkpt lat="46.30366" lon="-0.22886">
        <ele>186</ele>
        <time>2011-10-18T15:31:20Z</time>
      </trkpt>
      <trkpt lat="46.30372" lon="-0.22886">
        <ele>185</ele>
        <time>2011-10-18T15:31:25Z</time>
      </trkpt>
      <trkpt lat="46.30377" lon="-0.22886">
        <ele>185</ele>
        <time>2011-10-18T15:31:30Z</time>
      </trkpt>
      <trkpt lat="46.30384" lon="-0.22887">
        <ele>183</ele>
        <time>2011-10-18T15:31:35Z</time>
      </trkpt>
      <trkpt lat="46.30391" lon="-0.22887">
        <ele>185</ele>
        <time>2011-10-18T15:31:40Z</time>
      </trkpt>
      <trkpt lat="46.30396" lon="-0.22888">
        <ele>185</ele>
        <time>2011-10-18T15:31:45Z</time>
      </trkpt>
      <trkpt lat="46.30403" lon="-0.22887">
        <ele>184</ele>
        <time>2011-10-18T15:31:50Z</time>
      </trkpt>
      <trkpt lat="46.30409" lon="-0.22888">
        <ele>184</ele>
        <time>2011-10-18T15:31:55Z</time>
      </trkpt>
      <trkpt lat="46.30412" lon="-0.22888">
        <ele>184</ele>
        <time>2011-10-18T15:32:00Z</time>
      </trkpt>
      <trkpt lat="46.30418" lon="-0.22887">
        <ele>183</ele>
        <time>2011-10-18T15:32:05Z</time>
      </trkpt>
      <trkpt lat="46.30422" lon="-0.22885">
        <ele>184</ele>
        <time>2011-10-18T15:32:10Z</time>
      </trkpt>
      <trkpt lat="46.30429" lon="-0.22886">
        <ele>183</ele>
        <time>2011-10-18T15:32:15Z</time>
      </trkpt>
      <trkpt lat="46.30435" lon="-0.22888">
        <ele>181</ele>
        <time>2011-10-18T15:32:20Z</time>
      </trkpt>
      <trkpt lat="46.30441" lon="-0.22888">
        <ele>181</ele>
        <time>2011-10-18T15:32:25Z</time>
      </trkpt>
      <trkpt lat="46.30446" lon="-0.22888">
        <ele>179</ele>
        <time>2011-10-18T15:32:30Z</time>
      </trkpt>
      <trkpt lat="46.30453" lon="-0.22888">
        <ele>180</ele>
        <time>2011-10-18T15:32:35Z</time>
      </trkpt>
      <trkpt lat="46.30458" lon="-0.22888">
        <ele>179</ele>
        <time>2011-10-18T15:32:40Z</time>
      </trkpt>
      <trkpt lat="46.30464" lon="-0.22888">
        <ele>180</ele>
        <time>2011-10-18T15:32:45Z</time>
      </trkpt>
      <trkpt lat="46.3047" lon="-0.2289">
        <ele>179</ele>
        <time>2011-10-18T15:32:50Z</time>
      </trkpt>
      <trkpt lat="46.30475" lon="-0.22891">
        <ele>179</ele>
        <time>2011-10-18T15:32:55Z</time>
      </trkpt>
      <trkpt lat="46.30483" lon="-0.22891">
        <ele>179</ele>
        <time>2011-10-18T15:33:00Z</time>
      </trkpt>
      <trkpt lat="46.30488" lon="-0.22892">
        <ele>179</ele>
        <time>2011-10-18T15:33:05Z</time>
      </trkpt>
      <trkpt lat="46.30493" lon="-0.22895">
        <ele>178</ele>
        <time>2011-10-18T15:33:10Z</time>
      </trkpt>
      <trkpt lat="46.30499" lon="-0.229">
        <ele>178</ele>
        <time>2011-10-18T15:33:15Z</time>
      </trkpt>
      <trkpt lat="46.30501" lon="-0.229">
        <ele>177</ele>
        <time>2011-10-18T15:33:20Z</time>
      </trkpt>
      <trkpt lat="46.30495" lon="-0.22896">
        <ele>180</ele>
        <time>2011-10-18T15:33:25Z</time>
      </trkpt>
      <trkpt lat="46.30491" lon="-0.22893">
        <ele>181</ele>
        <time>2011-10-18T15:33:30Z</time>
      </trkpt>
      <trkpt lat="46.30486" lon="-0.22888">
        <ele>178</ele>
        <time>2011-10-18T15:33:35Z</time>
      </trkpt>
      <trkpt lat="46.30479" lon="-0.22888">
        <ele>178</ele>
        <time>2011-10-18T15:33:40Z</time>
      </trkpt>
      <trkpt lat="46.30474" lon="-0.22884">
        <ele>179</ele>
        <time>2011-10-18T15:33:45Z</time>
      </trkpt>
      <trkpt lat="46.30471" lon="-0.22878">
        <ele>179</ele>
        <time>2011-10-18T15:33:50Z</time>
      </trkpt>
      <trkpt lat="46.30471" lon="-0.22871">
        <ele>178</ele>
        <time>2011-10-18T15:33:55Z</time>
      </trkpt>
      <trkpt lat="46.30475" lon="-0.22866">
        <ele>176</ele>
        <time>2011-10-18T15:34:00Z</time>
      </trkpt>
      <trkpt lat="46.30477" lon="-0.22864">
        <ele>176</ele>
        <time>2011-10-18T15:34:05Z</time>
      </trkpt>
      <trkpt lat="46.30478" lon="-0.2286">
        <ele>174</ele>
        <time>2011-10-18T15:34:10Z</time>
      </trkpt>
      <trkpt lat="46.30481" lon="-0.22858">
        <ele>173</ele>
        <time>2011-10-18T15:34:15Z</time>
      </trkpt>
      <trkpt lat="46.30484" lon="-0.22853">
        <ele>174</ele>
        <time>2011-10-18T15:34:20Z</time>
      </trkpt>
      <trkpt lat="46.30492" lon="-0.22847">
        <ele>174</ele>
        <time>2011-10-18T15:34:25Z</time>
      </trkpt>
      <trkpt lat="46.30496" lon="-0.22844">
        <ele>175</ele>
        <time>2011-10-18T15:34:30Z</time>
      </trkpt>
      <trkpt lat="46.30501" lon="-0.2284">
        <ele>174</ele>
        <time>2011-10-18T15:34:35Z</time>
      </trkpt>
      <trkpt lat="46.30505" lon="-0.22835">
        <ele>175</ele>
        <time>2011-10-18T15:34:40Z</time>
      </trkpt>
      <trkpt lat="46.3051" lon="-0.22829">
        <ele>177</ele>
        <time>2011-10-18T15:34:45Z</time>
      </trkpt>
      <trkpt lat="46.30515" lon="-0.22823">
        <ele>176</ele>
        <time>2011-10-18T15:34:50Z</time>
      </trkpt>
      <trkpt lat="46.30521" lon="-0.22819">
        <ele>177</ele>
        <time>2011-10-18T15:34:55Z</time>
      </trkpt>
      <trkpt lat="46.30526" lon="-0.22815">
        <ele>177</ele>
        <time>2011-10-18T15:35:00Z</time>
      </trkpt>
      <trkpt lat="46.30531" lon="-0.22811">
        <ele>177</ele>
        <time>2011-10-18T15:35:05Z</time>
      </trkpt>
      <trkpt lat="46.30536" lon="-0.22806">
        <ele>177</ele>
        <time>2011-10-18T15:35:10Z</time>
      </trkpt>
      <trkpt lat="46.30538" lon="-0.22801">
        <ele>178</ele>
        <time>2011-10-18T15:35:15Z</time>
      </trkpt>
      <trkpt lat="46.30542" lon="-0.22799">
        <ele>178</ele>
        <time>2011-10-18T15:35:20Z</time>
      </trkpt>
      <trkpt lat="46.30546" lon="-0.22795">
        <ele>175</ele>
        <time>2011-10-18T15:35:25Z</time>
      </trkpt>
      <trkpt lat="46.30551" lon="-0.22791">
        <ele>177</ele>
        <time>2011-10-18T15:35:30Z</time>
      </trkpt>
      <trkpt lat="46.30556" lon="-0.22786">
        <ele>176</ele>
        <time>2011-10-18T15:35:35Z</time>
      </trkpt>
      <trkpt lat="46.3056" lon="-0.22782">
        <ele>175</ele>
        <time>2011-10-18T15:35:40Z</time>
      </trkpt>
      <trkpt lat="46.30565" lon="-0.22778">
        <ele>176</ele>
        <time>2011-10-18T15:35:45Z</time>
      </trkpt>
      <trkpt lat="46.3057" lon="-0.22774">
        <ele>176</ele>
        <time>2011-10-18T15:35:50Z</time>
      </trkpt>
      <trkpt lat="46.30576" lon="-0.22769">
        <ele>176</ele>
        <time>2011-10-18T15:35:55Z</time>
      </trkpt>
      <trkpt lat="46.30581" lon="-0.22764">
        <ele>176</ele>
        <time>2011-10-18T15:36:00Z</time>
      </trkpt>
      <trkpt lat="46.30587" lon="-0.22756">
        <ele>178</ele>
        <time>2011-10-18T15:36:05Z</time>
      </trkpt>
      <trkpt lat="46.30592" lon="-0.22752">
        <ele>178</ele>
        <time>2011-10-18T15:36:10Z</time>
      </trkpt>
      <trkpt lat="46.30597" lon="-0.22748">
        <ele>177</ele>
        <time>2011-10-18T15:36:15Z</time>
      </trkpt>
      <trkpt lat="46.30597" lon="-0.22744">
        <ele>174</ele>
        <time>2011-10-18T15:36:20Z</time>
      </trkpt>
      <trkpt lat="46.30598" lon="-0.22742">
        <ele>172</ele>
        <time>2011-10-18T15:36:25Z</time>
      </trkpt>
      <trkpt lat="46.30606" lon="-0.22734">
        <ele>172</ele>
        <time>2011-10-18T15:36:30Z</time>
      </trkpt>
      <trkpt lat="46.30611" lon="-0.22729">
        <ele>170</ele>
        <time>2011-10-18T15:36:35Z</time>
      </trkpt>
      <trkpt lat="46.30616" lon="-0.22724">
        <ele>168</ele>
        <time>2011-10-18T15:36:40Z</time>
      </trkpt>
      <trkpt lat="46.30625" lon="-0.22718">
        <ele>169</ele>
        <time>2011-10-18T15:36:45Z</time>
      </trkpt>
      <trkpt lat="46.30631" lon="-0.22713">
        <ele>170</ele>
        <time>2011-10-18T15:36:50Z</time>
      </trkpt>
      <trkpt lat="46.30636" lon="-0.22709">
        <ele>169</ele>
        <time>2011-10-18T15:36:55Z</time>
      </trkpt>
      <trkpt lat="46.30642" lon="-0.22704">
        <ele>168</ele>
        <time>2011-10-18T15:37:00Z</time>
      </trkpt>
      <trkpt lat="46.30647" lon="-0.227">
        <ele>168</ele>
        <time>2011-10-18T15:37:05Z</time>
      </trkpt>
      <trkpt lat="46.30652" lon="-0.22695">
        <ele>167</ele>
        <time>2011-10-18T15:37:10Z</time>
      </trkpt>
      <trkpt lat="46.30657" lon="-0.22688">
        <ele>167</ele>
        <time>2011-10-18T15:37:15Z</time>
      </trkpt>
      <trkpt lat="46.30662" lon="-0.22682">
        <ele>168</ele>
        <time>2011-10-18T15:37:20Z</time>
      </trkpt>
      <trkpt lat="46.30667" lon="-0.22676">
        <ele>171</ele>
        <time>2011-10-18T15:37:25Z</time>
      </trkpt>
      <trkpt lat="46.30672" lon="-0.22671">
        <ele>171</ele>
        <time>2011-10-18T15:37:30Z</time>
      </trkpt>
      <trkpt lat="46.30677" lon="-0.22666">
        <ele>171</ele>
        <time>2011-10-18T15:37:35Z</time>
      </trkpt>
      <trkpt lat="46.30682" lon="-0.22661">
        <ele>172</ele>
        <time>2011-10-18T15:37:40Z</time>
      </trkpt>
      <trkpt lat="46.30686" lon="-0.22657">
        <ele>173</ele>
        <time>2011-10-18T15:37:45Z</time>
      </trkpt>
      <trkpt lat="46.30691" lon="-0.22654">
        <ele>171</ele>
        <time>2011-10-18T15:37:50Z</time>
      </trkpt>
      <trkpt lat="46.30695" lon="-0.22652">
        <ele>172</ele>
        <time>2011-10-18T15:37:55Z</time>
      </trkpt>
      <trkpt lat="46.30699" lon="-0.22647">
        <ele>173</ele>
        <time>2011-10-18T15:38:00Z</time>
      </trkpt>
      <trkpt lat="46.30705" lon="-0.22642">
        <ele>174</ele>
        <time>2011-10-18T15:38:05Z</time>
      </trkpt>
      <trkpt lat="46.3071" lon="-0.22637">
        <ele>175</ele>
        <time>2011-10-18T15:38:10Z</time>
      </trkpt>
      <trkpt lat="46.30716" lon="-0.22632">
        <ele>174</ele>
        <time>2011-10-18T15:38:15Z</time>
      </trkpt>
      <trkpt lat="46.3072" lon="-0.22627">
        <ele>174</ele>
        <time>2011-10-18T15:38:20Z</time>
      </trkpt>
      <trkpt lat="46.30724" lon="-0.22623">
        <ele>173</ele>
        <time>2011-10-18T15:38:25Z</time>
      </trkpt>
      <trkpt lat="46.30729" lon="-0.22619">
        <ele>171</ele>
        <time>2011-10-18T15:38:30Z</time>
      </trkpt>
      <trkpt lat="46.30734" lon="-0.22616">
        <ele>170</ele>
        <time>2011-10-18T15:38:35Z</time>
      </trkpt>
      <trkpt lat="46.3074" lon="-0.22614">
        <ele>167</ele>
        <time>2011-10-18T15:38:40Z</time>
      </trkpt>
      <trkpt lat="46.30744" lon="-0.22611">
        <ele>168</ele>
        <time>2011-10-18T15:38:45Z</time>
      </trkpt>
      <trkpt lat="46.30748" lon="-0.22607">
        <ele>170</ele>
        <time>2011-10-18T15:38:50Z</time>
      </trkpt>
      <trkpt lat="46.30751" lon="-0.22605">
        <ele>168</ele>
        <time>2011-10-18T15:38:55Z</time>
      </trkpt>
      <trkpt lat="46.30758" lon="-0.22599">
        <ele>168</ele>
        <time>2011-10-18T15:39:00Z</time>
      </trkpt>
      <trkpt lat="46.30761" lon="-0.22593">
        <ele>168</ele>
        <time>2011-10-18T15:39:05Z</time>
      </trkpt>
      <trkpt lat="46.30765" lon="-0.2259">
        <ele>166</ele>
        <time>2011-10-18T15:39:10Z</time>
      </trkpt>
      <trkpt lat="46.30768" lon="-0.22587">
        <ele>167</ele>
        <time>2011-10-18T15:39:15Z</time>
      </trkpt>
      <trkpt lat="46.30775" lon="-0.22584">
        <ele>169</ele>
        <time>2011-10-18T15:39:20Z</time>
      </trkpt>
      <trkpt lat="46.3078" lon="-0.22582">
        <ele>171</ele>
        <time>2011-10-18T15:39:25Z</time>
      </trkpt>
      <trkpt lat="46.30781" lon="-0.22579">
        <ele>171</ele>
        <time>2011-10-18T15:39:30Z</time>
      </trkpt>
      <trkpt lat="46.30781" lon="-0.22578">
        <ele>171</ele>
        <time>2011-10-18T15:39:35Z</time>
      </trkpt>
      <trkpt lat="46.30779" lon="-0.22576">
        <ele>171</ele>
        <time>2011-10-18T15:40:00Z</time>
      </trkpt>
      <trkpt lat="46.30779" lon="-0.22576">
        <ele>172</ele>
        <time>2011-10-18T15:40:05Z</time>
      </trkpt>
      <trkpt lat="46.30778" lon="-0.22575">
        <ele>172</ele>
        <time>2011-10-18T15:40:10Z</time>
      </trkpt>
      <trkpt lat="46.30778" lon="-0.22576">
        <ele>173</ele>
        <time>2011-10-18T15:41:10Z</time>
      </trkpt>
      <trkpt lat="46.30777" lon="-0.22575">
        <ele>173</ele>
        <time>2011-10-18T15:41:15Z</time>
      </trkpt>
      <trkpt lat="46.30778" lon="-0.22574">
        <ele>175</ele>
        <time>2011-10-18T15:41:20Z</time>
      </trkpt>
      <trkpt lat="46.30779" lon="-0.22573">
        <ele>175</ele>
        <time>2011-10-18T15:41:25Z</time>
      </trkpt>
      <trkpt lat="46.30779" lon="-0.22574">
        <ele>175</ele>
        <time>2011-10-18T15:41:30Z</time>
      </trkpt>
      <trkpt lat="46.30778" lon="-0.22576">
        <ele>174</ele>
        <time>2011-10-18T15:41:40Z</time>
      </trkpt>
      <trkpt lat="46.30778" lon="-0.22576">
        <ele>174</ele>
        <time>2011-10-18T15:41:45Z</time>
      </trkpt>
      <trkpt lat="46.30779" lon="-0.22576">
        <ele>174</ele>
        <time>2011-10-18T15:41:55Z</time>
      </trkpt>
      <trkpt lat="46.3078" lon="-0.22575">
        <ele>175</ele>
        <time>2011-10-18T15:42:00Z</time>
      </trkpt>
      <trkpt lat="46.30783" lon="-0.22569">
        <ele>175</ele>
        <time>2011-10-18T15:42:05Z</time>
      </trkpt>
      <trkpt lat="46.30787" lon="-0.22565">
        <ele>176</ele>
        <time>2011-10-18T15:42:10Z</time>
      </trkpt>
      <trkpt lat="46.30791" lon="-0.22561">
        <ele>174</ele>
        <time>2011-10-18T15:42:15Z</time>
      </trkpt>
      <trkpt lat="46.30796" lon="-0.22559">
        <ele>172</ele>
        <time>2011-10-18T15:42:20Z</time>
      </trkpt>
      <trkpt lat="46.308" lon="-0.22554">
        <ele>173</ele>
        <time>2011-10-18T15:42:25Z</time>
      </trkpt>
      <trkpt lat="46.30804" lon="-0.2255">
        <ele>175</ele>
        <time>2011-10-18T15:42:30Z</time>
      </trkpt>
      <trkpt lat="46.3081" lon="-0.22546">
        <ele>177</ele>
        <time>2011-10-18T15:42:35Z</time>
      </trkpt>
      <trkpt lat="46.30812" lon="-0.2254">
        <ele>181</ele>
        <time>2011-10-18T15:42:40Z</time>
      </trkpt>
      <trkpt lat="46.30816" lon="-0.22536">
        <ele>181</ele>
        <time>2011-10-18T15:42:45Z</time>
      </trkpt>
      <trkpt lat="46.3082" lon="-0.22531">
        <ele>181</ele>
        <time>2011-10-18T15:42:50Z</time>
      </trkpt>
      <trkpt lat="46.30825" lon="-0.22528">
        <ele>180</ele>
        <time>2011-10-18T15:42:55Z</time>
      </trkpt>
      <trkpt lat="46.30829" lon="-0.22526">
        <ele>180</ele>
        <time>2011-10-18T15:43:00Z</time>
      </trkpt>
      <trkpt lat="46.30833" lon="-0.22522">
        <ele>180</ele>
        <time>2011-10-18T15:43:05Z</time>
      </trkpt>
      <trkpt lat="46.30838" lon="-0.22518">
        <ele>182</ele>
        <time>2011-10-18T15:43:10Z</time>
      </trkpt>
      <trkpt lat="46.3084" lon="-0.22512">
        <ele>182</ele>
        <time>2011-10-18T15:43:15Z</time>
      </trkpt>
      <trkpt lat="46.30845" lon="-0.22509">
        <ele>182</ele>
        <time>2011-10-18T15:43:20Z</time>
      </trkpt>
      <trkpt lat="46.30849" lon="-0.22506">
        <ele>182</ele>
        <time>2011-10-18T15:43:25Z</time>
      </trkpt>
      <trkpt lat="46.30853" lon="-0.22502">
        <ele>182</ele>
        <time>2011-10-18T15:43:30Z</time>
      </trkpt>
      <trkpt lat="46.30855" lon="-0.22498">
        <ele>183</ele>
        <time>2011-10-18T15:43:35Z</time>
      </trkpt>
      <trkpt lat="46.30856" lon="-0.22495">
        <ele>183</ele>
        <time>2011-10-18T15:43:40Z</time>
      </trkpt>
      <trkpt lat="46.30861" lon="-0.22495">
        <ele>183</ele>
        <time>2011-10-18T15:43:45Z</time>
      </trkpt>
      <trkpt lat="46.3086" lon="-0.22496">
        <ele>182</ele>
        <time>2011-10-18T15:43:55Z</time>
      </trkpt>
      <trkpt lat="46.30861" lon="-0.22496">
        <ele>181</ele>
        <time>2011-10-18T15:44:00Z</time>
      </trkpt>
      <trkpt lat="46.30861" lon="-0.22495">
        <ele>181</ele>
        <time>2011-10-18T15:44:05Z</time>
      </trkpt>
      <trkpt lat="46.30861" lon="-0.22495">
        <ele>181</ele>
        <time>2011-10-18T15:44:10Z</time>
      </trkpt>
      <trkpt lat="46.30861" lon="-0.22495">
        <ele>181</ele>
        <time>2011-10-18T15:44:15Z</time>
      </trkpt>
      <trkpt lat="46.30861" lon="-0.22495">
        <ele>181</ele>
        <time>2011-10-18T15:44:20Z</time>
      </trkpt>
      <trkpt lat="46.30862" lon="-0.22501">
        <ele>182</ele>
        <time>2011-10-18T15:44:25Z</time>
      </trkpt>
      <trkpt lat="46.30862" lon="-0.22502">
        <ele>181</ele>
        <time>2011-10-18T15:44:30Z</time>
      </trkpt>
      <trkpt lat="46.30864" lon="-0.22503">
        <ele>183</ele>
        <time>2011-10-18T15:44:45Z</time>
      </trkpt>
      <trkpt lat="46.30865" lon="-0.22514">
        <ele>186</ele>
        <time>2011-10-18T15:44:50Z</time>
      </trkpt>
      <trkpt lat="46.30865" lon="-0.22521">
        <ele>186</ele>
        <time>2011-10-18T15:44:55Z</time>
      </trkpt>
      <trkpt lat="46.30868" lon="-0.22527">
        <ele>184</ele>
        <time>2011-10-18T15:45:00Z</time>
      </trkpt>
      <trkpt lat="46.30867" lon="-0.22529">
        <ele>184</ele>
        <time>2011-10-18T15:45:05Z</time>
      </trkpt>
      <trkpt lat="46.30867" lon="-0.2253">
        <ele>185</ele>
        <time>2011-10-18T15:45:10Z</time>
      </trkpt>
      <trkpt lat="46.30867" lon="-0.22531">
        <ele>185</ele>
        <time>2011-10-18T15:45:15Z</time>
      </trkpt>
      <trkpt lat="46.30867" lon="-0.22531">
        <ele>185</ele>
        <time>2011-10-18T15:45:40Z</time>
      </trkpt>
      <trkpt lat="46.30867" lon="-0.22531">
        <ele>185</ele>
        <time>2011-10-18T15:45:45Z</time>
      </trkpt>
      <trkpt lat="46.30867" lon="-0.22537">
        <ele>186</ele>
        <time>2011-10-18T15:45:50Z</time>
      </trkpt>
      <trkpt lat="46.30869" lon="-0.22544">
        <ele>185</ele>
        <time>2011-10-18T15:45:55Z</time>
      </trkpt>
      <trkpt lat="46.30871" lon="-0.22553">
        <ele>183</ele>
        <time>2011-10-18T15:46:00Z</time>
      </trkpt>
      <trkpt lat="46.30872" lon="-0.22563">
        <ele>182</ele>
        <time>2011-10-18T15:46:05Z</time>
      </trkpt>
      <trkpt lat="46.30872" lon="-0.22571">
        <ele>181</ele>
        <time>2011-10-18T15:46:10Z</time>
      </trkpt>
      <trkpt lat="46.30874" lon="-0.22579">
        <ele>181</ele>
        <time>2011-10-18T15:46:15Z</time>
      </trkpt>
      <trkpt lat="46.30877" lon="-0.22586">
        <ele>184</ele>
        <time>2011-10-18T15:46:20Z</time>
      </trkpt>
      <trkpt lat="46.30877" lon="-0.22594">
        <ele>183</ele>
        <time>2011-10-18T15:46:25Z</time>
      </trkpt>
      <trkpt lat="46.30878" lon="-0.22602">
        <ele>183</ele>
        <time>2011-10-18T15:46:30Z</time>
      </trkpt>
      <trkpt lat="46.30881" lon="-0.2261">
        <ele>183</ele>
        <time>2011-10-18T15:46:35Z</time>
      </trkpt>
      <trkpt lat="46.30883" lon="-0.22619">
        <ele>183</ele>
        <time>2011-10-18T15:46:40Z</time>
      </trkpt>
      <trkpt lat="46.30886" lon="-0.22628">
        <ele>183</ele>
        <time>2011-10-18T15:46:45Z</time>
      </trkpt>
      <trkpt lat="46.30889" lon="-0.22635">
        <ele>183</ele>
        <time>2011-10-18T15:46:50Z</time>
      </trkpt>
      <trkpt lat="46.3089" lon="-0.22644">
        <ele>183</ele>
        <time>2011-10-18T15:46:55Z</time>
      </trkpt>
      <trkpt lat="46.30887" lon="-0.22651">
        <ele>177</ele>
        <time>2011-10-18T15:47:00Z</time>
      </trkpt>
      <trkpt lat="46.30888" lon="-0.22659">
        <ele>176</ele>
        <time>2011-10-18T15:47:05Z</time>
      </trkpt>
      <trkpt lat="46.30889" lon="-0.22667">
        <ele>174</ele>
        <time>2011-10-18T15:47:10Z</time>
      </trkpt>
      <trkpt lat="46.3089" lon="-0.22675">
        <ele>172</ele>
        <time>2011-10-18T15:47:15Z</time>
      </trkpt>
      <trkpt lat="46.30894" lon="-0.22686">
        <ele>175</ele>
        <time>2011-10-18T15:47:20Z</time>
      </trkpt>
      <trkpt lat="46.30899" lon="-0.22694">
        <ele>176</ele>
        <time>2011-10-18T15:47:25Z</time>
      </trkpt>
      <trkpt lat="46.309" lon="-0.22702">
        <ele>176</ele>
        <time>2011-10-18T15:47:30Z</time>
      </trkpt>
      <trkpt lat="46.30903" lon="-0.2271">
        <ele>177</ele>
        <time>2011-10-18T15:47:35Z</time>
      </trkpt>
      <trkpt lat="46.30908" lon="-0.22716">
        <ele>176</ele>
        <time>2011-10-18T15:47:40Z</time>
      </trkpt>
      <trkpt lat="46.30912" lon="-0.22723">
        <ele>177</ele>
        <time>2011-10-18T15:47:45Z</time>
      </trkpt>
      <trkpt lat="46.30912" lon="-0.22733">
        <ele>176</ele>
        <time>2011-10-18T15:47:50Z</time>
      </trkpt>
      <trkpt lat="46.30914" lon="-0.22741">
        <ele>175</ele>
        <time>2011-10-18T15:47:55Z</time>
      </trkpt>
      <trkpt lat="46.30918" lon="-0.22749">
        <ele>177</ele>
        <time>2011-10-18T15:48:00Z</time>
      </trkpt>
      <trkpt lat="46.30921" lon="-0.22754">
        <ele>176</ele>
        <time>2011-10-18T15:48:05Z</time>
      </trkpt>
      <trkpt lat="46.30925" lon="-0.22766">
        <ele>180</ele>
        <time>2011-10-18T15:48:10Z</time>
      </trkpt>
      <trkpt lat="46.30928" lon="-0.22772">
        <ele>181</ele>
        <time>2011-10-18T15:48:15Z</time>
      </trkpt>
      <trkpt lat="46.3093" lon="-0.2278">
        <ele>180</ele>
        <time>2011-10-18T15:48:20Z</time>
      </trkpt>
      <trkpt lat="46.30933" lon="-0.22788">
        <ele>180</ele>
        <time>2011-10-18T15:48:25Z</time>
      </trkpt>
      <trkpt lat="46.30935" lon="-0.22794">
        <ele>179</ele>
        <time>2011-10-18T15:48:30Z</time>
      </trkpt>
      <trkpt lat="46.30938" lon="-0.22801">
        <ele>178</ele>
        <time>2011-10-18T15:48:35Z</time>
      </trkpt>
      <trkpt lat="46.30939" lon="-0.22808">
        <ele>178</ele>
        <time>2011-10-18T15:48:40Z</time>
      </trkpt>
      <trkpt lat="46.30941" lon="-0.22818">
        <ele>176</ele>
        <time>2011-10-18T15:48:45Z</time>
      </trkpt>
      <trkpt lat="46.30943" lon="-0.22825">
        <ele>177</ele>
        <time>2011-10-18T15:48:50Z</time>
      </trkpt>
      <trkpt lat="46.30944" lon="-0.22833">
        <ele>178</ele>
        <time>2011-10-18T15:48:55Z</time>
      </trkpt>
      <trkpt lat="46.30946" lon="-0.22837">
        <ele>179</ele>
        <time>2011-10-18T15:49:00Z</time>
      </trkpt>
      <trkpt lat="46.30943" lon="-0.22843">
        <ele>179</ele>
        <time>2011-10-18T15:49:05Z</time>
      </trkpt>
      <trkpt lat="46.3094" lon="-0.2285">
        <ele>181</ele>
        <time>2011-10-18T15:49:10Z</time>
      </trkpt>
      <trkpt lat="46.30936" lon="-0.22854">
        <ele>182</ele>
        <time>2011-10-18T15:49:15Z</time>
      </trkpt>
      <trkpt lat="46.30931" lon="-0.2286">
        <ele>181</ele>
        <time>2011-10-18T15:49:20Z</time>
      </trkpt>
      <trkpt lat="46.30928" lon="-0.22868">
        <ele>180</ele>
        <time>2011-10-18T15:49:25Z</time>
      </trkpt>
      <trkpt lat="46.30924" lon="-0.22878">
        <ele>176</ele>
        <time>2011-10-18T15:49:30Z</time>
      </trkpt>
      <trkpt lat="46.3092" lon="-0.22886">
        <ele>175</ele>
        <time>2011-10-18T15:49:35Z</time>
      </trkpt>
      <trkpt lat="46.30919" lon="-0.22894">
        <ele>174</ele>
        <time>2011-10-18T15:49:40Z</time>
      </trkpt>
      <trkpt lat="46.30923" lon="-0.22901">
        <ele>175</ele>
        <time>2011-10-18T15:49:45Z</time>
      </trkpt>
      <trkpt lat="46.30926" lon="-0.22911">
        <ele>174</ele>
        <time>2011-10-18T15:49:50Z</time>
      </trkpt>
      <trkpt lat="46.30931" lon="-0.22918">
        <ele>173</ele>
        <time>2011-10-18T15:49:55Z</time>
      </trkpt>
      <trkpt lat="46.30934" lon="-0.22926">
        <ele>172</ele>
        <time>2011-10-18T15:50:00Z</time>
      </trkpt>
      <trkpt lat="46.30937" lon="-0.22932">
        <ele>169</ele>
        <time>2011-10-18T15:50:05Z</time>
      </trkpt>
      <trkpt lat="46.30942" lon="-0.22937">
        <ele>168</ele>
        <time>2011-10-18T15:50:10Z</time>
      </trkpt>
      <trkpt lat="46.30945" lon="-0.22942">
        <ele>166</ele>
        <time>2011-10-18T15:50:15Z</time>
      </trkpt>
      <trkpt lat="46.3095" lon="-0.22948">
        <ele>166</ele>
        <time>2011-10-18T15:50:20Z</time>
      </trkpt>
      <trkpt lat="46.30955" lon="-0.22954">
        <ele>166</ele>
        <time>2011-10-18T15:50:25Z</time>
      </trkpt>
      <trkpt lat="46.30957" lon="-0.22961">
        <ele>166</ele>
        <time>2011-10-18T15:50:30Z</time>
      </trkpt>
      <trkpt lat="46.30961" lon="-0.22968">
        <ele>168</ele>
        <time>2011-10-18T15:50:35Z</time>
      </trkpt>
      <trkpt lat="46.30963" lon="-0.22975">
        <ele>168</ele>
        <time>2011-10-18T15:50:40Z</time>
      </trkpt>
      <trkpt lat="46.30964" lon="-0.22975">
        <ele>169</ele>
        <time>2011-10-18T15:50:45Z</time>
      </trkpt>
      <trkpt lat="46.30966" lon="-0.2298">
        <ele>169</ele>
        <time>2011-10-18T15:50:50Z</time>
      </trkpt>
      <trkpt lat="46.3097" lon="-0.22987">
        <ele>169</ele>
        <time>2011-10-18T15:50:55Z</time>
      </trkpt>
      <trkpt lat="46.30972" lon="-0.2299">
        <ele>169</ele>
        <time>2011-10-18T15:51:00Z</time>
      </trkpt>
      <trkpt lat="46.30975" lon="-0.22995">
        <ele>168</ele>
        <time>2011-10-18T15:51:05Z</time>
      </trkpt>
      <trkpt lat="46.30979" lon="-0.22999">
        <ele>167</ele>
        <time>2011-10-18T15:51:10Z</time>
      </trkpt>
      <trkpt lat="46.30982" lon="-0.23003">
        <ele>167</ele>
        <time>2011-10-18T15:51:15Z</time>
      </trkpt>
      <trkpt lat="46.30987" lon="-0.23007">
        <ele>168</ele>
        <time>2011-10-18T15:51:20Z</time>
      </trkpt>
      <trkpt lat="46.30991" lon="-0.23013">
        <ele>169</ele>
        <time>2011-10-18T15:51:25Z</time>
      </trkpt>
      <trkpt lat="46.30996" lon="-0.23016">
        <ele>170</ele>
        <time>2011-10-18T15:51:30Z</time>
      </trkpt>
      <trkpt lat="46.31001" lon="-0.2302">
        <ele>169</ele>
        <time>2011-10-18T15:51:35Z</time>
      </trkpt>
      <trkpt lat="46.31004" lon="-0.23026">
        <ele>169</ele>
        <time>2011-10-18T15:51:40Z</time>
      </trkpt>
      <trkpt lat="46.3101" lon="-0.23029">
        <ele>167</ele>
        <time>2011-10-18T15:51:45Z</time>
      </trkpt>
      <trkpt lat="46.31017" lon="-0.23033">
        <ele>168</ele>
        <time>2011-10-18T15:51:50Z</time>
      </trkpt>
      <trkpt lat="46.31022" lon="-0.23035">
        <ele>163</ele>
        <time>2011-10-18T15:51:55Z</time>
      </trkpt>
      <trkpt lat="46.31024" lon="-0.23039">
        <ele>163</ele>
        <time>2011-10-18T15:52:00Z</time>
      </trkpt>
      <trkpt lat="46.31028" lon="-0.23044">
        <ele>163</ele>
        <time>2011-10-18T15:52:05Z</time>
      </trkpt>
      <trkpt lat="46.31033" lon="-0.23045">
        <ele>163</ele>
        <time>2011-10-18T15:52:10Z</time>
      </trkpt>
      <trkpt lat="46.31038" lon="-0.23048">
        <ele>163</ele>
        <time>2011-10-18T15:52:15Z</time>
      </trkpt>
      <trkpt lat="46.31043" lon="-0.23052">
        <ele>163</ele>
        <time>2011-10-18T15:52:20Z</time>
      </trkpt>
      <trkpt lat="46.31047" lon="-0.23052">
        <ele>160</ele>
        <time>2011-10-18T15:52:25Z</time>
      </trkpt>
      <trkpt lat="46.31054" lon="-0.23056">
        <ele>163</ele>
        <time>2011-10-18T15:52:30Z</time>
      </trkpt>
      <trkpt lat="46.31059" lon="-0.2306">
        <ele>164</ele>
        <time>2011-10-18T15:52:35Z</time>
      </trkpt>
      <trkpt lat="46.31064" lon="-0.23063">
        <ele>166</ele>
        <time>2011-10-18T15:52:40Z</time>
      </trkpt>
      <trkpt lat="46.31069" lon="-0.23065">
        <ele>165</ele>
        <time>2011-10-18T15:52:45Z</time>
      </trkpt>
      <trkpt lat="46.31074" lon="-0.2307">
        <ele>165</ele>
        <time>2011-10-18T15:52:50Z</time>
      </trkpt>
      <trkpt lat="46.31077" lon="-0.23076">
        <ele>167</ele>
        <time>2011-10-18T15:52:55Z</time>
      </trkpt>
      <trkpt lat="46.31082" lon="-0.2308">
        <ele>167</ele>
        <time>2011-10-18T15:53:00Z</time>
      </trkpt>
      <trkpt lat="46.31085" lon="-0.23085">
        <ele>166</ele>
        <time>2011-10-18T15:53:05Z</time>
      </trkpt>
      <trkpt lat="46.31088" lon="-0.23092">
        <ele>167</ele>
        <time>2011-10-18T15:53:10Z</time>
      </trkpt>
      <trkpt lat="46.31091" lon="-0.23097">
        <ele>167</ele>
        <time>2011-10-18T15:53:15Z</time>
      </trkpt>
      <trkpt lat="46.31095" lon="-0.23104">
        <ele>168</ele>
        <time>2011-10-18T15:53:20Z</time>
      </trkpt>
      <trkpt lat="46.31099" lon="-0.2311">
        <ele>169</ele>
        <time>2011-10-18T15:53:25Z</time>
      </trkpt>
      <trkpt lat="46.31102" lon="-0.23115">
        <ele>170</ele>
        <time>2011-10-18T15:53:30Z</time>
      </trkpt>
      <trkpt lat="46.31104" lon="-0.23119">
        <ele>170</ele>
        <time>2011-10-18T15:53:35Z</time>
      </trkpt>
      <trkpt lat="46.31103" lon="-0.23123">
        <ele>169</ele>
        <time>2011-10-18T15:53:40Z</time>
      </trkpt>
      <trkpt lat="46.31103" lon="-0.23123">
        <ele>169</ele>
        <time>2011-10-18T15:53:55Z</time>
      </trkpt>
      <trkpt lat="46.31103" lon="-0.23123">
        <ele>168</ele>
        <time>2011-10-18T15:54:10Z</time>
      </trkpt>
      <trkpt lat="46.31105" lon="-0.23123">
        <ele>168</ele>
        <time>2011-10-18T15:54:15Z</time>
      </trkpt>
      <trkpt lat="46.31107" lon="-0.23121">
        <ele>168</ele>
        <time>2011-10-18T15:54:20Z</time>
      </trkpt>
      <trkpt lat="46.31113" lon="-0.23119">
        <ele>167</ele>
        <time>2011-10-18T15:54:25Z</time>
      </trkpt>
      <trkpt lat="46.31118" lon="-0.23117">
        <ele>168</ele>
        <time>2011-10-18T15:54:30Z</time>
      </trkpt>
      <trkpt lat="46.31122" lon="-0.23113">
        <ele>167</ele>
        <time>2011-10-18T15:54:35Z</time>
      </trkpt>
      <trkpt lat="46.31127" lon="-0.23109">
        <ele>167</ele>
        <time>2011-10-18T15:54:40Z</time>
      </trkpt>
      <trkpt lat="46.31131" lon="-0.23106">
        <ele>169</ele>
        <time>2011-10-18T15:54:45Z</time>
      </trkpt>
      <trkpt lat="46.31134" lon="-0.23102">
        <ele>171</ele>
        <time>2011-10-18T15:54:50Z</time>
      </trkpt>
      <trkpt lat="46.31138" lon="-0.23098">
        <ele>171</ele>
        <time>2011-10-18T15:54:55Z</time>
      </trkpt>
      <trkpt lat="46.31142" lon="-0.23093">
        <ele>171</ele>
        <time>2011-10-18T15:55:00Z</time>
      </trkpt>
      <trkpt lat="46.31146" lon="-0.23087">
        <ele>171</ele>
        <time>2011-10-18T15:55:05Z</time>
      </trkpt>
      <trkpt lat="46.31151" lon="-0.2308">
        <ele>170</ele>
        <time>2011-10-18T15:55:10Z</time>
      </trkpt>
      <trkpt lat="46.31155" lon="-0.23072">
        <ele>169</ele>
        <time>2011-10-18T15:55:15Z</time>
      </trkpt>
      <trkpt lat="46.31155" lon="-0.23066">
        <ele>165</ele>
        <time>2011-10-18T15:55:20Z</time>
      </trkpt>
      <trkpt lat="46.31155" lon="-0.2306">
        <ele>163</ele>
        <time>2011-10-18T15:55:25Z</time>
      </trkpt>
      <trkpt lat="46.31161" lon="-0.23052">
        <ele>165</ele>
        <time>2011-10-18T15:55:30Z</time>
      </trkpt>
      <trkpt lat="46.31165" lon="-0.23047">
        <ele>166</ele>
        <time>2011-10-18T15:55:35Z</time>
      </trkpt>
      <trkpt lat="46.31169" lon="-0.2304">
        <ele>166</ele>
        <time>2011-10-18T15:55:40Z</time>
      </trkpt>
      <trkpt lat="46.31175" lon="-0.23033">
        <ele>166</ele>
        <time>2011-10-18T15:55:45Z</time>
      </trkpt>
      <trkpt lat="46.3118" lon="-0.23025">
        <ele>167</ele>
        <time>2011-10-18T15:55:50Z</time>
      </trkpt>
      <trkpt lat="46.31181" lon="-0.23018">
        <ele>166</ele>
        <time>2011-10-18T15:55:55Z</time>
      </trkpt>
      <trkpt lat="46.31184" lon="-0.23011">
        <ele>169</ele>
        <time>2011-10-18T15:56:00Z</time>
      </trkpt>
      <trkpt lat="46.3119" lon="-0.23004">
        <ele>172</ele>
        <time>2011-10-18T15:56:05Z</time>
      </trkpt>
      <trkpt lat="46.31192" lon="-0.22998">
        <ele>170</ele>
        <time>2011-10-18T15:56:10Z</time>
      </trkpt>
      <trkpt lat="46.31194" lon="-0.2299">
        <ele>171</ele>
        <time>2011-10-18T15:56:15Z</time>
      </trkpt>
      <trkpt lat="46.31196" lon="-0.22983">
        <ele>169</ele>
        <time>2011-10-18T15:56:20Z</time>
      </trkpt>
      <trkpt lat="46.31201" lon="-0.22976">
        <ele>171</ele>
        <time>2011-10-18T15:56:25Z</time>
      </trkpt>
      <trkpt lat="46.31204" lon="-0.22967">
        <ele>172</ele>
        <time>2011-10-18T15:56:30Z</time>
      </trkpt>
      <trkpt lat="46.31207" lon="-0.2296">
        <ele>171</ele>
        <time>2011-10-18T15:56:35Z</time>
      </trkpt>
      <trkpt lat="46.31212" lon="-0.22952">
        <ele>173</ele>
        <time>2011-10-18T15:56:40Z</time>
      </trkpt>
      <trkpt lat="46.31216" lon="-0.22944">
        <ele>173</ele>
        <time>2011-10-18T15:56:45Z</time>
      </trkpt>
      <trkpt lat="46.3122" lon="-0.22937">
        <ele>176</ele>
        <time>2011-10-18T15:56:50Z</time>
      </trkpt>
      <trkpt lat="46.31222" lon="-0.22928">
        <ele>177</ele>
        <time>2011-10-18T15:56:55Z</time>
      </trkpt>
      <trkpt lat="46.31223" lon="-0.22919">
        <ele>175</ele>
        <time>2011-10-18T15:57:00Z</time>
      </trkpt>
      <trkpt lat="46.31225" lon="-0.2291">
        <ele>173</ele>
        <time>2011-10-18T15:57:05Z</time>
      </trkpt>
      <trkpt lat="46.31227" lon="-0.22902">
        <ele>174</ele>
        <time>2011-10-18T15:57:10Z</time>
      </trkpt>
      <trkpt lat="46.31229" lon="-0.22894">
        <ele>175</ele>
        <time>2011-10-18T15:57:15Z</time>
      </trkpt>
      <trkpt lat="46.3123" lon="-0.22887">
        <ele>173</ele>
        <time>2011-10-18T15:57:20Z</time>
      </trkpt>
      <trkpt lat="46.31232" lon="-0.22879">
        <ele>175</ele>
        <time>2011-10-18T15:57:25Z</time>
      </trkpt>
      <trkpt lat="46.31235" lon="-0.2287">
        <ele>175</ele>
        <time>2011-10-18T15:57:30Z</time>
      </trkpt>
      <trkpt lat="46.31236" lon="-0.22863">
        <ele>175</ele>
        <time>2011-10-18T15:57:35Z</time>
      </trkpt>
      <trkpt lat="46.31238" lon="-0.22856">
        <ele>175</ele>
        <time>2011-10-18T15:57:40Z</time>
      </trkpt>
      <trkpt lat="46.31242" lon="-0.22849">
        <ele>176</ele>
        <time>2011-10-18T15:57:45Z</time>
      </trkpt>
      <trkpt lat="46.31245" lon="-0.22841">
        <ele>178</ele>
        <time>2011-10-18T15:57:50Z</time>
      </trkpt>
      <trkpt lat="46.31249" lon="-0.22833">
        <ele>179</ele>
        <time>2011-10-18T15:57:55Z</time>
      </trkpt>
      <trkpt lat="46.3125" lon="-0.22829">
        <ele>179</ele>
        <time>2011-10-18T15:58:00Z</time>
      </trkpt>
      <trkpt lat="46.31252" lon="-0.22822">
        <ele>176</ele>
        <time>2011-10-18T15:58:05Z</time>
      </trkpt>
      <trkpt lat="46.31256" lon="-0.22814">
        <ele>178</ele>
        <time>2011-10-18T15:58:10Z</time>
      </trkpt>
      <trkpt lat="46.31259" lon="-0.22807">
        <ele>178</ele>
        <time>2011-10-18T15:58:15Z</time>
      </trkpt>
      <trkpt lat="46.31265" lon="-0.22801">
        <ele>178</ele>
        <time>2011-10-18T15:58:20Z</time>
      </trkpt>
      <trkpt lat="46.31267" lon="-0.22794">
        <ele>176</ele>
        <time>2011-10-18T15:58:25Z</time>
      </trkpt>
      <trkpt lat="46.31273" lon="-0.22788">
        <ele>179</ele>
        <time>2011-10-18T15:58:30Z</time>
      </trkpt>
      <trkpt lat="46.31275" lon="-0.22779">
        <ele>179</ele>
        <time>2011-10-18T15:58:35Z</time>
      </trkpt>
      <trkpt lat="46.31279" lon="-0.22771">
        <ele>180</ele>
        <time>2011-10-18T15:58:40Z</time>
      </trkpt>
      <trkpt lat="46.31281" lon="-0.22767">
        <ele>177</ele>
        <time>2011-10-18T15:58:45Z</time>
      </trkpt>
      <trkpt lat="46.31284" lon="-0.22759">
        <ele>176</ele>
        <time>2011-10-18T15:58:50Z</time>
      </trkpt>
      <trkpt lat="46.31288" lon="-0.2275">
        <ele>180</ele>
        <time>2011-10-18T15:58:55Z</time>
      </trkpt>
      <trkpt lat="46.31289" lon="-0.22744">
        <ele>179</ele>
        <time>2011-10-18T15:59:00Z</time>
      </trkpt>
      <trkpt lat="46.31293" lon="-0.22734">
        <ele>180</ele>
        <time>2011-10-18T15:59:05Z</time>
      </trkpt>
      <trkpt lat="46.31291" lon="-0.22727">
        <ele>177</ele>
        <time>2011-10-18T15:59:10Z</time>
      </trkpt>
      <trkpt lat="46.31297" lon="-0.2272">
        <ele>179</ele>
        <time>2011-10-18T15:59:15Z</time>
      </trkpt>
      <trkpt lat="46.31299" lon="-0.22713">
        <ele>179</ele>
        <time>2011-10-18T15:59:20Z</time>
      </trkpt>
      <trkpt lat="46.31303" lon="-0.22705">
        <ele>179</ele>
        <time>2011-10-18T15:59:25Z</time>
      </trkpt>
      <trkpt lat="46.31306" lon="-0.22698">
        <ele>183</ele>
        <time>2011-10-18T15:59:30Z</time>
      </trkpt>
      <trkpt lat="46.31311" lon="-0.2269">
        <ele>184</ele>
        <time>2011-10-18T15:59:35Z</time>
      </trkpt>
      <trkpt lat="46.31315" lon="-0.22683">
        <ele>186</ele>
        <time>2011-10-18T15:59:40Z</time>
      </trkpt>
      <trkpt lat="46.31317" lon="-0.22676">
        <ele>185</ele>
        <time>2011-10-18T15:59:45Z</time>
      </trkpt>
      <trkpt lat="46.31319" lon="-0.22669">
        <ele>184</ele>
        <time>2011-10-18T15:59:50Z</time>
      </trkpt>
      <trkpt lat="46.3132" lon="-0.22662">
        <ele>184</ele>
        <time>2011-10-18T15:59:55Z</time>
      </trkpt>
      <trkpt lat="46.31323" lon="-0.22654">
        <ele>184</ele>
        <time>2011-10-18T16:00:00Z</time>
      </trkpt>
      <trkpt lat="46.31327" lon="-0.22646">
        <ele>182</ele>
        <time>2011-10-18T16:00:05Z</time>
      </trkpt>
      <trkpt lat="46.3133" lon="-0.22639">
        <ele>182</ele>
        <time>2011-10-18T16:00:10Z</time>
      </trkpt>
      <trkpt lat="46.31332" lon="-0.22631">
        <ele>181</ele>
        <time>2011-10-18T16:00:15Z</time>
      </trkpt>
      <trkpt lat="46.31332" lon="-0.22623">
        <ele>181</ele>
        <time>2011-10-18T16:00:20Z</time>
      </trkpt>
      <trkpt lat="46.31332" lon="-0.22616">
        <ele>182</ele>
        <time>2011-10-18T16:00:25Z</time>
      </trkpt>
      <trkpt lat="46.31332" lon="-0.22615">
        <ele>181</ele>
        <time>2011-10-18T16:00:30Z</time>
      </trkpt>
      <trkpt lat="46.31332" lon="-0.22615">
        <ele>181</ele>
        <time>2011-10-18T16:00:35Z</time>
      </trkpt>
      <trkpt lat="46.31333" lon="-0.22613">
        <ele>180</ele>
        <time>2011-10-18T16:00:40Z</time>
      </trkpt>
      <trkpt lat="46.31332" lon="-0.22611">
        <ele>180</ele>
        <time>2011-10-18T16:00:45Z</time>
      </trkpt>
      <trkpt lat="46.31332" lon="-0.22607">
        <ele>180</ele>
        <time>2011-10-18T16:00:50Z</time>
      </trkpt>
      <trkpt lat="46.31334" lon="-0.226">
        <ele>181</ele>
        <time>2011-10-18T16:00:55Z</time>
      </trkpt>
      <trkpt lat="46.31338" lon="-0.22593">
        <ele>183</ele>
        <time>2011-10-18T16:01:00Z</time>
      </trkpt>
      <trkpt lat="46.31339" lon="-0.22586">
        <ele>184</ele>
        <time>2011-10-18T16:01:05Z</time>
      </trkpt>
      <trkpt lat="46.3134" lon="-0.22578">
        <ele>185</ele>
        <time>2011-10-18T16:01:10Z</time>
      </trkpt>
      <trkpt lat="46.31344" lon="-0.2257">
        <ele>183</ele>
        <time>2011-10-18T16:01:15Z</time>
      </trkpt>
      <trkpt lat="46.31346" lon="-0.22563">
        <ele>183</ele>
        <time>2011-10-18T16:01:20Z</time>
      </trkpt>
      <trkpt lat="46.31349" lon="-0.22555">
        <ele>183</ele>
        <time>2011-10-18T16:01:25Z</time>
      </trkpt>
      <trkpt lat="46.31353" lon="-0.22548">
        <ele>183</ele>
        <time>2011-10-18T16:01:30Z</time>
      </trkpt>
      <trkpt lat="46.31359" lon="-0.22542">
        <ele>185</ele>
        <time>2011-10-18T16:01:35Z</time>
      </trkpt>
      <trkpt lat="46.31361" lon="-0.22535">
        <ele>185</ele>
        <time>2011-10-18T16:01:40Z</time>
      </trkpt>
      <trkpt lat="46.31363" lon="-0.22527">
        <ele>183</ele>
        <time>2011-10-18T16:01:45Z</time>
      </trkpt>
      <trkpt lat="46.31367" lon="-0.22519">
        <ele>185</ele>
        <time>2011-10-18T16:01:50Z</time>
      </trkpt>
      <trkpt lat="46.3137" lon="-0.22512">
        <ele>185</ele>
        <time>2011-10-18T16:01:55Z</time>
      </trkpt>
      <trkpt lat="46.31374" lon="-0.22505">
        <ele>183</ele>
        <time>2011-10-18T16:02:00Z</time>
      </trkpt>
      <trkpt lat="46.31376" lon="-0.22498">
        <ele>182</ele>
        <time>2011-10-18T16:02:05Z</time>
      </trkpt>
      <trkpt lat="46.31378" lon="-0.22491">
        <ele>182</ele>
        <time>2011-10-18T16:02:10Z</time>
      </trkpt>
      <trkpt lat="46.31382" lon="-0.22482">
        <ele>183</ele>
        <time>2011-10-18T16:02:15Z</time>
      </trkpt>
      <trkpt lat="46.31389" lon="-0.22475">
        <ele>185</ele>
        <time>2011-10-18T16:02:20Z</time>
      </trkpt>
      <trkpt lat="46.31391" lon="-0.22468">
        <ele>184</ele>
        <time>2011-10-18T16:02:25Z</time>
      </trkpt>
      <trkpt lat="46.31392" lon="-0.22463">
        <ele>184</ele>
        <time>2011-10-18T16:02:30Z</time>
      </trkpt>
      <trkpt lat="46.31394" lon="-0.22456">
        <ele>185</ele>
        <time>2011-10-18T16:02:35Z</time>
      </trkpt>
      <trkpt lat="46.31396" lon="-0.22448">
        <ele>185</ele>
        <time>2011-10-18T16:02:40Z</time>
      </trkpt>
      <trkpt lat="46.31401" lon="-0.2244">
        <ele>188</ele>
        <time>2011-10-18T16:02:45Z</time>
      </trkpt>
      <trkpt lat="46.31404" lon="-0.22432">
        <ele>188</ele>
        <time>2011-10-18T16:02:50Z</time>
      </trkpt>
      <trkpt lat="46.31406" lon="-0.22422">
        <ele>189</ele>
        <time>2011-10-18T16:02:55Z</time>
      </trkpt>
      <trkpt lat="46.31408" lon="-0.22413">
        <ele>188</ele>
        <time>2011-10-18T16:03:00Z</time>
      </trkpt>
      <trkpt lat="46.31408" lon="-0.22406">
        <ele>188</ele>
        <time>2011-10-18T16:03:05Z</time>
      </trkpt>
      <trkpt lat="46.31411" lon="-0.22399">
        <ele>189</ele>
        <time>2011-10-18T16:03:10Z</time>
      </trkpt>
      <trkpt lat="46.31412" lon="-0.22391">
        <ele>187</ele>
        <time>2011-10-18T16:03:15Z</time>
      </trkpt>
      <trkpt lat="46.31412" lon="-0.22382">
        <ele>184</ele>
        <time>2011-10-18T16:03:20Z</time>
      </trkpt>
      <trkpt lat="46.31415" lon="-0.22375">
        <ele>185</ele>
        <time>2011-10-18T16:03:25Z</time>
      </trkpt>
      <trkpt lat="46.31419" lon="-0.22367">
        <ele>184</ele>
        <time>2011-10-18T16:03:30Z</time>
      </trkpt>
      <trkpt lat="46.31421" lon="-0.2236">
        <ele>185</ele>
        <time>2011-10-18T16:03:35Z</time>
      </trkpt>
      <trkpt lat="46.31423" lon="-0.22353">
        <ele>186</ele>
        <time>2011-10-18T16:03:40Z</time>
      </trkpt>
      <trkpt lat="46.31426" lon="-0.22344">
        <ele>185</ele>
        <time>2011-10-18T16:03:45Z</time>
      </trkpt>
      <trkpt lat="46.31429" lon="-0.22337">
        <ele>186</ele>
        <time>2011-10-18T16:03:50Z</time>
      </trkpt>
      <trkpt lat="46.31432" lon="-0.22329">
        <ele>185</ele>
        <time>2011-10-18T16:03:55Z</time>
      </trkpt>
      <trkpt lat="46.31435" lon="-0.22322">
        <ele>186</ele>
        <time>2011-10-18T16:04:00Z</time>
      </trkpt>
      <trkpt lat="46.31438" lon="-0.22314">
        <ele>186</ele>
        <time>2011-10-18T16:04:05Z</time>
      </trkpt>
      <trkpt lat="46.31441" lon="-0.22305">
        <ele>185</ele>
        <time>2011-10-18T16:04:10Z</time>
      </trkpt>
      <trkpt lat="46.31444" lon="-0.22298">
        <ele>185</ele>
        <time>2011-10-18T16:04:15Z</time>
      </trkpt>
      <trkpt lat="46.31446" lon="-0.22291">
        <ele>185</ele>
        <time>2011-10-18T16:04:20Z</time>
      </trkpt>
      <trkpt lat="46.31449" lon="-0.22284">
        <ele>185</ele>
        <time>2011-10-18T16:04:25Z</time>
      </trkpt>
      <trkpt lat="46.31452" lon="-0.22277">
        <ele>183</ele>
        <time>2011-10-18T16:04:30Z</time>
      </trkpt>
      <trkpt lat="46.31455" lon="-0.22269">
        <ele>183</ele>
        <time>2011-10-18T16:04:35Z</time>
      </trkpt>
      <trkpt lat="46.31459" lon="-0.22262">
        <ele>184</ele>
        <time>2011-10-18T16:04:40Z</time>
      </trkpt>
      <trkpt lat="46.31459" lon="-0.22254">
        <ele>184</ele>
        <time>2011-10-18T16:04:45Z</time>
      </trkpt>
      <trkpt lat="46.31462" lon="-0.22245">
        <ele>184</ele>
        <time>2011-10-18T16:04:50Z</time>
      </trkpt>
      <trkpt lat="46.31466" lon="-0.22239">
        <ele>185</ele>
        <time>2011-10-18T16:04:55Z</time>
      </trkpt>
      <trkpt lat="46.31469" lon="-0.22232">
        <ele>184</ele>
        <time>2011-10-18T16:05:00Z</time>
      </trkpt>
      <trkpt lat="46.31472" lon="-0.22225">
        <ele>185</ele>
        <time>2011-10-18T16:05:05Z</time>
      </trkpt>
      <trkpt lat="46.31474" lon="-0.22217">
        <ele>184</ele>
        <time>2011-10-18T16:05:10Z</time>
      </trkpt>
      <trkpt lat="46.31478" lon="-0.22209">
        <ele>186</ele>
        <time>2011-10-18T16:05:15Z</time>
      </trkpt>
      <trkpt lat="46.3148" lon="-0.22202">
        <ele>185</ele>
        <time>2011-10-18T16:05:20Z</time>
      </trkpt>
      <trkpt lat="46.31481" lon="-0.22193">
        <ele>185</ele>
        <time>2011-10-18T16:05:25Z</time>
      </trkpt>
      <trkpt lat="46.31483" lon="-0.22185">
        <ele>185</ele>
        <time>2011-10-18T16:05:30Z</time>
      </trkpt>
      <trkpt lat="46.31484" lon="-0.22175">
        <ele>187</ele>
        <time>2011-10-18T16:05:35Z</time>
      </trkpt>
      <trkpt lat="46.31486" lon="-0.22167">
        <ele>186</ele>
        <time>2011-10-18T16:05:40Z</time>
      </trkpt>
      <trkpt lat="46.31487" lon="-0.22159">
        <ele>186</ele>
        <time>2011-10-18T16:05:45Z</time>
      </trkpt>
      <trkpt lat="46.31489" lon="-0.2215">
        <ele>187</ele>
        <time>2011-10-18T16:05:50Z</time>
      </trkpt>
      <trkpt lat="46.31492" lon="-0.22141">
        <ele>186</ele>
        <time>2011-10-18T16:05:55Z</time>
      </trkpt>
      <trkpt lat="46.31492" lon="-0.22133">
        <ele>186</ele>
        <time>2011-10-18T16:06:00Z</time>
      </trkpt>
      <trkpt lat="46.31492" lon="-0.22124">
        <ele>186</ele>
        <time>2011-10-18T16:06:05Z</time>
      </trkpt>
      <trkpt lat="46.31495" lon="-0.2212">
        <ele>187</ele>
        <time>2011-10-18T16:06:10Z</time>
      </trkpt>
      <trkpt lat="46.31495" lon="-0.22119">
        <ele>188</ele>
        <time>2011-10-18T16:06:15Z</time>
      </trkpt>
      <trkpt lat="46.31494" lon="-0.2212">
        <ele>188</ele>
        <time>2011-10-18T16:06:20Z</time>
      </trkpt>
      <trkpt lat="46.31497" lon="-0.22117">
        <ele>188</ele>
        <time>2011-10-18T16:06:25Z</time>
      </trkpt>
      <trkpt lat="46.31497" lon="-0.22118">
        <ele>188</ele>
        <time>2011-10-18T16:06:30Z</time>
      </trkpt>
      <trkpt lat="46.31496" lon="-0.22119">
        <ele>188</ele>
        <time>2011-10-18T16:06:35Z</time>
      </trkpt>
      <trkpt lat="46.31497" lon="-0.22117">
        <ele>188</ele>
        <time>2011-10-18T16:06:55Z</time>
      </trkpt>
      <trkpt lat="46.31496" lon="-0.22113">
        <ele>186</ele>
        <time>2011-10-18T16:07:00Z</time>
      </trkpt>
      <trkpt lat="46.31499" lon="-0.22108">
        <ele>186</ele>
        <time>2011-10-18T16:07:05Z</time>
      </trkpt>
      <trkpt lat="46.31501" lon="-0.221">
        <ele>186</ele>
        <time>2011-10-18T16:07:10Z</time>
      </trkpt>
      <trkpt lat="46.31499" lon="-0.22093">
        <ele>184</ele>
        <time>2011-10-18T16:07:15Z</time>
      </trkpt>
      <trkpt lat="46.31501" lon="-0.22086">
        <ele>185</ele>
        <time>2011-10-18T16:07:20Z</time>
      </trkpt>
      <trkpt lat="46.31503" lon="-0.22079">
        <ele>184</ele>
        <time>2011-10-18T16:07:25Z</time>
      </trkpt>
      <trkpt lat="46.31503" lon="-0.22071">
        <ele>184</ele>
        <time>2011-10-18T16:07:30Z</time>
      </trkpt>
      <trkpt lat="46.31504" lon="-0.22064">
        <ele>184</ele>
        <time>2011-10-18T16:07:35Z</time>
      </trkpt>
      <trkpt lat="46.31508" lon="-0.22056">
        <ele>185</ele>
        <time>2011-10-18T16:07:40Z</time>
      </trkpt>
      <trkpt lat="46.31511" lon="-0.22048">
        <ele>186</ele>
        <time>2011-10-18T16:07:45Z</time>
      </trkpt>
      <trkpt lat="46.31508" lon="-0.22043">
        <ele>189</ele>
        <time>2011-10-18T16:07:50Z</time>
      </trkpt>
      <trkpt lat="46.31513" lon="-0.22036">
        <ele>190</ele>
        <time>2011-10-18T16:07:55Z</time>
      </trkpt>
      <trkpt lat="46.31515" lon="-0.22028">
        <ele>190</ele>
        <time>2011-10-18T16:08:00Z</time>
      </trkpt>
      <trkpt lat="46.31515" lon="-0.22019">
        <ele>190</ele>
        <time>2011-10-18T16:08:05Z</time>
      </trkpt>
      <trkpt lat="46.31517" lon="-0.2201">
        <ele>190</ele>
        <time>2011-10-18T16:08:10Z</time>
      </trkpt>
      <trkpt lat="46.31516" lon="-0.22002">
        <ele>186</ele>
        <time>2011-10-18T16:08:15Z</time>
      </trkpt>
      <trkpt lat="46.31518" lon="-0.21997">
        <ele>189</ele>
        <time>2011-10-18T16:08:20Z</time>
      </trkpt>
      <trkpt lat="46.31519" lon="-0.21991">
        <ele>189</ele>
        <time>2011-10-18T16:08:25Z</time>
      </trkpt>
      <trkpt lat="46.31522" lon="-0.21985">
        <ele>190</ele>
        <time>2011-10-18T16:08:30Z</time>
      </trkpt>
      <trkpt lat="46.31523" lon="-0.21977">
        <ele>190</ele>
        <time>2011-10-18T16:08:35Z</time>
      </trkpt>
      <trkpt lat="46.31524" lon="-0.21971">
        <ele>191</ele>
        <time>2011-10-18T16:08:40Z</time>
      </trkpt>
      <trkpt lat="46.31525" lon="-0.21964">
        <ele>192</ele>
        <time>2011-10-18T16:08:45Z</time>
      </trkpt>
      <trkpt lat="46.31527" lon="-0.21957">
        <ele>192</ele>
        <time>2011-10-18T16:08:50Z</time>
      </trkpt>
      <trkpt lat="46.31529" lon="-0.2195">
        <ele>193</ele>
        <time>2011-10-18T16:08:55Z</time>
      </trkpt>
      <trkpt lat="46.3153" lon="-0.21943">
        <ele>193</ele>
        <time>2011-10-18T16:09:00Z</time>
      </trkpt>
      <trkpt lat="46.31533" lon="-0.21936">
        <ele>194</ele>
        <time>2011-10-18T16:09:05Z</time>
      </trkpt>
      <trkpt lat="46.31535" lon="-0.21928">
        <ele>193</ele>
        <time>2011-10-18T16:09:10Z</time>
      </trkpt>
      <trkpt lat="46.31539" lon="-0.21921">
        <ele>194</ele>
        <time>2011-10-18T16:09:15Z</time>
      </trkpt>
      <trkpt lat="46.31541" lon="-0.21915">
        <ele>193</ele>
        <time>2011-10-18T16:09:20Z</time>
      </trkpt>
      <trkpt lat="46.31547" lon="-0.21909">
        <ele>194</ele>
        <time>2011-10-18T16:09:25Z</time>
      </trkpt>
      <trkpt lat="46.31551" lon="-0.21902">
        <ele>195</ele>
        <time>2011-10-18T16:09:30Z</time>
      </trkpt>
      <trkpt lat="46.31557" lon="-0.21896">
        <ele>196</ele>
        <time>2011-10-18T16:09:35Z</time>
      </trkpt>
      <trkpt lat="46.3156" lon="-0.21888">
        <ele>196</ele>
        <time>2011-10-18T16:09:40Z</time>
      </trkpt>
      <trkpt lat="46.31562" lon="-0.21881">
        <ele>196</ele>
        <time>2011-10-18T16:09:45Z</time>
      </trkpt>
      <trkpt lat="46.31566" lon="-0.21874">
        <ele>196</ele>
        <time>2011-10-18T16:09:50Z</time>
      </trkpt>
      <trkpt lat="46.31568" lon="-0.21869">
        <ele>195</ele>
        <time>2011-10-18T16:09:55Z</time>
      </trkpt>
      <trkpt lat="46.31571" lon="-0.21862">
        <ele>195</ele>
        <time>2011-10-18T16:10:00Z</time>
      </trkpt>
      <trkpt lat="46.31574" lon="-0.21855">
        <ele>194</ele>
        <time>2011-10-18T16:10:05Z</time>
      </trkpt>
      <trkpt lat="46.31578" lon="-0.21849">
        <ele>195</ele>
        <time>2011-10-18T16:10:10Z</time>
      </trkpt>
      <trkpt lat="46.31582" lon="-0.21842">
        <ele>197</ele>
        <time>2011-10-18T16:10:15Z</time>
      </trkpt>
      <trkpt lat="46.31585" lon="-0.21836">
        <ele>196</ele>
        <time>2011-10-18T16:10:20Z</time>
      </trkpt>
      <trkpt lat="46.31589" lon="-0.21829">
        <ele>196</ele>
        <time>2011-10-18T16:10:25Z</time>
      </trkpt>
      <trkpt lat="46.31592" lon="-0.21824">
        <ele>195</ele>
        <time>2011-10-18T16:10:30Z</time>
      </trkpt>
      <trkpt lat="46.31596" lon="-0.21818">
        <ele>196</ele>
        <time>2011-10-18T16:10:35Z</time>
      </trkpt>
      <trkpt lat="46.31599" lon="-0.21811">
        <ele>195</ele>
        <time>2011-10-18T16:10:40Z</time>
      </trkpt>
      <trkpt lat="46.316" lon="-0.21806">
        <ele>195</ele>
        <time>2011-10-18T16:10:45Z</time>
      </trkpt>
      <trkpt lat="46.31606" lon="-0.21799">
        <ele>196</ele>
        <time>2011-10-18T16:10:50Z</time>
      </trkpt>
      <trkpt lat="46.31608" lon="-0.21792">
        <ele>196</ele>
        <time>2011-10-18T16:10:55Z</time>
      </trkpt>
      <trkpt lat="46.31613" lon="-0.21787">
        <ele>197</ele>
        <time>2011-10-18T16:11:00Z</time>
      </trkpt>
      <trkpt lat="46.31617" lon="-0.2178">
        <ele>196</ele>
        <time>2011-10-18T16:11:05Z</time>
      </trkpt>
      <trkpt lat="46.3162" lon="-0.21774">
        <ele>197</ele>
        <time>2011-10-18T16:11:10Z</time>
      </trkpt>
      <trkpt lat="46.31622" lon="-0.2177">
        <ele>198</ele>
        <time>2011-10-18T16:11:15Z</time>
      </trkpt>
      <trkpt lat="46.31623" lon="-0.21766">
        <ele>195</ele>
        <time>2011-10-18T16:11:20Z</time>
      </trkpt>
      <trkpt lat="46.31624" lon="-0.21767">
        <ele>195</ele>
        <time>2011-10-18T16:11:25Z</time>
      </trkpt>
      <trkpt lat="46.31624" lon="-0.21767">
        <ele>195</ele>
        <time>2011-10-18T16:11:30Z</time>
      </trkpt>
      <trkpt lat="46.31625" lon="-0.21766">
        <ele>194</ele>
        <time>2011-10-18T16:11:40Z</time>
      </trkpt>
      <trkpt lat="46.31625" lon="-0.21765">
        <ele>193</ele>
        <time>2011-10-18T16:11:45Z</time>
      </trkpt>
      <trkpt lat="46.31624" lon="-0.21764">
        <ele>193</ele>
        <time>2011-10-18T16:12:30Z</time>
      </trkpt>
      <trkpt lat="46.31625" lon="-0.21765">
        <ele>194</ele>
        <time>2011-10-18T16:12:35Z</time>
      </trkpt>
      <trkpt lat="46.31625" lon="-0.21764">
        <ele>194</ele>
        <time>2011-10-18T16:12:40Z</time>
      </trkpt>
      <trkpt lat="46.31624" lon="-0.21766">
        <ele>196</ele>
        <time>2011-10-18T16:12:45Z</time>
      </trkpt>
      <trkpt lat="46.31624" lon="-0.21766">
        <ele>197</ele>
        <time>2011-10-18T16:12:50Z</time>
      </trkpt>
      <trkpt lat="46.31625" lon="-0.21766">
        <ele>197</ele>
        <time>2011-10-18T16:12:55Z</time>
      </trkpt>
      <trkpt lat="46.31625" lon="-0.21766">
        <ele>197</ele>
        <time>2011-10-18T16:13:00Z</time>
      </trkpt>
      <trkpt lat="46.31625" lon="-0.21761">
        <ele>197</ele>
        <time>2011-10-18T16:13:05Z</time>
      </trkpt>
      <trkpt lat="46.31628" lon="-0.21754">
        <ele>196</ele>
        <time>2011-10-18T16:13:10Z</time>
      </trkpt>
      <trkpt lat="46.31629" lon="-0.21749">
        <ele>195</ele>
        <time>2011-10-18T16:13:15Z</time>
      </trkpt>
      <trkpt lat="46.31637" lon="-0.21746">
        <ele>198</ele>
        <time>2011-10-18T16:13:20Z</time>
      </trkpt>
      <trkpt lat="46.31638" lon="-0.21743">
        <ele>199</ele>
        <time>2011-10-18T16:13:25Z</time>
      </trkpt>
      <trkpt lat="46.31639" lon="-0.21737">
        <ele>197</ele>
        <time>2011-10-18T16:13:30Z</time>
      </trkpt>
      <trkpt lat="46.31641" lon="-0.2173">
        <ele>198</ele>
        <time>2011-10-18T16:13:35Z</time>
      </trkpt>
      <trkpt lat="46.31646" lon="-0.21724">
        <ele>202</ele>
        <time>2011-10-18T16:13:40Z</time>
      </trkpt>
      <trkpt lat="46.31648" lon="-0.21719">
        <ele>202</ele>
        <time>2011-10-18T16:13:45Z</time>
      </trkpt>
      <trkpt lat="46.31648" lon="-0.21714">
        <ele>198</ele>
        <time>2011-10-18T16:13:50Z</time>
      </trkpt>
      <trkpt lat="46.31651" lon="-0.21709">
        <ele>197</ele>
        <time>2011-10-18T16:13:55Z</time>
      </trkpt>
      <trkpt lat="46.31653" lon="-0.21704">
        <ele>197</ele>
        <time>2011-10-18T16:14:00Z</time>
      </trkpt>
      <trkpt lat="46.31657" lon="-0.21696">
        <ele>194</ele>
        <time>2011-10-18T16:14:05Z</time>
      </trkpt>
      <trkpt lat="46.31662" lon="-0.2169">
        <ele>195</ele>
        <time>2011-10-18T16:14:10Z</time>
      </trkpt>
      <trkpt lat="46.31665" lon="-0.21683">
        <ele>195</ele>
        <time>2011-10-18T16:14:15Z</time>
      </trkpt>
      <trkpt lat="46.31668" lon="-0.21675">
        <ele>194</ele>
        <time>2011-10-18T16:14:20Z</time>
      </trkpt>
      <trkpt lat="46.31671" lon="-0.2167">
        <ele>195</ele>
        <time>2011-10-18T16:14:25Z</time>
      </trkpt>
      <trkpt lat="46.31675" lon="-0.21663">
        <ele>197</ele>
        <time>2011-10-18T16:14:30Z</time>
      </trkpt>
      <trkpt lat="46.31678" lon="-0.21659">
        <ele>196</ele>
        <time>2011-10-18T16:14:35Z</time>
      </trkpt>
      <trkpt lat="46.31685" lon="-0.21652">
        <ele>198</ele>
        <time>2011-10-18T16:14:40Z</time>
      </trkpt>
      <trkpt lat="46.31689" lon="-0.21645">
        <ele>199</ele>
        <time>2011-10-18T16:14:45Z</time>
      </trkpt>
      <trkpt lat="46.31693" lon="-0.21642">
        <ele>200</ele>
        <time>2011-10-18T16:14:50Z</time>
      </trkpt>
      <trkpt lat="46.31691" lon="-0.21642">
        <ele>199</ele>
        <time>2011-10-18T16:14:55Z</time>
      </trkpt>
      <trkpt lat="46.31693" lon="-0.21643">
        <ele>199</ele>
        <time>2011-10-18T16:15:00Z</time>
      </trkpt>
      <trkpt lat="46.31694" lon="-0.21648">
        <ele>199</ele>
        <time>2011-10-18T16:15:05Z</time>
      </trkpt>
      <trkpt lat="46.31697" lon="-0.21655">
        <ele>198</ele>
        <time>2011-10-18T16:15:10Z</time>
      </trkpt>
      <trkpt lat="46.31701" lon="-0.21661">
        <ele>198</ele>
        <time>2011-10-18T16:15:15Z</time>
      </trkpt>
      <trkpt lat="46.31705" lon="-0.21668">
        <ele>198</ele>
        <time>2011-10-18T16:15:20Z</time>
      </trkpt>
      <trkpt lat="46.31706" lon="-0.21672">
        <ele>198</ele>
        <time>2011-10-18T16:15:25Z</time>
      </trkpt>
      <trkpt lat="46.31712" lon="-0.21675">
        <ele>200</ele>
        <time>2011-10-18T16:15:30Z</time>
      </trkpt>
      <trkpt lat="46.31716" lon="-0.21681">
        <ele>201</ele>
        <time>2011-10-18T16:15:35Z</time>
      </trkpt>
      <trkpt lat="46.31717" lon="-0.21686">
        <ele>201</ele>
        <time>2011-10-18T16:15:40Z</time>
      </trkpt>
      <trkpt lat="46.3172" lon="-0.21695">
        <ele>199</ele>
        <time>2011-10-18T16:15:45Z</time>
      </trkpt>
      <trkpt lat="46.31723" lon="-0.21703">
        <ele>198</ele>
        <time>2011-10-18T16:15:50Z</time>
      </trkpt>
      <trkpt lat="46.31728" lon="-0.21708">
        <ele>197</ele>
        <time>2011-10-18T16:15:55Z</time>
      </trkpt>
      <trkpt lat="46.31732" lon="-0.21715">
        <ele>198</ele>
        <time>2011-10-18T16:16:00Z</time>
      </trkpt>
      <trkpt lat="46.31738" lon="-0.21718">
        <ele>199</ele>
        <time>2011-10-18T16:16:05Z</time>
      </trkpt>
      <trkpt lat="46.31741" lon="-0.21719">
        <ele>199</ele>
        <time>2011-10-18T16:16:10Z</time>
      </trkpt>
      <trkpt lat="46.31746" lon="-0.21724">
        <ele>198</ele>
        <time>2011-10-18T16:16:15Z</time>
      </trkpt>
      <trkpt lat="46.3175" lon="-0.21728">
        <ele>196</ele>
        <time>2011-10-18T16:16:20Z</time>
      </trkpt>
      <trkpt lat="46.31754" lon="-0.21733">
        <ele>197</ele>
        <time>2011-10-18T16:16:25Z</time>
      </trkpt>
      <trkpt lat="46.3176" lon="-0.21735">
        <ele>195</ele>
        <time>2011-10-18T16:16:30Z</time>
      </trkpt>
      <trkpt lat="46.31764" lon="-0.21738">
        <ele>195</ele>
        <time>2011-10-18T16:16:35Z</time>
      </trkpt>
      <trkpt lat="46.31767" lon="-0.21739">
        <ele>196</ele>
        <time>2011-10-18T16:16:40Z</time>
      </trkpt>
      <trkpt lat="46.31772" lon="-0.2174">
        <ele>196</ele>
        <time>2011-10-18T16:16:45Z</time>
      </trkpt>
      <trkpt lat="46.31779" lon="-0.21745">
        <ele>197</ele>
        <time>2011-10-18T16:16:50Z</time>
      </trkpt>
      <trkpt lat="46.31784" lon="-0.21749">
        <ele>197</ele>
        <time>2011-10-18T16:16:55Z</time>
      </trkpt>
      <trkpt lat="46.31788" lon="-0.21752">
        <ele>195</ele>
        <time>2011-10-18T16:17:00Z</time>
      </trkpt>
      <trkpt lat="46.31794" lon="-0.21756">
        <ele>196</ele>
        <time>2011-10-18T16:17:05Z</time>
      </trkpt>
      <trkpt lat="46.31801" lon="-0.21758">
        <ele>197</ele>
        <time>2011-10-18T16:17:10Z</time>
      </trkpt>
      <trkpt lat="46.31805" lon="-0.21761">
        <ele>197</ele>
        <time>2011-10-18T16:17:15Z</time>
      </trkpt>
      <trkpt lat="46.31808" lon="-0.21763">
        <ele>199</ele>
        <time>2011-10-18T16:17:20Z</time>
      </trkpt>
      <trkpt lat="46.3181" lon="-0.21765">
        <ele>200</ele>
        <time>2011-10-18T16:17:25Z</time>
      </trkpt>
      <trkpt lat="46.31816" lon="-0.21766">
        <ele>200</ele>
        <time>2011-10-18T16:17:30Z</time>
      </trkpt>
      <trkpt lat="46.31823" lon="-0.21769">
        <ele>200</ele>
        <time>2011-10-18T16:17:35Z</time>
      </trkpt>
      <trkpt lat="46.3183" lon="-0.21772">
        <ele>199</ele>
        <time>2011-10-18T16:17:40Z</time>
      </trkpt>
      <trkpt lat="46.31833" lon="-0.21785">
        <ele>199</ele>
        <time>2011-10-18T16:17:45Z</time>
      </trkpt>
      <trkpt lat="46.31831" lon="-0.21795">
        <ele>198</ele>
        <time>2011-10-18T16:17:50Z</time>
      </trkpt>
      <trkpt lat="46.31831" lon="-0.21802">
        <ele>197</ele>
        <time>2011-10-18T16:17:55Z</time>
      </trkpt>
      <trkpt lat="46.31831" lon="-0.21809">
        <ele>195</ele>
        <time>2011-10-18T16:18:00Z</time>
      </trkpt>
      <trkpt lat="46.3183" lon="-0.21816">
        <ele>195</ele>
        <time>2011-10-18T16:18:05Z</time>
      </trkpt>
      <trkpt lat="46.31831" lon="-0.21822">
        <ele>193</ele>
        <time>2011-10-18T16:18:10Z</time>
      </trkpt>
      <trkpt lat="46.31831" lon="-0.21829">
        <ele>193</ele>
        <time>2011-10-18T16:18:15Z</time>
      </trkpt>
      <trkpt lat="46.31831" lon="-0.21837">
        <ele>191</ele>
        <time>2011-10-18T16:18:20Z</time>
      </trkpt>
      <trkpt lat="46.3183" lon="-0.21845">
        <ele>191</ele>
        <time>2011-10-18T16:18:25Z</time>
      </trkpt>
      <trkpt lat="46.31831" lon="-0.21853">
        <ele>191</ele>
        <time>2011-10-18T16:18:30Z</time>
      </trkpt>
      <trkpt lat="46.31832" lon="-0.21863">
        <ele>189</ele>
        <time>2011-10-18T16:18:35Z</time>
      </trkpt>
      <trkpt lat="46.31835" lon="-0.21872">
        <ele>191</ele>
        <time>2011-10-18T16:18:40Z</time>
      </trkpt>
      <trkpt lat="46.3184" lon="-0.21878">
        <ele>193</ele>
        <time>2011-10-18T16:18:45Z</time>
      </trkpt>
      <trkpt lat="46.31845" lon="-0.21884">
        <ele>194</ele>
        <time>2011-10-18T16:18:50Z</time>
      </trkpt>
      <trkpt lat="46.31848" lon="-0.2189">
        <ele>194</ele>
        <time>2011-10-18T16:18:55Z</time>
      </trkpt>
      <trkpt lat="46.31852" lon="-0.21894">
        <ele>192</ele>
        <time>2011-10-18T16:19:00Z</time>
      </trkpt>
      <trkpt lat="46.31856" lon="-0.21899">
        <ele>193</ele>
        <time>2011-10-18T16:19:05Z</time>
      </trkpt>
      <trkpt lat="46.31862" lon="-0.21903">
        <ele>192</ele>
        <time>2011-10-18T16:19:10Z</time>
      </trkpt>
      <trkpt lat="46.31867" lon="-0.21909">
        <ele>193</ele>
        <time>2011-10-18T16:19:15Z</time>
      </trkpt>
      <trkpt lat="46.31874" lon="-0.21916">
        <ele>195</ele>
        <time>2011-10-18T16:19:20Z</time>
      </trkpt>
      <trkpt lat="46.31877" lon="-0.2192">
        <ele>193</ele>
        <time>2011-10-18T16:19:25Z</time>
      </trkpt>
      <trkpt lat="46.31882" lon="-0.21925">
        <ele>193</ele>
        <time>2011-10-18T16:19:30Z</time>
      </trkpt>
      <trkpt lat="46.31885" lon="-0.21929">
        <ele>193</ele>
        <time>2011-10-18T16:19:35Z</time>
      </trkpt>
      <trkpt lat="46.31888" lon="-0.21936">
        <ele>192</ele>
        <time>2011-10-18T16:19:40Z</time>
      </trkpt>
      <trkpt lat="46.31891" lon="-0.21941">
        <ele>192</ele>
        <time>2011-10-18T16:19:45Z</time>
      </trkpt>
      <trkpt lat="46.3189" lon="-0.21941">
        <ele>191</ele>
        <time>2011-10-18T16:19:50Z</time>
      </trkpt>
      <trkpt lat="46.31894" lon="-0.2194">
        <ele>192</ele>
        <time>2011-10-18T16:19:55Z</time>
      </trkpt>
      <trkpt lat="46.319" lon="-0.21936">
        <ele>191</ele>
        <time>2011-10-18T16:20:00Z</time>
      </trkpt>
      <trkpt lat="46.31904" lon="-0.2193">
        <ele>190</ele>
        <time>2011-10-18T16:20:05Z</time>
      </trkpt>
      <trkpt lat="46.31907" lon="-0.21924">
        <ele>190</ele>
        <time>2011-10-18T16:20:10Z</time>
      </trkpt>
      <trkpt lat="46.3191" lon="-0.21917">
        <ele>190</ele>
        <time>2011-10-18T16:20:15Z</time>
      </trkpt>
      <trkpt lat="46.31912" lon="-0.2191">
        <ele>190</ele>
        <time>2011-10-18T16:20:20Z</time>
      </trkpt>
      <trkpt lat="46.31915" lon="-0.21903">
        <ele>191</ele>
        <time>2011-10-18T16:20:25Z</time>
      </trkpt>
      <trkpt lat="46.31918" lon="-0.21899">
        <ele>192</ele>
        <time>2011-10-18T16:20:30Z</time>
      </trkpt>
      <trkpt lat="46.31921" lon="-0.21893">
        <ele>190</ele>
        <time>2011-10-18T16:20:35Z</time>
      </trkpt>
      <trkpt lat="46.31924" lon="-0.21887">
        <ele>191</ele>
        <time>2011-10-18T16:20:40Z</time>
      </trkpt>
      <trkpt lat="46.3193" lon="-0.21879">
        <ele>191</ele>
        <time>2011-10-18T16:20:45Z</time>
      </trkpt>
      <trkpt lat="46.31933" lon="-0.21873">
        <ele>191</ele>
        <time>2011-10-18T16:20:50Z</time>
      </trkpt>
      <trkpt lat="46.31938" lon="-0.2187">
        <ele>190</ele>
        <time>2011-10-18T16:20:55Z</time>
      </trkpt>
      <trkpt lat="46.31942" lon="-0.21869">
        <ele>187</ele>
        <time>2011-10-18T16:21:00Z</time>
      </trkpt>
      <trkpt lat="46.31948" lon="-0.21869">
        <ele>185</ele>
        <time>2011-10-18T16:21:05Z</time>
      </trkpt>
      <trkpt lat="46.31952" lon="-0.2187">
        <ele>186</ele>
        <time>2011-10-18T16:21:10Z</time>
      </trkpt>
      <trkpt lat="46.31957" lon="-0.21871">
        <ele>187</ele>
        <time>2011-10-18T16:21:15Z</time>
      </trkpt>
      <trkpt lat="46.31963" lon="-0.21872">
        <ele>186</ele>
        <time>2011-10-18T16:21:20Z</time>
      </trkpt>
      <trkpt lat="46.31968" lon="-0.21871">
        <ele>186</ele>
        <time>2011-10-18T16:21:25Z</time>
      </trkpt>
      <trkpt lat="46.31973" lon="-0.21871">
        <ele>186</ele>
        <time>2011-10-18T16:21:30Z</time>
      </trkpt>
      <trkpt lat="46.31978" lon="-0.21869">
        <ele>184</ele>
        <time>2011-10-18T16:21:35Z</time>
      </trkpt>
      <trkpt lat="46.31982" lon="-0.21872">
        <ele>185</ele>
        <time>2011-10-18T16:21:40Z</time>
      </trkpt>
      <trkpt lat="46.31983" lon="-0.21872">
        <ele>185</ele>
        <time>2011-10-18T16:21:45Z</time>
      </trkpt>
      <trkpt lat="46.31985" lon="-0.21872">
        <ele>186</ele>
        <time>2011-10-18T16:21:55Z</time>
      </trkpt>
      <trkpt lat="46.31986" lon="-0.21874">
        <ele>186</ele>
        <time>2011-10-18T16:22:00Z</time>
      </trkpt>
      <trkpt lat="46.31987" lon="-0.21874">
        <ele>186</ele>
        <time>2011-10-18T16:22:05Z</time>
      </trkpt>
      <trkpt lat="46.3199" lon="-0.21873">
        <ele>184</ele>
        <time>2011-10-18T16:22:15Z</time>
      </trkpt>
      <trkpt lat="46.31992" lon="-0.21873">
        <ele>184</ele>
        <time>2011-10-18T16:22:20Z</time>
      </trkpt>
      <trkpt lat="46.31992" lon="-0.21874">
        <ele>185</ele>
        <time>2011-10-18T16:22:25Z</time>
      </trkpt>
      <trkpt lat="46.31993" lon="-0.21873">
        <ele>185</ele>
        <time>2011-10-18T16:22:35Z</time>
      </trkpt>
      <trkpt lat="46.31994" lon="-0.21872">
        <ele>186</ele>
        <time>2011-10-18T16:22:40Z</time>
      </trkpt>
      <trkpt lat="46.31994" lon="-0.21871">
        <ele>185</ele>
        <time>2011-10-18T16:22:45Z</time>
      </trkpt>
      <trkpt lat="46.31994" lon="-0.21873">
        <ele>185</ele>
        <time>2011-10-18T16:23:00Z</time>
      </trkpt>
      <trkpt lat="46.31994" lon="-0.21874">
        <ele>185</ele>
        <time>2011-10-18T16:23:05Z</time>
      </trkpt>
      <trkpt lat="46.31995" lon="-0.21877">
        <ele>185</ele>
        <time>2011-10-18T16:23:10Z</time>
      </trkpt>
      <trkpt lat="46.31995" lon="-0.2188">
        <ele>185</ele>
        <time>2011-10-18T16:23:15Z</time>
      </trkpt>
      <trkpt lat="46.31996" lon="-0.21886">
        <ele>185</ele>
        <time>2011-10-18T16:23:20Z</time>
      </trkpt>
      <trkpt lat="46.31997" lon="-0.21893">
        <ele>184</ele>
        <time>2011-10-18T16:23:25Z</time>
      </trkpt>
      <trkpt lat="46.31998" lon="-0.21901">
        <ele>184</ele>
        <time>2011-10-18T16:23:30Z</time>
      </trkpt>
      <trkpt lat="46.32" lon="-0.21907">
        <ele>182</ele>
        <time>2011-10-18T16:23:35Z</time>
      </trkpt>
      <trkpt lat="46.32" lon="-0.21913">
        <ele>180</ele>
        <time>2011-10-18T16:23:40Z</time>
      </trkpt>
      <trkpt lat="46.32002" lon="-0.21922">
        <ele>181</ele>
        <time>2011-10-18T16:23:45Z</time>
      </trkpt>
      <trkpt lat="46.32004" lon="-0.2193">
        <ele>179</ele>
        <time>2011-10-18T16:23:50Z</time>
      </trkpt>
      <trkpt lat="46.32006" lon="-0.21937">
        <ele>179</ele>
        <time>2011-10-18T16:23:55Z</time>
      </trkpt>
      <trkpt lat="46.32007" lon="-0.21948">
        <ele>181</ele>
        <time>2011-10-18T16:24:00Z</time>
      </trkpt>
      <trkpt lat="46.32011" lon="-0.21954">
        <ele>181</ele>
        <time>2011-10-18T16:24:05Z</time>
      </trkpt>
      <trkpt lat="46.32014" lon="-0.21961">
        <ele>181</ele>
        <time>2011-10-18T16:24:10Z</time>
      </trkpt>
      <trkpt lat="46.32017" lon="-0.21968">
        <ele>181</ele>
        <time>2011-10-18T16:24:15Z</time>
      </trkpt>
      <trkpt lat="46.32021" lon="-0.21975">
        <ele>182</ele>
        <time>2011-10-18T16:24:20Z</time>
      </trkpt>
      <trkpt lat="46.32025" lon="-0.21982">
        <ele>183</ele>
        <time>2011-10-18T16:24:25Z</time>
      </trkpt>
      <trkpt lat="46.32029" lon="-0.21988">
        <ele>183</ele>
        <time>2011-10-18T16:24:30Z</time>
      </trkpt>
      <trkpt lat="46.32032" lon="-0.21994">
        <ele>182</ele>
        <time>2011-10-18T16:24:35Z</time>
      </trkpt>
      <trkpt lat="46.32036" lon="-0.22">
        <ele>182</ele>
        <time>2011-10-18T16:24:40Z</time>
      </trkpt>
      <trkpt lat="46.3204" lon="-0.22006">
        <ele>182</ele>
        <time>2011-10-18T16:24:45Z</time>
      </trkpt>
      <trkpt lat="46.32044" lon="-0.22012">
        <ele>182</ele>
        <time>2011-10-18T16:24:50Z</time>
      </trkpt>
      <trkpt lat="46.32047" lon="-0.22018">
        <ele>181</ele>
        <time>2011-10-18T16:24:55Z</time>
      </trkpt>
      <trkpt lat="46.32052" lon="-0.22022">
        <ele>183</ele>
        <time>2011-10-18T16:25:00Z</time>
      </trkpt>
      <trkpt lat="46.32057" lon="-0.22023">
        <ele>182</ele>
        <time>2011-10-18T16:25:05Z</time>
      </trkpt>
      <trkpt lat="46.32062" lon="-0.22023">
        <ele>182</ele>
        <time>2011-10-18T16:25:10Z</time>
      </trkpt>
      <trkpt lat="46.32067" lon="-0.22022">
        <ele>182</ele>
        <time>2011-10-18T16:25:15Z</time>
      </trkpt>
      <trkpt lat="46.32072" lon="-0.2202">
        <ele>182</ele>
        <time>2011-10-18T16:25:20Z</time>
      </trkpt>
      <trkpt lat="46.32076" lon="-0.22017">
        <ele>182</ele>
        <time>2011-10-18T16:25:25Z</time>
      </trkpt>
      <trkpt lat="46.32082" lon="-0.22013">
        <ele>183</ele>
        <time>2011-10-18T16:25:30Z</time>
      </trkpt>
      <trkpt lat="46.32086" lon="-0.2201">
        <ele>185</ele>
        <time>2011-10-18T16:25:35Z</time>
      </trkpt>
      <trkpt lat="46.32091" lon="-0.22006">
        <ele>186</ele>
        <time>2011-10-18T16:25:40Z</time>
      </trkpt>
      <trkpt lat="46.32095" lon="-0.22003">
        <ele>187</ele>
        <time>2011-10-18T16:25:45Z</time>
      </trkpt>
      <trkpt lat="46.32098" lon="-0.22001">
        <ele>188</ele>
        <time>2011-10-18T16:25:50Z</time>
      </trkpt>
      <trkpt lat="46.32104" lon="-0.21997">
        <ele>188</ele>
        <time>2011-10-18T16:25:55Z</time>
      </trkpt>
      <trkpt lat="46.32108" lon="-0.21991">
        <ele>187</ele>
        <time>2011-10-18T16:26:00Z</time>
      </trkpt>
      <trkpt lat="46.32115" lon="-0.21985">
        <ele>187</ele>
        <time>2011-10-18T16:26:05Z</time>
      </trkpt>
      <trkpt lat="46.3212" lon="-0.21982">
        <ele>186</ele>
        <time>2011-10-18T16:26:10Z</time>
      </trkpt>
      <trkpt lat="46.32123" lon="-0.2198">
        <ele>187</ele>
        <time>2011-10-18T16:26:15Z</time>
      </trkpt>
      <trkpt lat="46.32128" lon="-0.21976">
        <ele>187</ele>
        <time>2011-10-18T16:26:20Z</time>
      </trkpt>
      <trkpt lat="46.32133" lon="-0.21973">
        <ele>188</ele>
        <time>2011-10-18T16:26:25Z</time>
      </trkpt>
      <trkpt lat="46.32137" lon="-0.2197">
        <ele>188</ele>
        <time>2011-10-18T16:26:30Z</time>
      </trkpt>
      <trkpt lat="46.32142" lon="-0.2197">
        <ele>187</ele>
        <time>2011-10-18T16:26:35Z</time>
      </trkpt>
      <trkpt lat="46.32148" lon="-0.21966">
        <ele>188</ele>
        <time>2011-10-18T16:26:40Z</time>
      </trkpt>
      <trkpt lat="46.32152" lon="-0.21963">
        <ele>187</ele>
        <time>2011-10-18T16:26:45Z</time>
      </trkpt>
      <trkpt lat="46.32155" lon="-0.2196">
        <ele>190</ele>
        <time>2011-10-18T16:26:50Z</time>
      </trkpt>
      <trkpt lat="46.3216" lon="-0.21959">
        <ele>191</ele>
        <time>2011-10-18T16:26:55Z</time>
      </trkpt>
      <trkpt lat="46.32164" lon="-0.21957">
        <ele>192</ele>
        <time>2011-10-18T16:27:00Z</time>
      </trkpt>
      <trkpt lat="46.32171" lon="-0.21954">
        <ele>193</ele>
        <time>2011-10-18T16:27:05Z</time>
      </trkpt>
      <trkpt lat="46.32177" lon="-0.21951">
        <ele>190</ele>
        <time>2011-10-18T16:27:10Z</time>
      </trkpt>
      <trkpt lat="46.32181" lon="-0.2195">
        <ele>190</ele>
        <time>2011-10-18T16:27:15Z</time>
      </trkpt>
      <trkpt lat="46.32186" lon="-0.21948">
        <ele>190</ele>
        <time>2011-10-18T16:27:20Z</time>
      </trkpt>
      <trkpt lat="46.32191" lon="-0.21944">
        <ele>191</ele>
        <time>2011-10-18T16:27:25Z</time>
      </trkpt>
      <trkpt lat="46.32197" lon="-0.21943">
        <ele>191</ele>
        <time>2011-10-18T16:27:30Z</time>
      </trkpt>
      <trkpt lat="46.32202" lon="-0.21942">
        <ele>190</ele>
        <time>2011-10-18T16:27:35Z</time>
      </trkpt>
      <trkpt lat="46.32207" lon="-0.2194">
        <ele>191</ele>
        <time>2011-10-18T16:27:40Z</time>
      </trkpt>
      <trkpt lat="46.32212" lon="-0.21938">
        <ele>191</ele>
        <time>2011-10-18T16:27:45Z</time>
      </trkpt>
      <trkpt lat="46.32216" lon="-0.21933">
        <ele>192</ele>
        <time>2011-10-18T16:27:50Z</time>
      </trkpt>
      <trkpt lat="46.32218" lon="-0.21931">
        <ele>192</ele>
        <time>2011-10-18T16:27:55Z</time>
      </trkpt>
      <trkpt lat="46.32223" lon="-0.21929">
        <ele>192</ele>
        <time>2011-10-18T16:28:00Z</time>
      </trkpt>
      <trkpt lat="46.32223" lon="-0.21928">
        <ele>191</ele>
        <time>2011-10-18T16:28:05Z</time>
      </trkpt>
      <trkpt lat="46.32226" lon="-0.21924">
        <ele>191</ele>
        <time>2011-10-18T16:28:10Z</time>
      </trkpt>
      <trkpt lat="46.32232" lon="-0.21918">
        <ele>193</ele>
        <time>2011-10-18T16:28:15Z</time>
      </trkpt>
      <trkpt lat="46.32236" lon="-0.21915">
        <ele>192</ele>
        <time>2011-10-18T16:28:20Z</time>
      </trkpt>
      <trkpt lat="46.3224" lon="-0.21912">
        <ele>191</ele>
        <time>2011-10-18T16:28:25Z</time>
      </trkpt>
      <trkpt lat="46.32242" lon="-0.21909">
        <ele>191</ele>
        <time>2011-10-18T16:28:30Z</time>
      </trkpt>
      <trkpt lat="46.32246" lon="-0.21906">
        <ele>192</ele>
        <time>2011-10-18T16:28:35Z</time>
      </trkpt>
      <trkpt lat="46.32251" lon="-0.21907">
        <ele>191</ele>
        <time>2011-10-18T16:28:40Z</time>
      </trkpt>
      <trkpt lat="46.32257" lon="-0.21909">
        <ele>191</ele>
        <time>2011-10-18T16:28:45Z</time>
      </trkpt>
      <trkpt lat="46.32261" lon="-0.21911">
        <ele>191</ele>
        <time>2011-10-18T16:28:50Z</time>
      </trkpt>
      <trkpt lat="46.32267" lon="-0.21913">
        <ele>191</ele>
        <time>2011-10-18T16:28:55Z</time>
      </trkpt>
      <trkpt lat="46.32272" lon="-0.21915">
        <ele>189</ele>
        <time>2011-10-18T16:29:00Z</time>
      </trkpt>
      <trkpt lat="46.32277" lon="-0.21916">
        <ele>189</ele>
        <time>2011-10-18T16:29:05Z</time>
      </trkpt>
      <trkpt lat="46.3228" lon="-0.21921">
        <ele>188</ele>
        <time>2011-10-18T16:29:10Z</time>
      </trkpt>
      <trkpt lat="46.3228" lon="-0.21925">
        <ele>187</ele>
        <time>2011-10-18T16:29:15Z</time>
      </trkpt>
      <trkpt lat="46.3228" lon="-0.21926">
        <ele>187</ele>
        <time>2011-10-18T16:29:20Z</time>
      </trkpt>
    </trkseg>
  </trk>
</gpx>